<?xml version="1.0" encoding="UTF-8" standalone="no" ?>
<gpx xmlns="http://www.topografix.com/GPX/1/1" xmlns:xsi="http://www.w3.org/2001/XMLSchema-instance" xsi:schemaLocation="http://www.topografix.com/GPX/1/1 http://www.topografix.com/GPX/1/1/gpx.xsd" version="1.1" creator="VisuGPX - https://www.visugpx.com">
  <metadata>
    <name>83-D-Salernes</name>
    <desc><![CDATA[83-D-Salernes : La Lauve - St Barthélémy - la Lauvière
2016-09-04]]></desc>
  </metadata>
  <trk>
    <name><![CDATA[2016-09-04-salernes]]></name>
    <trkseg>
      <trkpt lat="43.5653" lon="6.22782">
        <ele>216.4</ele>
        <time>2016-09-04T06:29:27Z</time>
      </trkpt>
      <trkpt lat="43.5653" lon="6.22783">
        <ele>216.4</ele>
        <time>2016-09-04T06:29:28Z</time>
      </trkpt>
      <trkpt lat="43.5653" lon="6.22795">
        <ele>216.3</ele>
        <time>2016-09-04T06:29:37Z</time>
      </trkpt>
      <trkpt lat="43.56531" lon="6.22808">
        <ele>216.3</ele>
        <time>2016-09-04T06:29:47Z</time>
      </trkpt>
      <trkpt lat="43.56535" lon="6.2282">
        <ele>216.7</ele>
        <time>2016-09-04T06:29:59Z</time>
      </trkpt>
      <trkpt lat="43.56544" lon="6.22825">
        <ele>217.1</ele>
        <time>2016-09-04T06:30:13Z</time>
      </trkpt>
      <trkpt lat="43.56553" lon="6.22824">
        <ele>217.5</ele>
        <time>2016-09-04T06:30:23Z</time>
      </trkpt>
      <trkpt lat="43.56561" lon="6.22831">
        <ele>218.4</ele>
        <time>2016-09-04T06:30:33Z</time>
      </trkpt>
      <trkpt lat="43.56571" lon="6.22832">
        <ele>219.8</ele>
        <time>2016-09-04T06:30:42Z</time>
      </trkpt>
      <trkpt lat="43.5658" lon="6.22834">
        <ele>221.1</ele>
        <time>2016-09-04T06:30:52Z</time>
      </trkpt>
      <trkpt lat="43.56589" lon="6.22839">
        <ele>222.2</ele>
        <time>2016-09-04T06:31:00Z</time>
      </trkpt>
      <trkpt lat="43.56596" lon="6.22847">
        <ele>222.8</ele>
        <time>2016-09-04T06:31:09Z</time>
      </trkpt>
      <trkpt lat="43.56604" lon="6.22856">
        <ele>223.2</ele>
        <time>2016-09-04T06:31:20Z</time>
      </trkpt>
      <trkpt lat="43.56613" lon="6.22858">
        <ele>223.8</ele>
        <time>2016-09-04T06:31:27Z</time>
      </trkpt>
      <trkpt lat="43.56622" lon="6.22859">
        <ele>223.8</ele>
        <time>2016-09-04T06:31:37Z</time>
      </trkpt>
      <trkpt lat="43.56632" lon="6.22862">
        <ele>224.6</ele>
        <time>2016-09-04T06:31:48Z</time>
      </trkpt>
      <trkpt lat="43.56641" lon="6.22866">
        <ele>226.1</ele>
        <time>2016-09-04T06:31:58Z</time>
      </trkpt>
      <trkpt lat="43.56648" lon="6.22876">
        <ele>227.4</ele>
        <time>2016-09-04T06:32:08Z</time>
      </trkpt>
      <trkpt lat="43.56652" lon="6.22887">
        <ele>228.1</ele>
        <time>2016-09-04T06:32:17Z</time>
      </trkpt>
      <trkpt lat="43.56655" lon="6.22901">
        <ele>229.2</ele>
        <time>2016-09-04T06:32:29Z</time>
      </trkpt>
      <trkpt lat="43.56655" lon="6.22914">
        <ele>230.3</ele>
        <time>2016-09-04T06:32:41Z</time>
      </trkpt>
      <trkpt lat="43.56659" lon="6.22925">
        <ele>231.1</ele>
        <time>2016-09-04T06:32:49Z</time>
      </trkpt>
      <trkpt lat="43.56668" lon="6.22933">
        <ele>231.3</ele>
        <time>2016-09-04T06:32:58Z</time>
      </trkpt>
      <trkpt lat="43.5668" lon="6.22934">
        <ele>231</ele>
        <time>2016-09-04T06:33:05Z</time>
      </trkpt>
      <trkpt lat="43.5669" lon="6.22933">
        <ele>232.4</ele>
        <time>2016-09-04T06:33:11Z</time>
      </trkpt>
      <trkpt lat="43.567" lon="6.22929">
        <ele>233</ele>
        <time>2016-09-04T06:33:17Z</time>
      </trkpt>
      <trkpt lat="43.56709" lon="6.2293">
        <ele>233.3</ele>
        <time>2016-09-04T06:33:24Z</time>
      </trkpt>
      <trkpt lat="43.56718" lon="6.22925">
        <ele>234.4</ele>
        <time>2016-09-04T06:33:31Z</time>
      </trkpt>
      <trkpt lat="43.56727" lon="6.22919">
        <ele>235.4</ele>
        <time>2016-09-04T06:33:40Z</time>
      </trkpt>
      <trkpt lat="43.56736" lon="6.22914">
        <ele>236.4</ele>
        <time>2016-09-04T06:33:48Z</time>
      </trkpt>
      <trkpt lat="43.56745" lon="6.2291">
        <ele>237.7</ele>
        <time>2016-09-04T06:33:59Z</time>
      </trkpt>
      <trkpt lat="43.56754" lon="6.22904">
        <ele>239</ele>
        <time>2016-09-04T06:34:08Z</time>
      </trkpt>
      <trkpt lat="43.56763" lon="6.229">
        <ele>240.5</ele>
        <time>2016-09-04T06:34:21Z</time>
      </trkpt>
      <trkpt lat="43.56772" lon="6.22901">
        <ele>243.2</ele>
        <time>2016-09-04T06:34:42Z</time>
      </trkpt>
      <trkpt lat="43.5678" lon="6.22907">
        <ele>244.5</ele>
        <time>2016-09-04T06:34:50Z</time>
      </trkpt>
      <trkpt lat="43.56788" lon="6.22913">
        <ele>246.2</ele>
        <time>2016-09-04T06:34:59Z</time>
      </trkpt>
      <trkpt lat="43.56795" lon="6.22922">
        <ele>247.4</ele>
        <time>2016-09-04T06:35:09Z</time>
      </trkpt>
      <trkpt lat="43.56801" lon="6.22931">
        <ele>248.1</ele>
        <time>2016-09-04T06:35:16Z</time>
      </trkpt>
      <trkpt lat="43.56807" lon="6.22942">
        <ele>249.1</ele>
        <time>2016-09-04T06:35:24Z</time>
      </trkpt>
      <trkpt lat="43.56816" lon="6.22949">
        <ele>250</ele>
        <time>2016-09-04T06:35:31Z</time>
      </trkpt>
      <trkpt lat="43.56824" lon="6.22956">
        <ele>251.7</ele>
        <time>2016-09-04T06:35:42Z</time>
      </trkpt>
      <trkpt lat="43.56832" lon="6.22965">
        <ele>253.2</ele>
        <time>2016-09-04T06:35:51Z</time>
      </trkpt>
      <trkpt lat="43.56838" lon="6.22974">
        <ele>254.2</ele>
        <time>2016-09-04T06:35:58Z</time>
      </trkpt>
      <trkpt lat="43.56843" lon="6.22984">
        <ele>255.4</ele>
        <time>2016-09-04T06:36:07Z</time>
      </trkpt>
      <trkpt lat="43.56852" lon="6.22988">
        <ele>256.4</ele>
        <time>2016-09-04T06:36:14Z</time>
      </trkpt>
      <trkpt lat="43.56862" lon="6.22986">
        <ele>257.2</ele>
        <time>2016-09-04T06:36:22Z</time>
      </trkpt>
      <trkpt lat="43.56871" lon="6.22985">
        <ele>258.1</ele>
        <time>2016-09-04T06:36:28Z</time>
      </trkpt>
      <trkpt lat="43.5688" lon="6.22988">
        <ele>259.3</ele>
        <time>2016-09-04T06:36:39Z</time>
      </trkpt>
      <trkpt lat="43.56889" lon="6.22992">
        <ele>259.9</ele>
        <time>2016-09-04T06:36:47Z</time>
      </trkpt>
      <trkpt lat="43.56896" lon="6.23003">
        <ele>261.1</ele>
        <time>2016-09-04T06:36:58Z</time>
      </trkpt>
      <trkpt lat="43.56901" lon="6.23014">
        <ele>262</ele>
        <time>2016-09-04T06:37:07Z</time>
      </trkpt>
      <trkpt lat="43.56909" lon="6.23019">
        <ele>262.6</ele>
        <time>2016-09-04T06:37:16Z</time>
      </trkpt>
      <trkpt lat="43.56918" lon="6.23025">
        <ele>263.4</ele>
        <time>2016-09-04T06:37:24Z</time>
      </trkpt>
      <trkpt lat="43.56925" lon="6.23032">
        <ele>263.9</ele>
        <time>2016-09-04T06:37:31Z</time>
      </trkpt>
      <trkpt lat="43.56934" lon="6.23039">
        <ele>264.2</ele>
        <time>2016-09-04T06:37:39Z</time>
      </trkpt>
      <trkpt lat="43.56943" lon="6.23044">
        <ele>264.6</ele>
        <time>2016-09-04T06:37:47Z</time>
      </trkpt>
      <trkpt lat="43.56952" lon="6.23048">
        <ele>265</ele>
        <time>2016-09-04T06:37:54Z</time>
      </trkpt>
      <trkpt lat="43.56961" lon="6.23052">
        <ele>265.2</ele>
        <time>2016-09-04T06:38:01Z</time>
      </trkpt>
      <trkpt lat="43.56969" lon="6.2306">
        <ele>265.8</ele>
        <time>2016-09-04T06:38:11Z</time>
      </trkpt>
      <trkpt lat="43.56976" lon="6.23069">
        <ele>266.5</ele>
        <time>2016-09-04T06:38:19Z</time>
      </trkpt>
      <trkpt lat="43.56983" lon="6.23078">
        <ele>267</ele>
        <time>2016-09-04T06:38:27Z</time>
      </trkpt>
      <trkpt lat="43.5699" lon="6.23086">
        <ele>268.1</ele>
        <time>2016-09-04T06:38:38Z</time>
      </trkpt>
      <trkpt lat="43.56999" lon="6.23091">
        <ele>269.5</ele>
        <time>2016-09-04T06:38:48Z</time>
      </trkpt>
      <trkpt lat="43.57006" lon="6.23099">
        <ele>270.5</ele>
        <time>2016-09-04T06:38:56Z</time>
      </trkpt>
      <trkpt lat="43.57016" lon="6.23102">
        <ele>271.8</ele>
        <time>2016-09-04T06:39:06Z</time>
      </trkpt>
      <trkpt lat="43.57025" lon="6.231">
        <ele>272.6</ele>
        <time>2016-09-04T06:39:13Z</time>
      </trkpt>
      <trkpt lat="43.57034" lon="6.231">
        <ele>274.4</ele>
        <time>2016-09-04T06:39:23Z</time>
      </trkpt>
      <trkpt lat="43.57043" lon="6.23097">
        <ele>275.5</ele>
        <time>2016-09-04T06:39:32Z</time>
      </trkpt>
      <trkpt lat="43.57053" lon="6.23095">
        <ele>276.4</ele>
        <time>2016-09-04T06:39:42Z</time>
      </trkpt>
      <trkpt lat="43.57063" lon="6.23092">
        <ele>278.1</ele>
        <time>2016-09-04T06:39:52Z</time>
      </trkpt>
      <trkpt lat="43.57072" lon="6.23087">
        <ele>279.4</ele>
        <time>2016-09-04T06:40:01Z</time>
      </trkpt>
      <trkpt lat="43.57081" lon="6.23086">
        <ele>280.6</ele>
        <time>2016-09-04T06:40:11Z</time>
      </trkpt>
      <trkpt lat="43.5709" lon="6.23087">
        <ele>282.2</ele>
        <time>2016-09-04T06:40:21Z</time>
      </trkpt>
      <trkpt lat="43.571" lon="6.23088">
        <ele>284.5</ele>
        <time>2016-09-04T06:40:36Z</time>
      </trkpt>
      <trkpt lat="43.57109" lon="6.23085">
        <ele>285.5</ele>
        <time>2016-09-04T06:40:44Z</time>
      </trkpt>
      <trkpt lat="43.57118" lon="6.23082">
        <ele>286.5</ele>
        <time>2016-09-04T06:40:52Z</time>
      </trkpt>
      <trkpt lat="43.57128" lon="6.2308">
        <ele>287.5</ele>
        <time>2016-09-04T06:41:00Z</time>
      </trkpt>
      <trkpt lat="43.57137" lon="6.23081">
        <ele>288.3</ele>
        <time>2016-09-04T06:41:07Z</time>
      </trkpt>
      <trkpt lat="43.57146" lon="6.23084">
        <ele>289</ele>
        <time>2016-09-04T06:41:17Z</time>
      </trkpt>
      <trkpt lat="43.57156" lon="6.23086">
        <ele>289.7</ele>
        <time>2016-09-04T06:41:24Z</time>
      </trkpt>
      <trkpt lat="43.57165" lon="6.23089">
        <ele>290.2</ele>
        <time>2016-09-04T06:41:32Z</time>
      </trkpt>
      <trkpt lat="43.57173" lon="6.23094">
        <ele>290.6</ele>
        <time>2016-09-04T06:41:40Z</time>
      </trkpt>
      <trkpt lat="43.57182" lon="6.23098">
        <ele>291.3</ele>
        <time>2016-09-04T06:41:49Z</time>
      </trkpt>
      <trkpt lat="43.57189" lon="6.23109">
        <ele>292</ele>
        <time>2016-09-04T06:41:58Z</time>
      </trkpt>
      <trkpt lat="43.57188" lon="6.23122">
        <ele>292.4</ele>
        <time>2016-09-04T06:42:06Z</time>
      </trkpt>
      <trkpt lat="43.57192" lon="6.23133">
        <ele>292.6</ele>
        <time>2016-09-04T06:42:15Z</time>
      </trkpt>
      <trkpt lat="43.57199" lon="6.23143">
        <ele>293.3</ele>
        <time>2016-09-04T06:42:22Z</time>
      </trkpt>
      <trkpt lat="43.57203" lon="6.23155">
        <ele>293.3</ele>
        <time>2016-09-04T06:42:30Z</time>
      </trkpt>
      <trkpt lat="43.57205" lon="6.23168">
        <ele>293.4</ele>
        <time>2016-09-04T06:42:38Z</time>
      </trkpt>
      <trkpt lat="43.5721" lon="6.23179">
        <ele>293.1</ele>
        <time>2016-09-04T06:42:47Z</time>
      </trkpt>
      <trkpt lat="43.57216" lon="6.2319">
        <ele>292.9</ele>
        <time>2016-09-04T06:42:55Z</time>
      </trkpt>
      <trkpt lat="43.57224" lon="6.23198">
        <ele>293</ele>
        <time>2016-09-04T06:43:03Z</time>
      </trkpt>
      <trkpt lat="43.57233" lon="6.23204">
        <ele>293.2</ele>
        <time>2016-09-04T06:43:11Z</time>
      </trkpt>
      <trkpt lat="43.57242" lon="6.23207">
        <ele>293.9</ele>
        <time>2016-09-04T06:43:19Z</time>
      </trkpt>
      <trkpt lat="43.57251" lon="6.23211">
        <ele>294.4</ele>
        <time>2016-09-04T06:43:30Z</time>
      </trkpt>
      <trkpt lat="43.5726" lon="6.23213">
        <ele>295</ele>
        <time>2016-09-04T06:43:38Z</time>
      </trkpt>
      <trkpt lat="43.57269" lon="6.23218">
        <ele>295.5</ele>
        <time>2016-09-04T06:43:45Z</time>
      </trkpt>
      <trkpt lat="43.57278" lon="6.2322">
        <ele>295.9</ele>
        <time>2016-09-04T06:44:19Z</time>
      </trkpt>
      <trkpt lat="43.57278" lon="6.23234">
        <ele>296</ele>
        <time>2016-09-04T06:46:03Z</time>
      </trkpt>
      <trkpt lat="43.57279" lon="6.23246">
        <ele>296.5</ele>
        <time>2016-09-04T06:46:17Z</time>
      </trkpt>
      <trkpt lat="43.57273" lon="6.23257">
        <ele>296.7</ele>
        <time>2016-09-04T06:46:26Z</time>
      </trkpt>
      <trkpt lat="43.5728" lon="6.23267">
        <ele>297.8</ele>
        <time>2016-09-04T06:46:38Z</time>
      </trkpt>
      <trkpt lat="43.57288" lon="6.23273">
        <ele>298.8</ele>
        <time>2016-09-04T06:46:47Z</time>
      </trkpt>
      <trkpt lat="43.57297" lon="6.23277">
        <ele>300</ele>
        <time>2016-09-04T06:46:58Z</time>
      </trkpt>
      <trkpt lat="43.57306" lon="6.23281">
        <ele>301.8</ele>
        <time>2016-09-04T06:47:10Z</time>
      </trkpt>
      <trkpt lat="43.57315" lon="6.23285">
        <ele>304.3</ele>
        <time>2016-09-04T06:47:27Z</time>
      </trkpt>
      <trkpt lat="43.57324" lon="6.23289">
        <ele>306</ele>
        <time>2016-09-04T06:47:38Z</time>
      </trkpt>
      <trkpt lat="43.57333" lon="6.23289">
        <ele>308.5</ele>
        <time>2016-09-04T06:47:50Z</time>
      </trkpt>
      <trkpt lat="43.57342" lon="6.23287">
        <ele>310.5</ele>
        <time>2016-09-04T06:48:00Z</time>
      </trkpt>
      <trkpt lat="43.57351" lon="6.23287">
        <ele>313</ele>
        <time>2016-09-04T06:48:13Z</time>
      </trkpt>
      <trkpt lat="43.5736" lon="6.23292">
        <ele>316.5</ele>
        <time>2016-09-04T06:48:35Z</time>
      </trkpt>
      <trkpt lat="43.57369" lon="6.2329">
        <ele>318.9</ele>
        <time>2016-09-04T06:48:49Z</time>
      </trkpt>
      <trkpt lat="43.57378" lon="6.23288">
        <ele>321.3</ele>
        <time>2016-09-04T06:49:02Z</time>
      </trkpt>
      <trkpt lat="43.57387" lon="6.23287">
        <ele>324.5</ele>
        <time>2016-09-04T06:49:17Z</time>
      </trkpt>
      <trkpt lat="43.57397" lon="6.23284">
        <ele>326.8</ele>
        <time>2016-09-04T06:49:31Z</time>
      </trkpt>
      <trkpt lat="43.57406" lon="6.23282">
        <ele>329.3</ele>
        <time>2016-09-04T06:49:45Z</time>
      </trkpt>
      <trkpt lat="43.57415" lon="6.23284">
        <ele>331.1</ele>
        <time>2016-09-04T06:49:58Z</time>
      </trkpt>
      <trkpt lat="43.57424" lon="6.2328">
        <ele>333.7</ele>
        <time>2016-09-04T06:50:15Z</time>
      </trkpt>
      <trkpt lat="43.57434" lon="6.2328">
        <ele>335.6</ele>
        <time>2016-09-04T06:50:28Z</time>
      </trkpt>
      <trkpt lat="43.57442" lon="6.23276">
        <ele>337.7</ele>
        <time>2016-09-04T06:50:41Z</time>
      </trkpt>
      <trkpt lat="43.57451" lon="6.23272">
        <ele>340.1</ele>
        <time>2016-09-04T06:50:54Z</time>
      </trkpt>
      <trkpt lat="43.57459" lon="6.23268">
        <ele>343.1</ele>
        <time>2016-09-04T06:51:09Z</time>
      </trkpt>
      <trkpt lat="43.57468" lon="6.23265">
        <ele>345.3</ele>
        <time>2016-09-04T06:51:22Z</time>
      </trkpt>
      <trkpt lat="43.57477" lon="6.23262">
        <ele>347.3</ele>
        <time>2016-09-04T06:51:36Z</time>
      </trkpt>
      <trkpt lat="43.57485" lon="6.23255">
        <ele>349.2</ele>
        <time>2016-09-04T06:51:49Z</time>
      </trkpt>
      <trkpt lat="43.57492" lon="6.23246">
        <ele>350</ele>
        <time>2016-09-04T06:52:04Z</time>
      </trkpt>
      <trkpt lat="43.575" lon="6.23241">
        <ele>350.9</ele>
        <time>2016-09-04T06:52:15Z</time>
      </trkpt>
      <trkpt lat="43.57508" lon="6.23236">
        <ele>351.9</ele>
        <time>2016-09-04T06:52:27Z</time>
      </trkpt>
      <trkpt lat="43.57517" lon="6.23231">
        <ele>353.8</ele>
        <time>2016-09-04T06:52:40Z</time>
      </trkpt>
      <trkpt lat="43.57525" lon="6.23225">
        <ele>355.6</ele>
        <time>2016-09-04T06:52:53Z</time>
      </trkpt>
      <trkpt lat="43.57535" lon="6.23224">
        <ele>357.6</ele>
        <time>2016-09-04T06:53:05Z</time>
      </trkpt>
      <trkpt lat="43.57544" lon="6.23224">
        <ele>359.1</ele>
        <time>2016-09-04T06:53:17Z</time>
      </trkpt>
      <trkpt lat="43.57552" lon="6.23218">
        <ele>362.5</ele>
        <time>2016-09-04T06:57:06Z</time>
      </trkpt>
      <trkpt lat="43.5756" lon="6.23212">
        <ele>363.2</ele>
        <time>2016-09-04T06:57:19Z</time>
      </trkpt>
      <trkpt lat="43.57567" lon="6.23202">
        <ele>363.6</ele>
        <time>2016-09-04T06:57:30Z</time>
      </trkpt>
      <trkpt lat="43.57572" lon="6.23191">
        <ele>363.8</ele>
        <time>2016-09-04T06:57:41Z</time>
      </trkpt>
      <trkpt lat="43.57575" lon="6.23179">
        <ele>364.6</ele>
        <time>2016-09-04T06:57:53Z</time>
      </trkpt>
      <trkpt lat="43.57576" lon="6.23166">
        <ele>366.2</ele>
        <time>2016-09-04T06:58:06Z</time>
      </trkpt>
      <trkpt lat="43.57576" lon="6.23153">
        <ele>367.7</ele>
        <time>2016-09-04T06:58:18Z</time>
      </trkpt>
      <trkpt lat="43.57579" lon="6.23141">
        <ele>369.3</ele>
        <time>2016-09-04T06:58:30Z</time>
      </trkpt>
      <trkpt lat="43.57582" lon="6.23129">
        <ele>370.3</ele>
        <time>2016-09-04T06:58:42Z</time>
      </trkpt>
      <trkpt lat="43.57586" lon="6.23117">
        <ele>371.4</ele>
        <time>2016-09-04T06:58:53Z</time>
      </trkpt>
      <trkpt lat="43.5759" lon="6.23105">
        <ele>372.1</ele>
        <time>2016-09-04T06:59:06Z</time>
      </trkpt>
      <trkpt lat="43.57594" lon="6.23093">
        <ele>372.9</ele>
        <time>2016-09-04T06:59:18Z</time>
      </trkpt>
      <trkpt lat="43.57599" lon="6.23082">
        <ele>373.9</ele>
        <time>2016-09-04T06:59:32Z</time>
      </trkpt>
      <trkpt lat="43.57603" lon="6.23069">
        <ele>375.4</ele>
        <time>2016-09-04T06:59:46Z</time>
      </trkpt>
      <trkpt lat="43.57605" lon="6.23057">
        <ele>377</ele>
        <time>2016-09-04T07:00:01Z</time>
      </trkpt>
      <trkpt lat="43.57611" lon="6.23046">
        <ele>379</ele>
        <time>2016-09-04T07:00:16Z</time>
      </trkpt>
      <trkpt lat="43.57616" lon="6.23037">
        <ele>380.5</ele>
        <time>2016-09-04T07:00:27Z</time>
      </trkpt>
      <trkpt lat="43.57624" lon="6.2303">
        <ele>381.8</ele>
        <time>2016-09-04T07:00:40Z</time>
      </trkpt>
      <trkpt lat="43.57633" lon="6.23023">
        <ele>382.9</ele>
        <time>2016-09-04T07:00:50Z</time>
      </trkpt>
      <trkpt lat="43.57641" lon="6.23017">
        <ele>384.4</ele>
        <time>2016-09-04T07:01:01Z</time>
      </trkpt>
      <trkpt lat="43.57647" lon="6.23008">
        <ele>385.7</ele>
        <time>2016-09-04T07:01:12Z</time>
      </trkpt>
      <trkpt lat="43.57651" lon="6.22995">
        <ele>387</ele>
        <time>2016-09-04T07:01:24Z</time>
      </trkpt>
      <trkpt lat="43.57656" lon="6.22985">
        <ele>387.9</ele>
        <time>2016-09-04T07:01:32Z</time>
      </trkpt>
      <trkpt lat="43.57663" lon="6.22976">
        <ele>388.5</ele>
        <time>2016-09-04T07:01:41Z</time>
      </trkpt>
      <trkpt lat="43.57668" lon="6.22966">
        <ele>389.5</ele>
        <time>2016-09-04T07:01:52Z</time>
      </trkpt>
      <trkpt lat="43.57676" lon="6.22958">
        <ele>390.8</ele>
        <time>2016-09-04T07:02:05Z</time>
      </trkpt>
      <trkpt lat="43.57684" lon="6.22951">
        <ele>392.2</ele>
        <time>2016-09-04T07:02:16Z</time>
      </trkpt>
      <trkpt lat="43.57692" lon="6.22945">
        <ele>394</ele>
        <time>2016-09-04T07:02:29Z</time>
      </trkpt>
      <trkpt lat="43.57701" lon="6.2294">
        <ele>395.3</ele>
        <time>2016-09-04T07:02:40Z</time>
      </trkpt>
      <trkpt lat="43.57707" lon="6.2293">
        <ele>396.3</ele>
        <time>2016-09-04T07:02:50Z</time>
      </trkpt>
      <trkpt lat="43.57711" lon="6.22918">
        <ele>397.3</ele>
        <time>2016-09-04T07:03:01Z</time>
      </trkpt>
      <trkpt lat="43.57717" lon="6.22909">
        <ele>397.8</ele>
        <time>2016-09-04T07:03:09Z</time>
      </trkpt>
      <trkpt lat="43.57725" lon="6.22903">
        <ele>398.6</ele>
        <time>2016-09-04T07:03:21Z</time>
      </trkpt>
      <trkpt lat="43.57735" lon="6.22905">
        <ele>399.7</ele>
        <time>2016-09-04T07:03:33Z</time>
      </trkpt>
      <trkpt lat="43.57744" lon="6.229">
        <ele>400.5</ele>
        <time>2016-09-04T07:03:43Z</time>
      </trkpt>
      <trkpt lat="43.57751" lon="6.22891">
        <ele>400.9</ele>
        <time>2016-09-04T07:03:50Z</time>
      </trkpt>
      <trkpt lat="43.57756" lon="6.22881">
        <ele>401.5</ele>
        <time>2016-09-04T07:04:02Z</time>
      </trkpt>
      <trkpt lat="43.57749" lon="6.22889">
        <ele>402.3</ele>
        <time>2016-09-04T07:04:45Z</time>
      </trkpt>
      <trkpt lat="43.5774" lon="6.22889">
        <ele>402.5</ele>
        <time>2016-09-04T07:05:07Z</time>
      </trkpt>
      <trkpt lat="43.57749" lon="6.22887">
        <ele>402.7</ele>
        <time>2016-09-04T07:06:47Z</time>
      </trkpt>
      <trkpt lat="43.57756" lon="6.22878">
        <ele>402</ele>
        <time>2016-09-04T07:07:22Z</time>
      </trkpt>
      <trkpt lat="43.57762" lon="6.22869">
        <ele>401</ele>
        <time>2016-09-04T07:08:44Z</time>
      </trkpt>
      <trkpt lat="43.57762" lon="6.22856">
        <ele>400.2</ele>
        <time>2016-09-04T07:12:01Z</time>
      </trkpt>
      <trkpt lat="43.57768" lon="6.22844">
        <ele>400.1</ele>
        <time>2016-09-04T07:12:09Z</time>
      </trkpt>
      <trkpt lat="43.57771" lon="6.22832">
        <ele>399.6</ele>
        <time>2016-09-04T07:12:17Z</time>
      </trkpt>
      <trkpt lat="43.57776" lon="6.22821">
        <ele>399.6</ele>
        <time>2016-09-04T07:12:29Z</time>
      </trkpt>
      <trkpt lat="43.5778" lon="6.2281">
        <ele>399.8</ele>
        <time>2016-09-04T07:12:37Z</time>
      </trkpt>
      <trkpt lat="43.57784" lon="6.22798">
        <ele>399.9</ele>
        <time>2016-09-04T07:12:46Z</time>
      </trkpt>
      <trkpt lat="43.57788" lon="6.22787">
        <ele>399.9</ele>
        <time>2016-09-04T07:12:54Z</time>
      </trkpt>
      <trkpt lat="43.57792" lon="6.22776">
        <ele>399.8</ele>
        <time>2016-09-04T07:13:02Z</time>
      </trkpt>
      <trkpt lat="43.57797" lon="6.22765">
        <ele>399.6</ele>
        <time>2016-09-04T07:13:10Z</time>
      </trkpt>
      <trkpt lat="43.57802" lon="6.22754">
        <ele>399.4</ele>
        <time>2016-09-04T07:13:18Z</time>
      </trkpt>
      <trkpt lat="43.5781" lon="6.22745">
        <ele>399.4</ele>
        <time>2016-09-04T07:13:28Z</time>
      </trkpt>
      <trkpt lat="43.57819" lon="6.22739">
        <ele>399.4</ele>
        <time>2016-09-04T07:13:36Z</time>
      </trkpt>
      <trkpt lat="43.57826" lon="6.2273">
        <ele>399.5</ele>
        <time>2016-09-04T07:13:46Z</time>
      </trkpt>
      <trkpt lat="43.57835" lon="6.22722">
        <ele>399.8</ele>
        <time>2016-09-04T07:13:53Z</time>
      </trkpt>
      <trkpt lat="43.5784" lon="6.2271">
        <ele>400.5</ele>
        <time>2016-09-04T07:14:04Z</time>
      </trkpt>
      <trkpt lat="43.57845" lon="6.227">
        <ele>400.8</ele>
        <time>2016-09-04T07:14:11Z</time>
      </trkpt>
      <trkpt lat="43.57853" lon="6.22693">
        <ele>400.9</ele>
        <time>2016-09-04T07:14:20Z</time>
      </trkpt>
      <trkpt lat="43.57861" lon="6.22688">
        <ele>401</ele>
        <time>2016-09-04T07:14:28Z</time>
      </trkpt>
      <trkpt lat="43.57869" lon="6.22681">
        <ele>401</ele>
        <time>2016-09-04T07:14:39Z</time>
      </trkpt>
      <trkpt lat="43.57878" lon="6.22677">
        <ele>401.1</ele>
        <time>2016-09-04T07:14:49Z</time>
      </trkpt>
      <trkpt lat="43.57887" lon="6.22674">
        <ele>401.3</ele>
        <time>2016-09-04T07:14:57Z</time>
      </trkpt>
      <trkpt lat="43.57897" lon="6.22672">
        <ele>401.6</ele>
        <time>2016-09-04T07:15:05Z</time>
      </trkpt>
      <trkpt lat="43.57904" lon="6.22664">
        <ele>401.8</ele>
        <time>2016-09-04T07:15:16Z</time>
      </trkpt>
      <trkpt lat="43.57912" lon="6.22656">
        <ele>402.2</ele>
        <time>2016-09-04T07:15:28Z</time>
      </trkpt>
      <trkpt lat="43.57919" lon="6.22648">
        <ele>402.7</ele>
        <time>2016-09-04T07:15:37Z</time>
      </trkpt>
      <trkpt lat="43.57914" lon="6.22636">
        <ele>403</ele>
        <time>2016-09-04T07:15:45Z</time>
      </trkpt>
      <trkpt lat="43.57908" lon="6.22627">
        <ele>403.2</ele>
        <time>2016-09-04T07:15:53Z</time>
      </trkpt>
      <trkpt lat="43.57902" lon="6.22616">
        <ele>403.4</ele>
        <time>2016-09-04T07:16:03Z</time>
      </trkpt>
      <trkpt lat="43.57899" lon="6.22603">
        <ele>404</ele>
        <time>2016-09-04T07:16:19Z</time>
      </trkpt>
      <trkpt lat="43.5789" lon="6.226">
        <ele>404.1</ele>
        <time>2016-09-04T07:17:29Z</time>
      </trkpt>
      <trkpt lat="43.57899" lon="6.22602">
        <ele>404.1</ele>
        <time>2016-09-04T07:20:08Z</time>
      </trkpt>
      <trkpt lat="43.57902" lon="6.2259">
        <ele>404.5</ele>
        <time>2016-09-04T07:20:35Z</time>
      </trkpt>
      <trkpt lat="43.57909" lon="6.22598">
        <ele>403.7</ele>
        <time>2016-09-04T07:21:08Z</time>
      </trkpt>
      <trkpt lat="43.57911" lon="6.2261">
        <ele>403.5</ele>
        <time>2016-09-04T07:21:30Z</time>
      </trkpt>
      <trkpt lat="43.57909" lon="6.22623">
        <ele>403.5</ele>
        <time>2016-09-04T07:21:43Z</time>
      </trkpt>
      <trkpt lat="43.57913" lon="6.22635">
        <ele>403.5</ele>
        <time>2016-09-04T07:21:55Z</time>
      </trkpt>
      <trkpt lat="43.57922" lon="6.22639">
        <ele>403.6</ele>
        <time>2016-09-04T07:22:03Z</time>
      </trkpt>
      <trkpt lat="43.57931" lon="6.22642">
        <ele>403.7</ele>
        <time>2016-09-04T07:22:15Z</time>
      </trkpt>
      <trkpt lat="43.5794" lon="6.22641">
        <ele>403.8</ele>
        <time>2016-09-04T07:22:29Z</time>
      </trkpt>
      <trkpt lat="43.5795" lon="6.22643">
        <ele>404.4</ele>
        <time>2016-09-04T07:22:40Z</time>
      </trkpt>
      <trkpt lat="43.57959" lon="6.22644">
        <ele>404.8</ele>
        <time>2016-09-04T07:22:49Z</time>
      </trkpt>
      <trkpt lat="43.57968" lon="6.22643">
        <ele>405.5</ele>
        <time>2016-09-04T07:22:58Z</time>
      </trkpt>
      <trkpt lat="43.57977" lon="6.22644">
        <ele>406</ele>
        <time>2016-09-04T07:23:06Z</time>
      </trkpt>
      <trkpt lat="43.57987" lon="6.22648">
        <ele>406.8</ele>
        <time>2016-09-04T07:23:16Z</time>
      </trkpt>
      <trkpt lat="43.57996" lon="6.22653">
        <ele>407.5</ele>
        <time>2016-09-04T07:23:26Z</time>
      </trkpt>
      <trkpt lat="43.58005" lon="6.22654">
        <ele>408.1</ele>
        <time>2016-09-04T07:23:34Z</time>
      </trkpt>
      <trkpt lat="43.58014" lon="6.22654">
        <ele>408.5</ele>
        <time>2016-09-04T07:23:42Z</time>
      </trkpt>
      <trkpt lat="43.58023" lon="6.22656">
        <ele>408.9</ele>
        <time>2016-09-04T07:23:53Z</time>
      </trkpt>
      <trkpt lat="43.58033" lon="6.22659">
        <ele>409.1</ele>
        <time>2016-09-04T07:24:03Z</time>
      </trkpt>
      <trkpt lat="43.58042" lon="6.22662">
        <ele>409.4</ele>
        <time>2016-09-04T07:24:12Z</time>
      </trkpt>
      <trkpt lat="43.58051" lon="6.22665">
        <ele>409.9</ele>
        <time>2016-09-04T07:24:20Z</time>
      </trkpt>
      <trkpt lat="43.58061" lon="6.22667">
        <ele>410.1</ele>
        <time>2016-09-04T07:24:27Z</time>
      </trkpt>
      <trkpt lat="43.5807" lon="6.22665">
        <ele>410.3</ele>
        <time>2016-09-04T07:24:37Z</time>
      </trkpt>
      <trkpt lat="43.58079" lon="6.22667">
        <ele>410.5</ele>
        <time>2016-09-04T07:24:47Z</time>
      </trkpt>
      <trkpt lat="43.58089" lon="6.22668">
        <ele>410.9</ele>
        <time>2016-09-04T07:24:56Z</time>
      </trkpt>
      <trkpt lat="43.58099" lon="6.22671">
        <ele>411.4</ele>
        <time>2016-09-04T07:25:06Z</time>
      </trkpt>
      <trkpt lat="43.58109" lon="6.22675">
        <ele>411.8</ele>
        <time>2016-09-04T07:25:13Z</time>
      </trkpt>
      <trkpt lat="43.58118" lon="6.22679">
        <ele>412.4</ele>
        <time>2016-09-04T07:25:22Z</time>
      </trkpt>
      <trkpt lat="43.58127" lon="6.22684">
        <ele>413.1</ele>
        <time>2016-09-04T07:25:31Z</time>
      </trkpt>
      <trkpt lat="43.58134" lon="6.22693">
        <ele>414.2</ele>
        <time>2016-09-04T07:25:41Z</time>
      </trkpt>
      <trkpt lat="43.58143" lon="6.22696">
        <ele>415.5</ele>
        <time>2016-09-04T07:25:52Z</time>
      </trkpt>
      <trkpt lat="43.58153" lon="6.22696">
        <ele>416.7</ele>
        <time>2016-09-04T07:26:03Z</time>
      </trkpt>
      <trkpt lat="43.58162" lon="6.22696">
        <ele>417.7</ele>
        <time>2016-09-04T07:26:11Z</time>
      </trkpt>
      <trkpt lat="43.5817" lon="6.22703">
        <ele>418.7</ele>
        <time>2016-09-04T07:26:19Z</time>
      </trkpt>
      <trkpt lat="43.58179" lon="6.22705">
        <ele>419.4</ele>
        <time>2016-09-04T07:26:29Z</time>
      </trkpt>
      <trkpt lat="43.58188" lon="6.22706">
        <ele>419.6</ele>
        <time>2016-09-04T07:26:35Z</time>
      </trkpt>
      <trkpt lat="43.58195" lon="6.22717">
        <ele>420</ele>
        <time>2016-09-04T07:26:45Z</time>
      </trkpt>
      <trkpt lat="43.58203" lon="6.22721">
        <ele>420.2</ele>
        <time>2016-09-04T07:26:56Z</time>
      </trkpt>
      <trkpt lat="43.58207" lon="6.22733">
        <ele>420.4</ele>
        <time>2016-09-04T07:27:04Z</time>
      </trkpt>
      <trkpt lat="43.58216" lon="6.22734">
        <ele>420.7</ele>
        <time>2016-09-04T07:27:13Z</time>
      </trkpt>
      <trkpt lat="43.58225" lon="6.22738">
        <ele>420.8</ele>
        <time>2016-09-04T07:27:19Z</time>
      </trkpt>
      <trkpt lat="43.58235" lon="6.22738">
        <ele>420.9</ele>
        <time>2016-09-04T07:27:28Z</time>
      </trkpt>
      <trkpt lat="43.58244" lon="6.22733">
        <ele>420.9</ele>
        <time>2016-09-04T07:27:36Z</time>
      </trkpt>
      <trkpt lat="43.58253" lon="6.22731">
        <ele>420.7</ele>
        <time>2016-09-04T07:27:43Z</time>
      </trkpt>
      <trkpt lat="43.5826" lon="6.22723">
        <ele>420.1</ele>
        <time>2016-09-04T07:27:55Z</time>
      </trkpt>
      <trkpt lat="43.5827" lon="6.22722">
        <ele>419.6</ele>
        <time>2016-09-04T07:28:03Z</time>
      </trkpt>
      <trkpt lat="43.5828" lon="6.22726">
        <ele>419.1</ele>
        <time>2016-09-04T07:28:11Z</time>
      </trkpt>
      <trkpt lat="43.5829" lon="6.22725">
        <ele>418.4</ele>
        <time>2016-09-04T07:28:19Z</time>
      </trkpt>
      <trkpt lat="43.58299" lon="6.22728">
        <ele>417.6</ele>
        <time>2016-09-04T07:28:28Z</time>
      </trkpt>
      <trkpt lat="43.58308" lon="6.22729">
        <ele>416.7</ele>
        <time>2016-09-04T07:28:40Z</time>
      </trkpt>
      <trkpt lat="43.58316" lon="6.22734">
        <ele>415.2</ele>
        <time>2016-09-04T07:28:51Z</time>
      </trkpt>
      <trkpt lat="43.58324" lon="6.22741">
        <ele>414</ele>
        <time>2016-09-04T07:28:59Z</time>
      </trkpt>
      <trkpt lat="43.58334" lon="6.22743">
        <ele>412.8</ele>
        <time>2016-09-04T07:29:08Z</time>
      </trkpt>
      <trkpt lat="43.58343" lon="6.22741">
        <ele>411.1</ele>
        <time>2016-09-04T07:29:21Z</time>
      </trkpt>
      <trkpt lat="43.5834" lon="6.22754">
        <ele>409.4</ele>
        <time>2016-09-04T07:29:37Z</time>
      </trkpt>
      <trkpt lat="43.58347" lon="6.22765">
        <ele>408.5</ele>
        <time>2016-09-04T07:29:50Z</time>
      </trkpt>
      <trkpt lat="43.5834" lon="6.22774">
        <ele>408.2</ele>
        <time>2016-09-04T07:29:59Z</time>
      </trkpt>
      <trkpt lat="43.58339" lon="6.22788">
        <ele>407</ele>
        <time>2016-09-04T07:30:12Z</time>
      </trkpt>
      <trkpt lat="43.58335" lon="6.22799">
        <ele>406.1</ele>
        <time>2016-09-04T07:30:20Z</time>
      </trkpt>
      <trkpt lat="43.5833" lon="6.2281">
        <ele>405.2</ele>
        <time>2016-09-04T07:30:26Z</time>
      </trkpt>
      <trkpt lat="43.58318" lon="6.22813">
        <ele>403</ele>
        <time>2016-09-04T07:30:37Z</time>
      </trkpt>
      <trkpt lat="43.58309" lon="6.2281">
        <ele>402.8</ele>
        <time>2016-09-04T07:30:43Z</time>
      </trkpt>
      <trkpt lat="43.58324" lon="6.22822">
        <ele>401</ele>
        <time>2016-09-04T07:31:02Z</time>
      </trkpt>
      <trkpt lat="43.58313" lon="6.22821">
        <ele>401</ele>
        <time>2016-09-04T07:31:09Z</time>
      </trkpt>
      <trkpt lat="43.58304" lon="6.22821">
        <ele>401</ele>
        <time>2016-09-04T07:31:18Z</time>
      </trkpt>
      <trkpt lat="43.58296" lon="6.22829">
        <ele>400.2</ele>
        <time>2016-09-04T07:31:26Z</time>
      </trkpt>
      <trkpt lat="43.58292" lon="6.22843">
        <ele>397.8</ele>
        <time>2016-09-04T07:31:44Z</time>
      </trkpt>
      <trkpt lat="43.58284" lon="6.22848">
        <ele>396.7</ele>
        <time>2016-09-04T07:31:50Z</time>
      </trkpt>
      <trkpt lat="43.58273" lon="6.22854">
        <ele>395.5</ele>
        <time>2016-09-04T07:31:56Z</time>
      </trkpt>
      <trkpt lat="43.58265" lon="6.22861">
        <ele>394.6</ele>
        <time>2016-09-04T07:32:01Z</time>
      </trkpt>
      <trkpt lat="43.58258" lon="6.22868">
        <ele>392.3</ele>
        <time>2016-09-04T07:32:15Z</time>
      </trkpt>
      <trkpt lat="43.58251" lon="6.22878">
        <ele>390.3</ele>
        <time>2016-09-04T07:32:26Z</time>
      </trkpt>
      <trkpt lat="43.58247" lon="6.2289">
        <ele>388.8</ele>
        <time>2016-09-04T07:32:36Z</time>
      </trkpt>
      <trkpt lat="43.58242" lon="6.22909">
        <ele>385</ele>
        <time>2016-09-04T07:32:49Z</time>
      </trkpt>
      <trkpt lat="43.58238" lon="6.22919">
        <ele>384.9</ele>
        <time>2016-09-04T07:32:56Z</time>
      </trkpt>
      <trkpt lat="43.58229" lon="6.22925">
        <ele>383.7</ele>
        <time>2016-09-04T07:33:03Z</time>
      </trkpt>
      <trkpt lat="43.58225" lon="6.22937">
        <ele>382.6</ele>
        <time>2016-09-04T07:33:11Z</time>
      </trkpt>
      <trkpt lat="43.58222" lon="6.22951">
        <ele>380.4</ele>
        <time>2016-09-04T07:33:22Z</time>
      </trkpt>
      <trkpt lat="43.58215" lon="6.22963">
        <ele>376.5</ele>
        <time>2016-09-04T07:33:40Z</time>
      </trkpt>
      <trkpt lat="43.58208" lon="6.22974">
        <ele>375.1</ele>
        <time>2016-09-04T07:33:46Z</time>
      </trkpt>
      <trkpt lat="43.58207" lon="6.22987">
        <ele>373.5</ele>
        <time>2016-09-04T07:33:55Z</time>
      </trkpt>
      <trkpt lat="43.58205" lon="6.23001">
        <ele>371.7</ele>
        <time>2016-09-04T07:34:05Z</time>
      </trkpt>
      <trkpt lat="43.58203" lon="6.23014">
        <ele>370</ele>
        <time>2016-09-04T07:34:13Z</time>
      </trkpt>
      <trkpt lat="43.582" lon="6.23027">
        <ele>368.2</ele>
        <time>2016-09-04T07:34:22Z</time>
      </trkpt>
      <trkpt lat="43.58194" lon="6.23036">
        <ele>366.8</ele>
        <time>2016-09-04T07:34:30Z</time>
      </trkpt>
      <trkpt lat="43.58191" lon="6.23049">
        <ele>365.4</ele>
        <time>2016-09-04T07:34:38Z</time>
      </trkpt>
      <trkpt lat="43.58189" lon="6.23061">
        <ele>363</ele>
        <time>2016-09-04T07:34:53Z</time>
      </trkpt>
      <trkpt lat="43.58188" lon="6.23077">
        <ele>361.8</ele>
        <time>2016-09-04T07:35:00Z</time>
      </trkpt>
      <trkpt lat="43.5819" lon="6.23089">
        <ele>360</ele>
        <time>2016-09-04T07:35:09Z</time>
      </trkpt>
      <trkpt lat="43.58189" lon="6.23103">
        <ele>358.1</ele>
        <time>2016-09-04T07:35:19Z</time>
      </trkpt>
      <trkpt lat="43.58186" lon="6.23115">
        <ele>357</ele>
        <time>2016-09-04T07:35:25Z</time>
      </trkpt>
      <trkpt lat="43.58186" lon="6.23127">
        <ele>356</ele>
        <time>2016-09-04T07:35:32Z</time>
      </trkpt>
      <trkpt lat="43.58187" lon="6.2314">
        <ele>354.7</ele>
        <time>2016-09-04T07:35:47Z</time>
      </trkpt>
      <trkpt lat="43.58182" lon="6.23151">
        <ele>353.2</ele>
        <time>2016-09-04T07:35:57Z</time>
      </trkpt>
      <trkpt lat="43.58177" lon="6.23163">
        <ele>351.2</ele>
        <time>2016-09-04T07:36:08Z</time>
      </trkpt>
      <trkpt lat="43.58178" lon="6.23176">
        <ele>350.3</ele>
        <time>2016-09-04T07:36:15Z</time>
      </trkpt>
      <trkpt lat="43.58183" lon="6.23187">
        <ele>349.6</ele>
        <time>2016-09-04T07:36:21Z</time>
      </trkpt>
      <trkpt lat="43.58193" lon="6.23187">
        <ele>347.1</ele>
        <time>2016-09-04T07:36:46Z</time>
      </trkpt>
      <trkpt lat="43.58202" lon="6.23184">
        <ele>346.9</ele>
        <time>2016-09-04T07:37:40Z</time>
      </trkpt>
      <trkpt lat="43.58193" lon="6.23178">
        <ele>346.8</ele>
        <time>2016-09-04T07:38:06Z</time>
      </trkpt>
      <trkpt lat="43.58179" lon="6.23178">
        <ele>346.8</ele>
        <time>2016-09-04T07:38:13Z</time>
      </trkpt>
      <trkpt lat="43.5819" lon="6.23182">
        <ele>346.9</ele>
        <time>2016-09-04T07:38:17Z</time>
      </trkpt>
      <trkpt lat="43.58199" lon="6.23186">
        <ele>346.9</ele>
        <time>2016-09-04T07:38:22Z</time>
      </trkpt>
      <trkpt lat="43.58208" lon="6.23189">
        <ele>347</ele>
        <time>2016-09-04T07:39:08Z</time>
      </trkpt>
      <trkpt lat="43.58217" lon="6.23187">
        <ele>347</ele>
        <time>2016-09-04T07:39:16Z</time>
      </trkpt>
      <trkpt lat="43.58227" lon="6.23183">
        <ele>347</ele>
        <time>2016-09-04T07:39:23Z</time>
      </trkpt>
      <trkpt lat="43.58236" lon="6.2318">
        <ele>347.1</ele>
        <time>2016-09-04T07:39:28Z</time>
      </trkpt>
      <trkpt lat="43.58245" lon="6.23184">
        <ele>347.2</ele>
        <time>2016-09-04T07:39:41Z</time>
      </trkpt>
      <trkpt lat="43.58254" lon="6.23183">
        <ele>347.2</ele>
        <time>2016-09-04T07:39:49Z</time>
      </trkpt>
      <trkpt lat="43.58265" lon="6.23186">
        <ele>347.3</ele>
        <time>2016-09-04T07:39:53Z</time>
      </trkpt>
      <trkpt lat="43.58272" lon="6.23193">
        <ele>347.4</ele>
        <time>2016-09-04T07:40:00Z</time>
      </trkpt>
      <trkpt lat="43.58282" lon="6.23194">
        <ele>347.4</ele>
        <time>2016-09-04T07:40:10Z</time>
      </trkpt>
      <trkpt lat="43.58289" lon="6.23204">
        <ele>347.5</ele>
        <time>2016-09-04T07:40:20Z</time>
      </trkpt>
      <trkpt lat="43.58297" lon="6.23213">
        <ele>347.5</ele>
        <time>2016-09-04T07:40:28Z</time>
      </trkpt>
      <trkpt lat="43.58306" lon="6.23219">
        <ele>347.6</ele>
        <time>2016-09-04T07:40:35Z</time>
      </trkpt>
      <trkpt lat="43.58316" lon="6.23223">
        <ele>347.7</ele>
        <time>2016-09-04T07:40:43Z</time>
      </trkpt>
      <trkpt lat="43.58325" lon="6.23228">
        <ele>347</ele>
        <time>2016-09-04T07:40:51Z</time>
      </trkpt>
      <trkpt lat="43.58334" lon="6.23232">
        <ele>346.9</ele>
        <time>2016-09-04T07:41:01Z</time>
      </trkpt>
      <trkpt lat="43.58341" lon="6.23242">
        <ele>346</ele>
        <time>2016-09-04T07:41:13Z</time>
      </trkpt>
      <trkpt lat="43.58349" lon="6.23249">
        <ele>346</ele>
        <time>2016-09-04T07:41:24Z</time>
      </trkpt>
      <trkpt lat="43.58352" lon="6.23264">
        <ele>345</ele>
        <time>2016-09-04T07:41:36Z</time>
      </trkpt>
      <trkpt lat="43.58359" lon="6.23274">
        <ele>345</ele>
        <time>2016-09-04T07:41:44Z</time>
      </trkpt>
      <trkpt lat="43.58368" lon="6.23282">
        <ele>345</ele>
        <time>2016-09-04T07:41:56Z</time>
      </trkpt>
      <trkpt lat="43.58376" lon="6.23292">
        <ele>344</ele>
        <time>2016-09-04T07:42:24Z</time>
      </trkpt>
      <trkpt lat="43.58388" lon="6.23296">
        <ele>344</ele>
        <time>2016-09-04T07:42:32Z</time>
      </trkpt>
      <trkpt lat="43.58392" lon="6.23307">
        <ele>345.2</ele>
        <time>2016-09-04T07:42:50Z</time>
      </trkpt>
      <trkpt lat="43.58398" lon="6.23317">
        <ele>344</ele>
        <time>2016-09-04T07:42:58Z</time>
      </trkpt>
      <trkpt lat="43.58393" lon="6.23337">
        <ele>344</ele>
        <time>2016-09-04T07:43:19Z</time>
      </trkpt>
      <trkpt lat="43.5841" lon="6.23336">
        <ele>344</ele>
        <time>2016-09-04T07:43:30Z</time>
      </trkpt>
      <trkpt lat="43.58399" lon="6.23339">
        <ele>344</ele>
        <time>2016-09-04T07:43:50Z</time>
      </trkpt>
      <trkpt lat="43.5839" lon="6.23336">
        <ele>344.9</ele>
        <time>2016-09-04T07:44:02Z</time>
      </trkpt>
      <trkpt lat="43.58403" lon="6.23337">
        <ele>345.7</ele>
        <time>2016-09-04T07:44:33Z</time>
      </trkpt>
      <trkpt lat="43.5841" lon="6.23328">
        <ele>346.4</ele>
        <time>2016-09-04T07:45:26Z</time>
      </trkpt>
      <trkpt lat="43.58417" lon="6.23318">
        <ele>346.4</ele>
        <time>2016-09-04T07:45:37Z</time>
      </trkpt>
      <trkpt lat="43.58426" lon="6.2331">
        <ele>346.6</ele>
        <time>2016-09-04T07:45:44Z</time>
      </trkpt>
      <trkpt lat="43.58435" lon="6.23305">
        <ele>346.8</ele>
        <time>2016-09-04T07:45:51Z</time>
      </trkpt>
      <trkpt lat="43.58444" lon="6.233">
        <ele>346.9</ele>
        <time>2016-09-04T07:45:58Z</time>
      </trkpt>
      <trkpt lat="43.58452" lon="6.23294">
        <ele>347</ele>
        <time>2016-09-04T07:46:04Z</time>
      </trkpt>
      <trkpt lat="43.58462" lon="6.23288">
        <ele>347.2</ele>
        <time>2016-09-04T07:46:09Z</time>
      </trkpt>
      <trkpt lat="43.58468" lon="6.23276">
        <ele>347.6</ele>
        <time>2016-09-04T07:46:21Z</time>
      </trkpt>
      <trkpt lat="43.58466" lon="6.23264">
        <ele>347.5</ele>
        <time>2016-09-04T07:46:34Z</time>
      </trkpt>
      <trkpt lat="43.58475" lon="6.23268">
        <ele>347.9</ele>
        <time>2016-09-04T07:46:50Z</time>
      </trkpt>
      <trkpt lat="43.58479" lon="6.2328">
        <ele>348.1</ele>
        <time>2016-09-04T07:47:35Z</time>
      </trkpt>
      <trkpt lat="43.58487" lon="6.23287">
        <ele>348.6</ele>
        <time>2016-09-04T07:48:01Z</time>
      </trkpt>
      <trkpt lat="43.58479" lon="6.2328">
        <ele>348.5</ele>
        <time>2016-09-04T07:48:26Z</time>
      </trkpt>
      <trkpt lat="43.58488" lon="6.23286">
        <ele>348.5</ele>
        <time>2016-09-04T07:49:04Z</time>
      </trkpt>
      <trkpt lat="43.58497" lon="6.23288">
        <ele>348.9</ele>
        <time>2016-09-04T07:49:21Z</time>
      </trkpt>
      <trkpt lat="43.58508" lon="6.23291">
        <ele>349.1</ele>
        <time>2016-09-04T07:49:27Z</time>
      </trkpt>
      <trkpt lat="43.58516" lon="6.23294">
        <ele>349.3</ele>
        <time>2016-09-04T07:49:33Z</time>
      </trkpt>
      <trkpt lat="43.58525" lon="6.2329">
        <ele>349.6</ele>
        <time>2016-09-04T07:49:40Z</time>
      </trkpt>
      <trkpt lat="43.58529" lon="6.23277">
        <ele>349.5</ele>
        <time>2016-09-04T07:49:50Z</time>
      </trkpt>
      <trkpt lat="43.58534" lon="6.23266">
        <ele>349.6</ele>
        <time>2016-09-04T07:50:02Z</time>
      </trkpt>
      <trkpt lat="43.5853" lon="6.23253">
        <ele>349.9</ele>
        <time>2016-09-04T07:50:11Z</time>
      </trkpt>
      <trkpt lat="43.58526" lon="6.23242">
        <ele>350.1</ele>
        <time>2016-09-04T07:50:17Z</time>
      </trkpt>
      <trkpt lat="43.58517" lon="6.23239">
        <ele>350.4</ele>
        <time>2016-09-04T07:50:26Z</time>
      </trkpt>
      <trkpt lat="43.58507" lon="6.23236">
        <ele>350.2</ele>
        <time>2016-09-04T07:50:46Z</time>
      </trkpt>
      <trkpt lat="43.58508" lon="6.23223">
        <ele>349.8</ele>
        <time>2016-09-04T07:51:41Z</time>
      </trkpt>
      <trkpt lat="43.58512" lon="6.23211">
        <ele>350</ele>
        <time>2016-09-04T07:51:55Z</time>
      </trkpt>
      <trkpt lat="43.5852" lon="6.23204">
        <ele>351.6</ele>
        <time>2016-09-04T07:52:22Z</time>
      </trkpt>
      <trkpt lat="43.58526" lon="6.23195">
        <ele>353.8</ele>
        <time>2016-09-04T07:52:37Z</time>
      </trkpt>
      <trkpt lat="43.58528" lon="6.23209">
        <ele>358.5</ele>
        <time>2016-09-04T07:53:14Z</time>
      </trkpt>
      <trkpt lat="43.58531" lon="6.23197">
        <ele>358.3</ele>
        <time>2016-09-04T07:54:12Z</time>
      </trkpt>
      <trkpt lat="43.58539" lon="6.23203">
        <ele>357.6</ele>
        <time>2016-09-04T07:54:41Z</time>
      </trkpt>
      <trkpt lat="43.58549" lon="6.23208">
        <ele>357.6</ele>
        <time>2016-09-04T07:54:53Z</time>
      </trkpt>
      <trkpt lat="43.5856" lon="6.2321">
        <ele>357.9</ele>
        <time>2016-09-04T07:55:01Z</time>
      </trkpt>
      <trkpt lat="43.5855" lon="6.23206">
        <ele>358</ele>
        <time>2016-09-04T07:55:18Z</time>
      </trkpt>
      <trkpt lat="43.58541" lon="6.232">
        <ele>357</ele>
        <time>2016-09-04T07:55:32Z</time>
      </trkpt>
      <trkpt lat="43.58532" lon="6.23198">
        <ele>357.8</ele>
        <time>2016-09-04T07:55:40Z</time>
      </trkpt>
      <trkpt lat="43.58523" lon="6.23201">
        <ele>357.4</ele>
        <time>2016-09-04T07:56:26Z</time>
      </trkpt>
      <trkpt lat="43.58532" lon="6.23204">
        <ele>357.6</ele>
        <time>2016-09-04T07:57:05Z</time>
      </trkpt>
      <trkpt lat="43.58526" lon="6.23213">
        <ele>358.4</ele>
        <time>2016-09-04T07:57:38Z</time>
      </trkpt>
      <trkpt lat="43.58535" lon="6.23212">
        <ele>358.8</ele>
        <time>2016-09-04T07:58:47Z</time>
      </trkpt>
      <trkpt lat="43.58544" lon="6.23214">
        <ele>358</ele>
        <time>2016-09-04T07:59:39Z</time>
      </trkpt>
      <trkpt lat="43.58538" lon="6.23206">
        <ele>358.7</ele>
        <time>2016-09-04T08:00:07Z</time>
      </trkpt>
      <trkpt lat="43.58529" lon="6.23211">
        <ele>358.9</ele>
        <time>2016-09-04T08:00:41Z</time>
      </trkpt>
      <trkpt lat="43.58528" lon="6.23198">
        <ele>359.3</ele>
        <time>2016-09-04T08:04:21Z</time>
      </trkpt>
      <trkpt lat="43.58531" lon="6.23186">
        <ele>359.6</ele>
        <time>2016-09-04T08:04:31Z</time>
      </trkpt>
      <trkpt lat="43.58522" lon="6.23182">
        <ele>358.1</ele>
        <time>2016-09-04T08:04:49Z</time>
      </trkpt>
      <trkpt lat="43.58517" lon="6.23192">
        <ele>356.9</ele>
        <time>2016-09-04T08:04:59Z</time>
      </trkpt>
      <trkpt lat="43.5851" lon="6.232">
        <ele>354</ele>
        <time>2016-09-04T08:05:15Z</time>
      </trkpt>
      <trkpt lat="43.5851" lon="6.23186">
        <ele>350.7</ele>
        <time>2016-09-04T08:05:32Z</time>
      </trkpt>
      <trkpt lat="43.58516" lon="6.23176">
        <ele>349.4</ele>
        <time>2016-09-04T08:05:43Z</time>
      </trkpt>
      <trkpt lat="43.58526" lon="6.2317">
        <ele>349</ele>
        <time>2016-09-04T08:05:53Z</time>
      </trkpt>
      <trkpt lat="43.58534" lon="6.23164">
        <ele>350.1</ele>
        <time>2016-09-04T08:06:03Z</time>
      </trkpt>
      <trkpt lat="43.58542" lon="6.23157">
        <ele>350.9</ele>
        <time>2016-09-04T08:06:11Z</time>
      </trkpt>
      <trkpt lat="43.5854" lon="6.23144">
        <ele>352.1</ele>
        <time>2016-09-04T08:06:30Z</time>
      </trkpt>
      <trkpt lat="43.58538" lon="6.23131">
        <ele>353.1</ele>
        <time>2016-09-04T08:06:43Z</time>
      </trkpt>
      <trkpt lat="43.58538" lon="6.23118">
        <ele>353.8</ele>
        <time>2016-09-04T08:06:56Z</time>
      </trkpt>
      <trkpt lat="43.58536" lon="6.23105">
        <ele>355.1</ele>
        <time>2016-09-04T08:07:11Z</time>
      </trkpt>
      <trkpt lat="43.58542" lon="6.23095">
        <ele>356.8</ele>
        <time>2016-09-04T08:07:25Z</time>
      </trkpt>
      <trkpt lat="43.58543" lon="6.23082">
        <ele>358.8</ele>
        <time>2016-09-04T08:07:43Z</time>
      </trkpt>
      <trkpt lat="43.5854" lon="6.2307">
        <ele>360.3</ele>
        <time>2016-09-04T08:07:54Z</time>
      </trkpt>
      <trkpt lat="43.58543" lon="6.23058">
        <ele>361.4</ele>
        <time>2016-09-04T08:08:08Z</time>
      </trkpt>
      <trkpt lat="43.58544" lon="6.23045">
        <ele>362.3</ele>
        <time>2016-09-04T08:08:21Z</time>
      </trkpt>
      <trkpt lat="43.58546" lon="6.23033">
        <ele>364.9</ele>
        <time>2016-09-04T08:08:48Z</time>
      </trkpt>
      <trkpt lat="43.58551" lon="6.23022">
        <ele>371.1</ele>
        <time>2016-09-04T08:09:51Z</time>
      </trkpt>
      <trkpt lat="43.58559" lon="6.23016">
        <ele>371.1</ele>
        <time>2016-09-04T08:10:05Z</time>
      </trkpt>
      <trkpt lat="43.58568" lon="6.23015">
        <ele>375.1</ele>
        <time>2016-09-04T08:11:23Z</time>
      </trkpt>
      <trkpt lat="43.58569" lon="6.23028">
        <ele>382.7</ele>
        <time>2016-09-04T08:12:21Z</time>
      </trkpt>
      <trkpt lat="43.58575" lon="6.23037">
        <ele>388.3</ele>
        <time>2016-09-04T08:13:23Z</time>
      </trkpt>
      <trkpt lat="43.58584" lon="6.2304">
        <ele>391.4</ele>
        <time>2016-09-04T08:14:11Z</time>
      </trkpt>
      <trkpt lat="43.58593" lon="6.23036">
        <ele>396</ele>
        <time>2016-09-04T08:15:13Z</time>
      </trkpt>
      <trkpt lat="43.58601" lon="6.2304">
        <ele>398</ele>
        <time>2016-09-04T08:15:41Z</time>
      </trkpt>
      <trkpt lat="43.58598" lon="6.23052">
        <ele>406.1</ele>
        <time>2016-09-04T08:17:00Z</time>
      </trkpt>
      <trkpt lat="43.58595" lon="6.23064">
        <ele>408.5</ele>
        <time>2016-09-04T08:17:28Z</time>
      </trkpt>
      <trkpt lat="43.58605" lon="6.2307">
        <ele>411.3</ele>
        <time>2016-09-04T08:18:06Z</time>
      </trkpt>
      <trkpt lat="43.58608" lon="6.23081">
        <ele>413.8</ele>
        <time>2016-09-04T08:19:22Z</time>
      </trkpt>
      <trkpt lat="43.58616" lon="6.23088">
        <ele>417.4</ele>
        <time>2016-09-04T08:19:59Z</time>
      </trkpt>
      <trkpt lat="43.58625" lon="6.23094">
        <ele>419.7</ele>
        <time>2016-09-04T08:20:18Z</time>
      </trkpt>
      <trkpt lat="43.58633" lon="6.23099">
        <ele>422.7</ele>
        <time>2016-09-04T08:20:38Z</time>
      </trkpt>
      <trkpt lat="43.58642" lon="6.23099">
        <ele>423.7</ele>
        <time>2016-09-04T08:20:49Z</time>
      </trkpt>
      <trkpt lat="43.5865" lon="6.23093">
        <ele>424.9</ele>
        <time>2016-09-04T08:21:04Z</time>
      </trkpt>
      <trkpt lat="43.58659" lon="6.23095">
        <ele>425.4</ele>
        <time>2016-09-04T08:21:20Z</time>
      </trkpt>
      <trkpt lat="43.58668" lon="6.23089">
        <ele>426.1</ele>
        <time>2016-09-04T08:21:30Z</time>
      </trkpt>
      <trkpt lat="43.58677" lon="6.23087">
        <ele>426.9</ele>
        <time>2016-09-04T08:21:44Z</time>
      </trkpt>
      <trkpt lat="43.58684" lon="6.23079">
        <ele>426.8</ele>
        <time>2016-09-04T08:21:59Z</time>
      </trkpt>
      <trkpt lat="43.58692" lon="6.23086">
        <ele>426.1</ele>
        <time>2016-09-04T08:22:16Z</time>
      </trkpt>
      <trkpt lat="43.587" lon="6.23092">
        <ele>426.9</ele>
        <time>2016-09-04T08:22:28Z</time>
      </trkpt>
      <trkpt lat="43.58709" lon="6.23094">
        <ele>427.5</ele>
        <time>2016-09-04T08:24:12Z</time>
      </trkpt>
      <trkpt lat="43.58719" lon="6.23094">
        <ele>429.7</ele>
        <time>2016-09-04T08:24:48Z</time>
      </trkpt>
      <trkpt lat="43.58716" lon="6.23081">
        <ele>431.2</ele>
        <time>2016-09-04T08:26:14Z</time>
      </trkpt>
      <trkpt lat="43.58707" lon="6.23082">
        <ele>429.4</ele>
        <time>2016-09-04T08:27:07Z</time>
      </trkpt>
      <trkpt lat="43.58715" lon="6.23088">
        <ele>429.4</ele>
        <time>2016-09-04T08:27:31Z</time>
      </trkpt>
      <trkpt lat="43.58706" lon="6.23091">
        <ele>427.8</ele>
        <time>2016-09-04T08:28:13Z</time>
      </trkpt>
      <trkpt lat="43.58697" lon="6.23084">
        <ele>426.8</ele>
        <time>2016-09-04T08:28:45Z</time>
      </trkpt>
      <trkpt lat="43.58688" lon="6.23081">
        <ele>425.8</ele>
        <time>2016-09-04T08:29:25Z</time>
      </trkpt>
      <trkpt lat="43.58678" lon="6.23082">
        <ele>425.6</ele>
        <time>2016-09-04T08:29:42Z</time>
      </trkpt>
      <trkpt lat="43.58669" lon="6.23083">
        <ele>426.4</ele>
        <time>2016-09-04T08:29:54Z</time>
      </trkpt>
      <trkpt lat="43.58661" lon="6.23089">
        <ele>425.7</ele>
        <time>2016-09-04T08:30:05Z</time>
      </trkpt>
      <trkpt lat="43.58651" lon="6.23088">
        <ele>425.2</ele>
        <time>2016-09-04T08:30:17Z</time>
      </trkpt>
      <trkpt lat="43.58642" lon="6.23085">
        <ele>425.1</ele>
        <time>2016-09-04T08:30:25Z</time>
      </trkpt>
      <trkpt lat="43.58635" lon="6.23093">
        <ele>424.5</ele>
        <time>2016-09-04T08:30:52Z</time>
      </trkpt>
      <trkpt lat="43.58627" lon="6.23086">
        <ele>423.3</ele>
        <time>2016-09-04T08:31:14Z</time>
      </trkpt>
      <trkpt lat="43.58618" lon="6.23086">
        <ele>422.2</ele>
        <time>2016-09-04T08:31:23Z</time>
      </trkpt>
      <trkpt lat="43.5861" lon="6.23093">
        <ele>419.7</ele>
        <time>2016-09-04T08:31:40Z</time>
      </trkpt>
      <trkpt lat="43.58606" lon="6.23105">
        <ele>416.3</ele>
        <time>2016-09-04T08:32:03Z</time>
      </trkpt>
      <trkpt lat="43.58606" lon="6.23118">
        <ele>416</ele>
        <time>2016-09-04T08:32:14Z</time>
      </trkpt>
      <trkpt lat="43.58601" lon="6.23129">
        <ele>415.5</ele>
        <time>2016-09-04T08:32:34Z</time>
      </trkpt>
      <trkpt lat="43.58592" lon="6.2313">
        <ele>410.5</ele>
        <time>2016-09-04T08:33:39Z</time>
      </trkpt>
      <trkpt lat="43.58583" lon="6.23135">
        <ele>408.5</ele>
        <time>2016-09-04T08:34:06Z</time>
      </trkpt>
      <trkpt lat="43.58592" lon="6.23134">
        <ele>406.9</ele>
        <time>2016-09-04T08:34:58Z</time>
      </trkpt>
      <trkpt lat="43.58594" lon="6.23121">
        <ele>407.2</ele>
        <time>2016-09-04T08:36:11Z</time>
      </trkpt>
      <trkpt lat="43.58599" lon="6.23132">
        <ele>410.6</ele>
        <time>2016-09-04T08:36:49Z</time>
      </trkpt>
      <trkpt lat="43.58608" lon="6.23131">
        <ele>413.3</ele>
        <time>2016-09-04T08:37:11Z</time>
      </trkpt>
      <trkpt lat="43.58608" lon="6.23118">
        <ele>414.6</ele>
        <time>2016-09-04T08:37:22Z</time>
      </trkpt>
      <trkpt lat="43.58609" lon="6.23105">
        <ele>415.3</ele>
        <time>2016-09-04T08:37:32Z</time>
      </trkpt>
      <trkpt lat="43.58615" lon="6.23095">
        <ele>415.3</ele>
        <time>2016-09-04T08:37:56Z</time>
      </trkpt>
      <trkpt lat="43.58619" lon="6.23084">
        <ele>416</ele>
        <time>2016-09-04T08:38:20Z</time>
      </trkpt>
      <trkpt lat="43.58611" lon="6.23079">
        <ele>415.9</ele>
        <time>2016-09-04T08:38:33Z</time>
      </trkpt>
      <trkpt lat="43.58601" lon="6.23078">
        <ele>414.1</ele>
        <time>2016-09-04T08:39:06Z</time>
      </trkpt>
      <trkpt lat="43.58597" lon="6.23066">
        <ele>412.6</ele>
        <time>2016-09-04T08:39:27Z</time>
      </trkpt>
      <trkpt lat="43.58603" lon="6.23057">
        <ele>410.5</ele>
        <time>2016-09-04T08:39:52Z</time>
      </trkpt>
      <trkpt lat="43.58604" lon="6.23044">
        <ele>405.6</ele>
        <time>2016-09-04T08:40:25Z</time>
      </trkpt>
      <trkpt lat="43.58601" lon="6.23032">
        <ele>401.6</ele>
        <time>2016-09-04T08:41:01Z</time>
      </trkpt>
      <trkpt lat="43.58592" lon="6.23033">
        <ele>399.2</ele>
        <time>2016-09-04T08:41:17Z</time>
      </trkpt>
      <trkpt lat="43.58581" lon="6.23031">
        <ele>394.5</ele>
        <time>2016-09-04T08:41:56Z</time>
      </trkpt>
      <trkpt lat="43.58573" lon="6.23025">
        <ele>387.2</ele>
        <time>2016-09-04T08:43:07Z</time>
      </trkpt>
      <trkpt lat="43.58582" lon="6.23018">
        <ele>381.3</ele>
        <time>2016-09-04T08:43:52Z</time>
      </trkpt>
      <trkpt lat="43.58573" lon="6.23009">
        <ele>377.1</ele>
        <time>2016-09-04T08:44:16Z</time>
      </trkpt>
      <trkpt lat="43.58563" lon="6.23008">
        <ele>371.3</ele>
        <time>2016-09-04T08:45:02Z</time>
      </trkpt>
      <trkpt lat="43.58554" lon="6.23006">
        <ele>370.7</ele>
        <time>2016-09-04T08:45:07Z</time>
      </trkpt>
      <trkpt lat="43.58559" lon="6.23018">
        <ele>369</ele>
        <time>2016-09-04T08:45:22Z</time>
      </trkpt>
      <trkpt lat="43.58568" lon="6.2302">
        <ele>367.9</ele>
        <time>2016-09-04T08:49:01Z</time>
      </trkpt>
      <trkpt lat="43.58559" lon="6.23017">
        <ele>367.6</ele>
        <time>2016-09-04T08:49:13Z</time>
      </trkpt>
      <trkpt lat="43.5855" lon="6.23017">
        <ele>367.5</ele>
        <time>2016-09-04T08:49:20Z</time>
      </trkpt>
      <trkpt lat="43.5854" lon="6.23016">
        <ele>368</ele>
        <time>2016-09-04T08:49:38Z</time>
      </trkpt>
      <trkpt lat="43.58536" lon="6.23028">
        <ele>366.4</ele>
        <time>2016-09-04T08:50:10Z</time>
      </trkpt>
      <trkpt lat="43.58539" lon="6.2304">
        <ele>363.4</ele>
        <time>2016-09-04T08:50:30Z</time>
      </trkpt>
      <trkpt lat="43.58536" lon="6.23052">
        <ele>362</ele>
        <time>2016-09-04T08:50:40Z</time>
      </trkpt>
      <trkpt lat="43.58534" lon="6.23064">
        <ele>360.1</ele>
        <time>2016-09-04T08:50:57Z</time>
      </trkpt>
      <trkpt lat="43.58536" lon="6.23076">
        <ele>359.3</ele>
        <time>2016-09-04T08:51:07Z</time>
      </trkpt>
      <trkpt lat="43.58529" lon="6.23086">
        <ele>357.4</ele>
        <time>2016-09-04T08:51:37Z</time>
      </trkpt>
      <trkpt lat="43.58527" lon="6.23098">
        <ele>356.7</ele>
        <time>2016-09-04T08:51:50Z</time>
      </trkpt>
      <trkpt lat="43.58532" lon="6.2311">
        <ele>355.7</ele>
        <time>2016-09-04T08:52:00Z</time>
      </trkpt>
      <trkpt lat="43.58534" lon="6.23124">
        <ele>352.7</ele>
        <time>2016-09-04T08:52:28Z</time>
      </trkpt>
      <trkpt lat="43.58537" lon="6.23137">
        <ele>351.9</ele>
        <time>2016-09-04T08:52:36Z</time>
      </trkpt>
      <trkpt lat="43.58533" lon="6.23149">
        <ele>350.9</ele>
        <time>2016-09-04T08:52:49Z</time>
      </trkpt>
      <trkpt lat="43.58523" lon="6.23145">
        <ele>349.9</ele>
        <time>2016-09-04T08:53:00Z</time>
      </trkpt>
      <trkpt lat="43.58519" lon="6.23157">
        <ele>349.4</ele>
        <time>2016-09-04T08:53:10Z</time>
      </trkpt>
      <trkpt lat="43.5852" lon="6.2317">
        <ele>348.1</ele>
        <time>2016-09-04T08:53:26Z</time>
      </trkpt>
      <trkpt lat="43.58514" lon="6.23181">
        <ele>346.6</ele>
        <time>2016-09-04T08:53:38Z</time>
      </trkpt>
      <trkpt lat="43.5851" lon="6.23192">
        <ele>345.8</ele>
        <time>2016-09-04T08:53:46Z</time>
      </trkpt>
      <trkpt lat="43.58502" lon="6.23198">
        <ele>345.4</ele>
        <time>2016-09-04T08:53:56Z</time>
      </trkpt>
      <trkpt lat="43.58503" lon="6.23213">
        <ele>345.5</ele>
        <time>2016-09-04T08:54:08Z</time>
      </trkpt>
      <trkpt lat="43.58508" lon="6.23224">
        <ele>345.5</ele>
        <time>2016-09-04T08:54:15Z</time>
      </trkpt>
      <trkpt lat="43.58514" lon="6.23237">
        <ele>345.5</ele>
        <time>2016-09-04T08:54:25Z</time>
      </trkpt>
      <trkpt lat="43.58518" lon="6.23249">
        <ele>344.8</ele>
        <time>2016-09-04T08:54:48Z</time>
      </trkpt>
      <trkpt lat="43.58526" lon="6.23256">
        <ele>344.7</ele>
        <time>2016-09-04T08:54:59Z</time>
      </trkpt>
      <trkpt lat="43.58532" lon="6.23267">
        <ele>344.7</ele>
        <time>2016-09-04T08:55:07Z</time>
      </trkpt>
      <trkpt lat="43.5854" lon="6.23273">
        <ele>344.5</ele>
        <time>2016-09-04T08:55:40Z</time>
      </trkpt>
      <trkpt lat="43.58532" lon="6.23266">
        <ele>344.6</ele>
        <time>2016-09-04T08:56:04Z</time>
      </trkpt>
      <trkpt lat="43.58533" lon="6.23254">
        <ele>344.9</ele>
        <time>2016-09-04T08:57:10Z</time>
      </trkpt>
      <trkpt lat="43.58533" lon="6.23266">
        <ele>345.1</ele>
        <time>2016-09-04T08:58:08Z</time>
      </trkpt>
      <trkpt lat="43.58523" lon="6.23267">
        <ele>344.9</ele>
        <time>2016-09-04T08:58:26Z</time>
      </trkpt>
      <trkpt lat="43.58533" lon="6.23268">
        <ele>344.3</ele>
        <time>2016-09-04T08:59:09Z</time>
      </trkpt>
      <trkpt lat="43.58535" lon="6.23282">
        <ele>344</ele>
        <time>2016-09-04T08:59:33Z</time>
      </trkpt>
      <trkpt lat="43.58545" lon="6.23278">
        <ele>344</ele>
        <time>2016-09-04T08:59:49Z</time>
      </trkpt>
      <trkpt lat="43.58543" lon="6.23265">
        <ele>346.1</ele>
        <time>2016-09-04T09:00:37Z</time>
      </trkpt>
      <trkpt lat="43.58535" lon="6.23274">
        <ele>346.5</ele>
        <time>2016-09-04T09:00:56Z</time>
      </trkpt>
      <trkpt lat="43.58544" lon="6.23282">
        <ele>347.1</ele>
        <time>2016-09-04T09:01:19Z</time>
      </trkpt>
      <trkpt lat="43.58553" lon="6.23285">
        <ele>347.2</ele>
        <time>2016-09-04T09:01:31Z</time>
      </trkpt>
      <trkpt lat="43.58563" lon="6.23281">
        <ele>347.2</ele>
        <time>2016-09-04T09:01:39Z</time>
      </trkpt>
      <trkpt lat="43.58573" lon="6.23276">
        <ele>347</ele>
        <time>2016-09-04T09:01:45Z</time>
      </trkpt>
      <trkpt lat="43.58583" lon="6.23268">
        <ele>346</ele>
        <time>2016-09-04T09:01:55Z</time>
      </trkpt>
      <trkpt lat="43.5858" lon="6.23253">
        <ele>346</ele>
        <time>2016-09-04T09:02:05Z</time>
      </trkpt>
      <trkpt lat="43.58588" lon="6.23258">
        <ele>348</ele>
        <time>2016-09-04T09:02:37Z</time>
      </trkpt>
      <trkpt lat="43.58597" lon="6.23264">
        <ele>348</ele>
        <time>2016-09-04T09:02:44Z</time>
      </trkpt>
      <trkpt lat="43.58608" lon="6.23266">
        <ele>348</ele>
        <time>2016-09-04T09:02:49Z</time>
      </trkpt>
      <trkpt lat="43.58618" lon="6.23262">
        <ele>348</ele>
        <time>2016-09-04T09:02:57Z</time>
      </trkpt>
      <trkpt lat="43.58628" lon="6.23262">
        <ele>348</ele>
        <time>2016-09-04T09:03:09Z</time>
      </trkpt>
      <trkpt lat="43.58643" lon="6.23259">
        <ele>349</ele>
        <time>2016-09-04T09:03:20Z</time>
      </trkpt>
      <trkpt lat="43.58651" lon="6.23251">
        <ele>349</ele>
        <time>2016-09-04T09:03:32Z</time>
      </trkpt>
      <trkpt lat="43.5866" lon="6.23249">
        <ele>349.9</ele>
        <time>2016-09-04T09:03:41Z</time>
      </trkpt>
      <trkpt lat="43.58669" lon="6.23246">
        <ele>350.1</ele>
        <time>2016-09-04T09:03:52Z</time>
      </trkpt>
      <trkpt lat="43.58678" lon="6.23244">
        <ele>350.1</ele>
        <time>2016-09-04T09:04:00Z</time>
      </trkpt>
      <trkpt lat="43.58688" lon="6.23242">
        <ele>350.2</ele>
        <time>2016-09-04T09:04:10Z</time>
      </trkpt>
      <trkpt lat="43.58698" lon="6.2324">
        <ele>350.2</ele>
        <time>2016-09-04T09:04:17Z</time>
      </trkpt>
      <trkpt lat="43.58707" lon="6.23237">
        <ele>350.2</ele>
        <time>2016-09-04T09:04:23Z</time>
      </trkpt>
      <trkpt lat="43.58717" lon="6.23236">
        <ele>350.2</ele>
        <time>2016-09-04T09:04:39Z</time>
      </trkpt>
      <trkpt lat="43.58727" lon="6.23238">
        <ele>350.2</ele>
        <time>2016-09-04T09:04:51Z</time>
      </trkpt>
      <trkpt lat="43.58735" lon="6.2323">
        <ele>350.2</ele>
        <time>2016-09-04T09:05:03Z</time>
      </trkpt>
      <trkpt lat="43.58748" lon="6.23236">
        <ele>350</ele>
        <time>2016-09-04T09:05:14Z</time>
      </trkpt>
      <trkpt lat="43.5876" lon="6.23231">
        <ele>350</ele>
        <time>2016-09-04T09:05:22Z</time>
      </trkpt>
      <trkpt lat="43.58768" lon="6.23237">
        <ele>351</ele>
        <time>2016-09-04T09:05:42Z</time>
      </trkpt>
      <trkpt lat="43.58778" lon="6.23242">
        <ele>351.5</ele>
        <time>2016-09-04T09:05:53Z</time>
      </trkpt>
      <trkpt lat="43.58787" lon="6.23238">
        <ele>351.6</ele>
        <time>2016-09-04T09:05:58Z</time>
      </trkpt>
      <trkpt lat="43.58792" lon="6.23249">
        <ele>351.7</ele>
        <time>2016-09-04T09:06:11Z</time>
      </trkpt>
      <trkpt lat="43.58787" lon="6.2326">
        <ele>351.9</ele>
        <time>2016-09-04T09:06:22Z</time>
      </trkpt>
      <trkpt lat="43.5878" lon="6.23272">
        <ele>352</ele>
        <time>2016-09-04T09:06:31Z</time>
      </trkpt>
      <trkpt lat="43.58777" lon="6.23285">
        <ele>352.3</ele>
        <time>2016-09-04T09:06:40Z</time>
      </trkpt>
      <trkpt lat="43.58782" lon="6.23295">
        <ele>352.4</ele>
        <time>2016-09-04T09:06:48Z</time>
      </trkpt>
      <trkpt lat="43.58785" lon="6.23307">
        <ele>352.7</ele>
        <time>2016-09-04T09:07:08Z</time>
      </trkpt>
      <trkpt lat="43.58781" lon="6.23318">
        <ele>353.1</ele>
        <time>2016-09-04T09:07:23Z</time>
      </trkpt>
      <trkpt lat="43.58773" lon="6.23328">
        <ele>353.1</ele>
        <time>2016-09-04T09:07:33Z</time>
      </trkpt>
      <trkpt lat="43.58765" lon="6.23334">
        <ele>353.3</ele>
        <time>2016-09-04T09:07:41Z</time>
      </trkpt>
      <trkpt lat="43.5876" lon="6.23346">
        <ele>353.3</ele>
        <time>2016-09-04T09:07:55Z</time>
      </trkpt>
      <trkpt lat="43.58757" lon="6.23364">
        <ele>353</ele>
        <time>2016-09-04T09:08:03Z</time>
      </trkpt>
      <trkpt lat="43.58756" lon="6.23378">
        <ele>353</ele>
        <time>2016-09-04T09:08:09Z</time>
      </trkpt>
      <trkpt lat="43.5875" lon="6.23389">
        <ele>353.6</ele>
        <time>2016-09-04T09:08:13Z</time>
      </trkpt>
      <trkpt lat="43.58752" lon="6.23403">
        <ele>353.7</ele>
        <time>2016-09-04T09:08:19Z</time>
      </trkpt>
      <trkpt lat="43.58756" lon="6.23416">
        <ele>353.7</ele>
        <time>2016-09-04T09:08:27Z</time>
      </trkpt>
      <trkpt lat="43.58765" lon="6.23424">
        <ele>353</ele>
        <time>2016-09-04T09:08:35Z</time>
      </trkpt>
      <trkpt lat="43.58773" lon="6.23435">
        <ele>353</ele>
        <time>2016-09-04T09:08:48Z</time>
      </trkpt>
      <trkpt lat="43.58785" lon="6.23452">
        <ele>354</ele>
        <time>2016-09-04T09:09:03Z</time>
      </trkpt>
      <trkpt lat="43.58808" lon="6.23447">
        <ele>354</ele>
        <time>2016-09-04T09:09:11Z</time>
      </trkpt>
      <trkpt lat="43.58821" lon="6.23439">
        <ele>354</ele>
        <time>2016-09-04T09:09:17Z</time>
      </trkpt>
      <trkpt lat="43.5884" lon="6.2344">
        <ele>354</ele>
        <time>2016-09-04T09:09:34Z</time>
      </trkpt>
      <trkpt lat="43.58818" lon="6.23388">
        <ele>354</ele>
        <time>2016-09-04T09:09:52Z</time>
      </trkpt>
      <trkpt lat="43.58829" lon="6.23394">
        <ele>354</ele>
        <time>2016-09-04T09:10:23Z</time>
      </trkpt>
      <trkpt lat="43.58844" lon="6.234">
        <ele>354</ele>
        <time>2016-09-04T09:10:51Z</time>
      </trkpt>
      <trkpt lat="43.58838" lon="6.23387">
        <ele>354</ele>
        <time>2016-09-04T09:11:57Z</time>
      </trkpt>
      <trkpt lat="43.5883" lon="6.23395">
        <ele>354</ele>
        <time>2016-09-04T09:12:15Z</time>
      </trkpt>
      <trkpt lat="43.58818" lon="6.23396">
        <ele>354</ele>
        <time>2016-09-04T09:12:25Z</time>
      </trkpt>
      <trkpt lat="43.58818" lon="6.23416">
        <ele>354</ele>
        <time>2016-09-04T09:12:43Z</time>
      </trkpt>
      <trkpt lat="43.58806" lon="6.23417">
        <ele>353</ele>
        <time>2016-09-04T09:12:52Z</time>
      </trkpt>
      <trkpt lat="43.58796" lon="6.23421">
        <ele>353</ele>
        <time>2016-09-04T09:13:00Z</time>
      </trkpt>
      <trkpt lat="43.58786" lon="6.23437">
        <ele>353</ele>
        <time>2016-09-04T09:13:14Z</time>
      </trkpt>
      <trkpt lat="43.58775" lon="6.23437">
        <ele>353</ele>
        <time>2016-09-04T09:13:20Z</time>
      </trkpt>
      <trkpt lat="43.58767" lon="6.23443">
        <ele>353</ele>
        <time>2016-09-04T09:13:59Z</time>
      </trkpt>
      <trkpt lat="43.5877" lon="6.23456">
        <ele>355</ele>
        <time>2016-09-04T09:14:22Z</time>
      </trkpt>
      <trkpt lat="43.58771" lon="6.23472">
        <ele>359</ele>
        <time>2016-09-04T09:14:55Z</time>
      </trkpt>
      <trkpt lat="43.58769" lon="6.23491">
        <ele>360</ele>
        <time>2016-09-04T09:16:08Z</time>
      </trkpt>
      <trkpt lat="43.58765" lon="6.23476">
        <ele>360</ele>
        <time>2016-09-04T09:16:12Z</time>
      </trkpt>
      <trkpt lat="43.58771" lon="6.23464">
        <ele>362.2</ele>
        <time>2016-09-04T09:16:28Z</time>
      </trkpt>
      <trkpt lat="43.58774" lon="6.23476">
        <ele>366</ele>
        <time>2016-09-04T09:17:07Z</time>
      </trkpt>
      <trkpt lat="43.58776" lon="6.23462">
        <ele>369.2</ele>
        <time>2016-09-04T09:17:52Z</time>
      </trkpt>
      <trkpt lat="43.58774" lon="6.23475">
        <ele>370.7</ele>
        <time>2016-09-04T09:21:30Z</time>
      </trkpt>
      <trkpt lat="43.5877" lon="6.23463">
        <ele>370</ele>
        <time>2016-09-04T09:21:42Z</time>
      </trkpt>
      <trkpt lat="43.58772" lon="6.23477">
        <ele>373</ele>
        <time>2016-09-04T09:22:39Z</time>
      </trkpt>
      <trkpt lat="43.58771" lon="6.2349">
        <ele>375.7</ele>
        <time>2016-09-04T09:22:55Z</time>
      </trkpt>
      <trkpt lat="43.58771" lon="6.23503">
        <ele>382</ele>
        <time>2016-09-04T09:24:07Z</time>
      </trkpt>
      <trkpt lat="43.58779" lon="6.23511">
        <ele>386</ele>
        <time>2016-09-04T09:24:38Z</time>
      </trkpt>
      <trkpt lat="43.58788" lon="6.23513">
        <ele>388.3</ele>
        <time>2016-09-04T09:25:00Z</time>
      </trkpt>
      <trkpt lat="43.58796" lon="6.23518">
        <ele>391.7</ele>
        <time>2016-09-04T09:25:31Z</time>
      </trkpt>
      <trkpt lat="43.58806" lon="6.23515">
        <ele>393</ele>
        <time>2016-09-04T09:25:42Z</time>
      </trkpt>
      <trkpt lat="43.58815" lon="6.23515">
        <ele>396</ele>
        <time>2016-09-04T09:27:15Z</time>
      </trkpt>
      <trkpt lat="43.58824" lon="6.23516">
        <ele>396.8</ele>
        <time>2016-09-04T09:27:31Z</time>
      </trkpt>
      <trkpt lat="43.58833" lon="6.23511">
        <ele>395.6</ele>
        <time>2016-09-04T09:28:00Z</time>
      </trkpt>
      <trkpt lat="43.58842" lon="6.23512">
        <ele>396</ele>
        <time>2016-09-04T09:28:12Z</time>
      </trkpt>
      <trkpt lat="43.58851" lon="6.23514">
        <ele>396.6</ele>
        <time>2016-09-04T09:28:22Z</time>
      </trkpt>
      <trkpt lat="43.5886" lon="6.2352">
        <ele>396.8</ele>
        <time>2016-09-04T09:28:35Z</time>
      </trkpt>
      <trkpt lat="43.58869" lon="6.23519">
        <ele>395.9</ele>
        <time>2016-09-04T09:28:46Z</time>
      </trkpt>
      <trkpt lat="43.58877" lon="6.23527">
        <ele>394.3</ele>
        <time>2016-09-04T09:29:00Z</time>
      </trkpt>
      <trkpt lat="43.58887" lon="6.23527">
        <ele>392.5</ele>
        <time>2016-09-04T09:29:29Z</time>
      </trkpt>
      <trkpt lat="43.58879" lon="6.23519">
        <ele>392.7</ele>
        <time>2016-09-04T09:33:09Z</time>
      </trkpt>
      <trkpt lat="43.58871" lon="6.23512">
        <ele>393.5</ele>
        <time>2016-09-04T09:33:25Z</time>
      </trkpt>
      <trkpt lat="43.58863" lon="6.23508">
        <ele>395.2</ele>
        <time>2016-09-04T09:33:50Z</time>
      </trkpt>
      <trkpt lat="43.5887" lon="6.23516">
        <ele>395.1</ele>
        <time>2016-09-04T09:34:42Z</time>
      </trkpt>
      <trkpt lat="43.58876" lon="6.23526">
        <ele>393.9</ele>
        <time>2016-09-04T09:35:00Z</time>
      </trkpt>
      <trkpt lat="43.58884" lon="6.23531">
        <ele>393.1</ele>
        <time>2016-09-04T09:35:26Z</time>
      </trkpt>
      <trkpt lat="43.58893" lon="6.23536">
        <ele>391.9</ele>
        <time>2016-09-04T09:37:51Z</time>
      </trkpt>
      <trkpt lat="43.58898" lon="6.23547">
        <ele>390.8</ele>
        <time>2016-09-04T09:38:04Z</time>
      </trkpt>
      <trkpt lat="43.58903" lon="6.23557">
        <ele>389.9</ele>
        <time>2016-09-04T09:38:12Z</time>
      </trkpt>
      <trkpt lat="43.58908" lon="6.23568">
        <ele>389.1</ele>
        <time>2016-09-04T09:38:23Z</time>
      </trkpt>
      <trkpt lat="43.58913" lon="6.23579">
        <ele>389</ele>
        <time>2016-09-04T09:38:32Z</time>
      </trkpt>
      <trkpt lat="43.5892" lon="6.23587">
        <ele>389.1</ele>
        <time>2016-09-04T09:38:41Z</time>
      </trkpt>
      <trkpt lat="43.58926" lon="6.23599">
        <ele>389.4</ele>
        <time>2016-09-04T09:38:54Z</time>
      </trkpt>
      <trkpt lat="43.58926" lon="6.23612">
        <ele>390</ele>
        <time>2016-09-04T09:39:06Z</time>
      </trkpt>
      <trkpt lat="43.58926" lon="6.23625">
        <ele>390.5</ele>
        <time>2016-09-04T09:39:14Z</time>
      </trkpt>
      <trkpt lat="43.58929" lon="6.23638">
        <ele>390.9</ele>
        <time>2016-09-04T09:39:22Z</time>
      </trkpt>
      <trkpt lat="43.58933" lon="6.2365">
        <ele>391</ele>
        <time>2016-09-04T09:39:30Z</time>
      </trkpt>
      <trkpt lat="43.58934" lon="6.23665">
        <ele>391.3</ele>
        <time>2016-09-04T09:39:40Z</time>
      </trkpt>
      <trkpt lat="43.5894" lon="6.23675">
        <ele>391.4</ele>
        <time>2016-09-04T09:39:49Z</time>
      </trkpt>
      <trkpt lat="43.58944" lon="6.23687">
        <ele>391.2</ele>
        <time>2016-09-04T09:40:01Z</time>
      </trkpt>
      <trkpt lat="43.58943" lon="6.237">
        <ele>390.8</ele>
        <time>2016-09-04T09:40:12Z</time>
      </trkpt>
      <trkpt lat="43.58944" lon="6.23713">
        <ele>389.4</ele>
        <time>2016-09-04T09:40:24Z</time>
      </trkpt>
      <trkpt lat="43.58948" lon="6.23725">
        <ele>388.3</ele>
        <time>2016-09-04T09:40:35Z</time>
      </trkpt>
      <trkpt lat="43.58947" lon="6.23739">
        <ele>387.5</ele>
        <time>2016-09-04T09:40:45Z</time>
      </trkpt>
      <trkpt lat="43.58946" lon="6.23753">
        <ele>386.8</ele>
        <time>2016-09-04T09:40:53Z</time>
      </trkpt>
      <trkpt lat="43.58946" lon="6.23766">
        <ele>386</ele>
        <time>2016-09-04T09:41:06Z</time>
      </trkpt>
      <trkpt lat="43.58949" lon="6.23778">
        <ele>385.6</ele>
        <time>2016-09-04T09:41:16Z</time>
      </trkpt>
      <trkpt lat="43.58949" lon="6.23791">
        <ele>384.7</ele>
        <time>2016-09-04T09:41:29Z</time>
      </trkpt>
      <trkpt lat="43.58954" lon="6.23803">
        <ele>384.1</ele>
        <time>2016-09-04T09:41:36Z</time>
      </trkpt>
      <trkpt lat="43.58959" lon="6.23815">
        <ele>383.6</ele>
        <time>2016-09-04T09:41:43Z</time>
      </trkpt>
      <trkpt lat="43.58955" lon="6.23827">
        <ele>383.3</ele>
        <time>2016-09-04T09:41:52Z</time>
      </trkpt>
      <trkpt lat="43.58958" lon="6.23839">
        <ele>382.8</ele>
        <time>2016-09-04T09:42:02Z</time>
      </trkpt>
      <trkpt lat="43.58965" lon="6.23849">
        <ele>382.3</ele>
        <time>2016-09-04T09:42:09Z</time>
      </trkpt>
      <trkpt lat="43.58988" lon="6.23879">
        <ele>384.3</ele>
        <time>2016-09-04T10:47:21Z</time>
      </trkpt>
      <trkpt lat="43.58998" lon="6.23878">
        <ele>384.5</ele>
        <time>2016-09-04T10:47:33Z</time>
      </trkpt>
      <trkpt lat="43.59008" lon="6.23879">
        <ele>385.1</ele>
        <time>2016-09-04T10:47:44Z</time>
      </trkpt>
      <trkpt lat="43.59017" lon="6.2388">
        <ele>385.4</ele>
        <time>2016-09-04T10:47:53Z</time>
      </trkpt>
      <trkpt lat="43.59027" lon="6.23879">
        <ele>385.7</ele>
        <time>2016-09-04T10:48:05Z</time>
      </trkpt>
      <trkpt lat="43.59036" lon="6.23881">
        <ele>386.1</ele>
        <time>2016-09-04T10:48:18Z</time>
      </trkpt>
      <trkpt lat="43.59044" lon="6.23889">
        <ele>387.5</ele>
        <time>2016-09-04T10:48:39Z</time>
      </trkpt>
      <trkpt lat="43.59051" lon="6.239">
        <ele>388.5</ele>
        <time>2016-09-04T10:48:50Z</time>
      </trkpt>
      <trkpt lat="43.59061" lon="6.23904">
        <ele>389.3</ele>
        <time>2016-09-04T10:48:58Z</time>
      </trkpt>
      <trkpt lat="43.59069" lon="6.23897">
        <ele>390.5</ele>
        <time>2016-09-04T10:49:23Z</time>
      </trkpt>
      <trkpt lat="43.59077" lon="6.23903">
        <ele>390.6</ele>
        <time>2016-09-04T10:49:30Z</time>
      </trkpt>
      <trkpt lat="43.59087" lon="6.23905">
        <ele>391.1</ele>
        <time>2016-09-04T10:49:42Z</time>
      </trkpt>
      <trkpt lat="43.59096" lon="6.23903">
        <ele>391.7</ele>
        <time>2016-09-04T10:50:05Z</time>
      </trkpt>
      <trkpt lat="43.59105" lon="6.23898">
        <ele>391.8</ele>
        <time>2016-09-04T10:50:21Z</time>
      </trkpt>
      <trkpt lat="43.5911" lon="6.23888">
        <ele>392</ele>
        <time>2016-09-04T10:50:31Z</time>
      </trkpt>
      <trkpt lat="43.59116" lon="6.23878">
        <ele>392.2</ele>
        <time>2016-09-04T10:50:42Z</time>
      </trkpt>
      <trkpt lat="43.59125" lon="6.23878">
        <ele>392.6</ele>
        <time>2016-09-04T10:50:52Z</time>
      </trkpt>
      <trkpt lat="43.59133" lon="6.23872">
        <ele>392.9</ele>
        <time>2016-09-04T10:51:02Z</time>
      </trkpt>
      <trkpt lat="43.5914" lon="6.23864">
        <ele>393.2</ele>
        <time>2016-09-04T10:51:11Z</time>
      </trkpt>
      <trkpt lat="43.59149" lon="6.23864">
        <ele>393.6</ele>
        <time>2016-09-04T10:51:21Z</time>
      </trkpt>
      <trkpt lat="43.59156" lon="6.23855">
        <ele>395.2</ele>
        <time>2016-09-04T10:51:45Z</time>
      </trkpt>
      <trkpt lat="43.59164" lon="6.2385">
        <ele>395.6</ele>
        <time>2016-09-04T10:51:53Z</time>
      </trkpt>
      <trkpt lat="43.59168" lon="6.23838">
        <ele>396.5</ele>
        <time>2016-09-04T10:52:08Z</time>
      </trkpt>
      <trkpt lat="43.59171" lon="6.23826">
        <ele>398.4</ele>
        <time>2016-09-04T10:52:24Z</time>
      </trkpt>
      <trkpt lat="43.59175" lon="6.23814">
        <ele>399.6</ele>
        <time>2016-09-04T10:52:38Z</time>
      </trkpt>
      <trkpt lat="43.59178" lon="6.23801">
        <ele>400.1</ele>
        <time>2016-09-04T10:52:46Z</time>
      </trkpt>
      <trkpt lat="43.59183" lon="6.23789">
        <ele>400.4</ele>
        <time>2016-09-04T10:52:55Z</time>
      </trkpt>
      <trkpt lat="43.59189" lon="6.23778">
        <ele>400.2</ele>
        <time>2016-09-04T10:53:05Z</time>
      </trkpt>
      <trkpt lat="43.59193" lon="6.23765">
        <ele>400.1</ele>
        <time>2016-09-04T10:53:12Z</time>
      </trkpt>
      <trkpt lat="43.59198" lon="6.23753">
        <ele>399.5</ele>
        <time>2016-09-04T10:53:22Z</time>
      </trkpt>
      <trkpt lat="43.59203" lon="6.23744">
        <ele>399.1</ele>
        <time>2016-09-04T10:53:31Z</time>
      </trkpt>
      <trkpt lat="43.59213" lon="6.2374">
        <ele>398.6</ele>
        <time>2016-09-04T10:53:46Z</time>
      </trkpt>
      <trkpt lat="43.59219" lon="6.2373">
        <ele>398.3</ele>
        <time>2016-09-04T10:54:12Z</time>
      </trkpt>
      <trkpt lat="43.59226" lon="6.23723">
        <ele>398.3</ele>
        <time>2016-09-04T10:54:23Z</time>
      </trkpt>
      <trkpt lat="43.59235" lon="6.23717">
        <ele>398.8</ele>
        <time>2016-09-04T10:54:36Z</time>
      </trkpt>
      <trkpt lat="43.59245" lon="6.23717">
        <ele>400.8</ele>
        <time>2016-09-04T10:54:57Z</time>
      </trkpt>
      <trkpt lat="43.59254" lon="6.23716">
        <ele>402.4</ele>
        <time>2016-09-04T10:55:10Z</time>
      </trkpt>
      <trkpt lat="43.59264" lon="6.23715">
        <ele>402.5</ele>
        <time>2016-09-04T10:55:22Z</time>
      </trkpt>
      <trkpt lat="43.59271" lon="6.23705">
        <ele>402.1</ele>
        <time>2016-09-04T10:55:30Z</time>
      </trkpt>
      <trkpt lat="43.59279" lon="6.23696">
        <ele>401.8</ele>
        <time>2016-09-04T10:55:39Z</time>
      </trkpt>
      <trkpt lat="43.59288" lon="6.2369">
        <ele>401.6</ele>
        <time>2016-09-04T10:55:48Z</time>
      </trkpt>
      <trkpt lat="43.59296" lon="6.23684">
        <ele>401.5</ele>
        <time>2016-09-04T10:56:04Z</time>
      </trkpt>
      <trkpt lat="43.59303" lon="6.23674">
        <ele>401.7</ele>
        <time>2016-09-04T10:56:14Z</time>
      </trkpt>
      <trkpt lat="43.59312" lon="6.23672">
        <ele>401.9</ele>
        <time>2016-09-04T10:56:26Z</time>
      </trkpt>
      <trkpt lat="43.59322" lon="6.23676">
        <ele>402.6</ele>
        <time>2016-09-04T10:56:41Z</time>
      </trkpt>
      <trkpt lat="43.59328" lon="6.23666">
        <ele>402.8</ele>
        <time>2016-09-04T10:56:50Z</time>
      </trkpt>
      <trkpt lat="43.59336" lon="6.23659">
        <ele>403</ele>
        <time>2016-09-04T10:57:01Z</time>
      </trkpt>
      <trkpt lat="43.59344" lon="6.23653">
        <ele>403.2</ele>
        <time>2016-09-04T10:57:09Z</time>
      </trkpt>
      <trkpt lat="43.59351" lon="6.23643">
        <ele>403.3</ele>
        <time>2016-09-04T10:57:18Z</time>
      </trkpt>
      <trkpt lat="43.59359" lon="6.23635">
        <ele>403.4</ele>
        <time>2016-09-04T10:57:28Z</time>
      </trkpt>
      <trkpt lat="43.59368" lon="6.23634">
        <ele>403.8</ele>
        <time>2016-09-04T10:57:40Z</time>
      </trkpt>
      <trkpt lat="43.59377" lon="6.23635">
        <ele>404.9</ele>
        <time>2016-09-04T10:57:57Z</time>
      </trkpt>
      <trkpt lat="43.59385" lon="6.23643">
        <ele>405.5</ele>
        <time>2016-09-04T10:58:10Z</time>
      </trkpt>
      <trkpt lat="43.59394" lon="6.23645">
        <ele>405.5</ele>
        <time>2016-09-04T10:58:22Z</time>
      </trkpt>
      <trkpt lat="43.59403" lon="6.23648">
        <ele>405.3</ele>
        <time>2016-09-04T10:58:32Z</time>
      </trkpt>
      <trkpt lat="43.59412" lon="6.23651">
        <ele>404.7</ele>
        <time>2016-09-04T10:58:43Z</time>
      </trkpt>
      <trkpt lat="43.59422" lon="6.23654">
        <ele>404.2</ele>
        <time>2016-09-04T10:58:59Z</time>
      </trkpt>
      <trkpt lat="43.59412" lon="6.23656">
        <ele>408.1</ele>
        <time>2016-09-04T10:59:58Z</time>
      </trkpt>
      <trkpt lat="43.59406" lon="6.23666">
        <ele>410</ele>
        <time>2016-09-04T11:00:12Z</time>
      </trkpt>
      <trkpt lat="43.59408" lon="6.23679">
        <ele>411</ele>
        <time>2016-09-04T11:00:22Z</time>
      </trkpt>
      <trkpt lat="43.5941" lon="6.23692">
        <ele>413</ele>
        <time>2016-09-04T11:00:36Z</time>
      </trkpt>
      <trkpt lat="43.59412" lon="6.23704">
        <ele>414.6</ele>
        <time>2016-09-04T11:00:48Z</time>
      </trkpt>
      <trkpt lat="43.59413" lon="6.23718">
        <ele>418.1</ele>
        <time>2016-09-04T11:01:17Z</time>
      </trkpt>
      <trkpt lat="43.59414" lon="6.23732">
        <ele>418.6</ele>
        <time>2016-09-04T11:01:26Z</time>
      </trkpt>
      <trkpt lat="43.59419" lon="6.23743">
        <ele>419</ele>
        <time>2016-09-04T11:01:38Z</time>
      </trkpt>
      <trkpt lat="43.59424" lon="6.23754">
        <ele>421.9</ele>
        <time>2016-09-04T11:02:07Z</time>
      </trkpt>
      <trkpt lat="43.59433" lon="6.23748">
        <ele>422.8</ele>
        <time>2016-09-04T11:02:21Z</time>
      </trkpt>
      <trkpt lat="43.5944" lon="6.2374">
        <ele>422.9</ele>
        <time>2016-09-04T11:02:28Z</time>
      </trkpt>
      <trkpt lat="43.59448" lon="6.23732">
        <ele>422.8</ele>
        <time>2016-09-04T11:02:37Z</time>
      </trkpt>
      <trkpt lat="43.59457" lon="6.23736">
        <ele>426.3</ele>
        <time>2016-09-04T11:03:20Z</time>
      </trkpt>
      <trkpt lat="43.59466" lon="6.23736">
        <ele>428.9</ele>
        <time>2016-09-04T11:03:38Z</time>
      </trkpt>
      <trkpt lat="43.59475" lon="6.2374">
        <ele>431.1</ele>
        <time>2016-09-04T11:03:56Z</time>
      </trkpt>
      <trkpt lat="43.59482" lon="6.23749">
        <ele>432</ele>
        <time>2016-09-04T11:04:06Z</time>
      </trkpt>
      <trkpt lat="43.59489" lon="6.23757">
        <ele>433.2</ele>
        <time>2016-09-04T11:04:17Z</time>
      </trkpt>
      <trkpt lat="43.59498" lon="6.23764">
        <ele>433.9</ele>
        <time>2016-09-04T11:04:27Z</time>
      </trkpt>
      <trkpt lat="43.59507" lon="6.23767">
        <ele>434.8</ele>
        <time>2016-09-04T11:04:39Z</time>
      </trkpt>
      <trkpt lat="43.59516" lon="6.2377">
        <ele>435.4</ele>
        <time>2016-09-04T11:04:50Z</time>
      </trkpt>
      <trkpt lat="43.59523" lon="6.23779">
        <ele>435.9</ele>
        <time>2016-09-04T11:05:01Z</time>
      </trkpt>
      <trkpt lat="43.5953" lon="6.23789">
        <ele>436.2</ele>
        <time>2016-09-04T11:05:09Z</time>
      </trkpt>
      <trkpt lat="43.59536" lon="6.23797">
        <ele>436.6</ele>
        <time>2016-09-04T11:05:21Z</time>
      </trkpt>
      <trkpt lat="43.59544" lon="6.23804">
        <ele>437.2</ele>
        <time>2016-09-04T11:05:30Z</time>
      </trkpt>
      <trkpt lat="43.59548" lon="6.23816">
        <ele>438</ele>
        <time>2016-09-04T11:05:44Z</time>
      </trkpt>
      <trkpt lat="43.59556" lon="6.23823">
        <ele>439.2</ele>
        <time>2016-09-04T11:05:59Z</time>
      </trkpt>
      <trkpt lat="43.59562" lon="6.23833">
        <ele>440.7</ele>
        <time>2016-09-04T11:06:13Z</time>
      </trkpt>
      <trkpt lat="43.5957" lon="6.2384">
        <ele>441.8</ele>
        <time>2016-09-04T11:06:24Z</time>
      </trkpt>
      <trkpt lat="43.59577" lon="6.23849">
        <ele>443</ele>
        <time>2016-09-04T11:06:37Z</time>
      </trkpt>
      <trkpt lat="43.59584" lon="6.23858">
        <ele>444.4</ele>
        <time>2016-09-04T11:07:01Z</time>
      </trkpt>
      <trkpt lat="43.5959" lon="6.23867">
        <ele>444.5</ele>
        <time>2016-09-04T11:07:10Z</time>
      </trkpt>
      <trkpt lat="43.59598" lon="6.23874">
        <ele>443.9</ele>
        <time>2016-09-04T11:07:26Z</time>
      </trkpt>
      <trkpt lat="43.59607" lon="6.23878">
        <ele>443.5</ele>
        <time>2016-09-04T11:07:36Z</time>
      </trkpt>
      <trkpt lat="43.59616" lon="6.23882">
        <ele>442.5</ele>
        <time>2016-09-04T11:07:46Z</time>
      </trkpt>
      <trkpt lat="43.59624" lon="6.23887">
        <ele>441.2</ele>
        <time>2016-09-04T11:07:56Z</time>
      </trkpt>
      <trkpt lat="43.59633" lon="6.2389">
        <ele>439.7</ele>
        <time>2016-09-04T11:08:06Z</time>
      </trkpt>
      <trkpt lat="43.59643" lon="6.23888">
        <ele>438.4</ele>
        <time>2016-09-04T11:08:17Z</time>
      </trkpt>
      <trkpt lat="43.59653" lon="6.23888">
        <ele>437.6</ele>
        <time>2016-09-04T11:08:27Z</time>
      </trkpt>
      <trkpt lat="43.59663" lon="6.23885">
        <ele>437.2</ele>
        <time>2016-09-04T11:08:40Z</time>
      </trkpt>
      <trkpt lat="43.59672" lon="6.23881">
        <ele>437.2</ele>
        <time>2016-09-04T11:08:52Z</time>
      </trkpt>
      <trkpt lat="43.59681" lon="6.23881">
        <ele>437.8</ele>
        <time>2016-09-04T11:09:02Z</time>
      </trkpt>
      <trkpt lat="43.59691" lon="6.23883">
        <ele>438.5</ele>
        <time>2016-09-04T11:09:12Z</time>
      </trkpt>
      <trkpt lat="43.59698" lon="6.23891">
        <ele>438.8</ele>
        <time>2016-09-04T11:09:23Z</time>
      </trkpt>
      <trkpt lat="43.59703" lon="6.23902">
        <ele>439</ele>
        <time>2016-09-04T11:09:35Z</time>
      </trkpt>
      <trkpt lat="43.59712" lon="6.23903">
        <ele>439</ele>
        <time>2016-09-04T11:09:53Z</time>
      </trkpt>
      <trkpt lat="43.59721" lon="6.23902">
        <ele>439</ele>
        <time>2016-09-04T11:13:57Z</time>
      </trkpt>
      <trkpt lat="43.59729" lon="6.23894">
        <ele>439.1</ele>
        <time>2016-09-04T11:14:08Z</time>
      </trkpt>
      <trkpt lat="43.59738" lon="6.23889">
        <ele>439.1</ele>
        <time>2016-09-04T11:14:19Z</time>
      </trkpt>
      <trkpt lat="43.59748" lon="6.23889">
        <ele>439.2</ele>
        <time>2016-09-04T11:14:29Z</time>
      </trkpt>
      <trkpt lat="43.59757" lon="6.23892">
        <ele>439.4</ele>
        <time>2016-09-04T11:14:39Z</time>
      </trkpt>
      <trkpt lat="43.59766" lon="6.23895">
        <ele>439.5</ele>
        <time>2016-09-04T11:14:48Z</time>
      </trkpt>
      <trkpt lat="43.59773" lon="6.23904">
        <ele>439.6</ele>
        <time>2016-09-04T11:14:58Z</time>
      </trkpt>
      <trkpt lat="43.59776" lon="6.23915">
        <ele>439.8</ele>
        <time>2016-09-04T11:15:09Z</time>
      </trkpt>
      <trkpt lat="43.59782" lon="6.23926">
        <ele>439.3</ele>
        <time>2016-09-04T11:15:20Z</time>
      </trkpt>
      <trkpt lat="43.59788" lon="6.23936">
        <ele>438.9</ele>
        <time>2016-09-04T11:15:30Z</time>
      </trkpt>
      <trkpt lat="43.5979" lon="6.23949">
        <ele>438.2</ele>
        <time>2016-09-04T11:15:39Z</time>
      </trkpt>
      <trkpt lat="43.59792" lon="6.23962">
        <ele>437.9</ele>
        <time>2016-09-04T11:15:48Z</time>
      </trkpt>
      <trkpt lat="43.59795" lon="6.23974">
        <ele>437.9</ele>
        <time>2016-09-04T11:15:58Z</time>
      </trkpt>
      <trkpt lat="43.598" lon="6.23985">
        <ele>437.8</ele>
        <time>2016-09-04T11:16:09Z</time>
      </trkpt>
      <trkpt lat="43.59804" lon="6.23998">
        <ele>437.7</ele>
        <time>2016-09-04T11:16:17Z</time>
      </trkpt>
      <trkpt lat="43.59811" lon="6.24008">
        <ele>437.7</ele>
        <time>2016-09-04T11:16:26Z</time>
      </trkpt>
      <trkpt lat="43.59817" lon="6.24019">
        <ele>437.7</ele>
        <time>2016-09-04T11:16:35Z</time>
      </trkpt>
      <trkpt lat="43.59821" lon="6.2403">
        <ele>438</ele>
        <time>2016-09-04T11:16:44Z</time>
      </trkpt>
      <trkpt lat="43.59824" lon="6.24042">
        <ele>438</ele>
        <time>2016-09-04T11:16:54Z</time>
      </trkpt>
      <trkpt lat="43.59829" lon="6.24054">
        <ele>438</ele>
        <time>2016-09-04T11:17:03Z</time>
      </trkpt>
      <trkpt lat="43.59831" lon="6.24068">
        <ele>438.1</ele>
        <time>2016-09-04T11:17:12Z</time>
      </trkpt>
      <trkpt lat="43.59835" lon="6.24079">
        <ele>438.1</ele>
        <time>2016-09-04T11:17:21Z</time>
      </trkpt>
      <trkpt lat="43.5984" lon="6.24091">
        <ele>438.2</ele>
        <time>2016-09-04T11:17:31Z</time>
      </trkpt>
      <trkpt lat="43.59845" lon="6.24103">
        <ele>438.1</ele>
        <time>2016-09-04T11:17:40Z</time>
      </trkpt>
      <trkpt lat="43.59848" lon="6.24115">
        <ele>438.1</ele>
        <time>2016-09-04T11:17:51Z</time>
      </trkpt>
      <trkpt lat="43.59849" lon="6.24127">
        <ele>438.4</ele>
        <time>2016-09-04T11:18:22Z</time>
      </trkpt>
      <trkpt lat="43.5984" lon="6.24133">
        <ele>438.4</ele>
        <time>2016-09-04T11:19:40Z</time>
      </trkpt>
      <trkpt lat="43.59831" lon="6.24138">
        <ele>438.4</ele>
        <time>2016-09-04T11:19:51Z</time>
      </trkpt>
      <trkpt lat="43.59824" lon="6.24146">
        <ele>438.7</ele>
        <time>2016-09-04T11:20:01Z</time>
      </trkpt>
      <trkpt lat="43.59816" lon="6.24152">
        <ele>438.8</ele>
        <time>2016-09-04T11:20:09Z</time>
      </trkpt>
      <trkpt lat="43.59811" lon="6.24163">
        <ele>439.1</ele>
        <time>2016-09-04T11:20:18Z</time>
      </trkpt>
      <trkpt lat="43.59806" lon="6.24175">
        <ele>439.7</ele>
        <time>2016-09-04T11:20:30Z</time>
      </trkpt>
      <trkpt lat="43.59801" lon="6.24185">
        <ele>440.1</ele>
        <time>2016-09-04T11:20:41Z</time>
      </trkpt>
      <trkpt lat="43.59794" lon="6.24195">
        <ele>440.8</ele>
        <time>2016-09-04T11:20:51Z</time>
      </trkpt>
      <trkpt lat="43.59791" lon="6.24207">
        <ele>441.9</ele>
        <time>2016-09-04T11:21:02Z</time>
      </trkpt>
      <trkpt lat="43.59787" lon="6.24219">
        <ele>442.7</ele>
        <time>2016-09-04T11:21:11Z</time>
      </trkpt>
      <trkpt lat="43.5978" lon="6.24227">
        <ele>443.6</ele>
        <time>2016-09-04T11:21:21Z</time>
      </trkpt>
      <trkpt lat="43.59773" lon="6.24237">
        <ele>444.5</ele>
        <time>2016-09-04T11:21:32Z</time>
      </trkpt>
      <trkpt lat="43.59769" lon="6.24249">
        <ele>445.3</ele>
        <time>2016-09-04T11:21:41Z</time>
      </trkpt>
      <trkpt lat="43.59763" lon="6.2426">
        <ele>446.1</ele>
        <time>2016-09-04T11:21:51Z</time>
      </trkpt>
      <trkpt lat="43.59756" lon="6.24269">
        <ele>446.7</ele>
        <time>2016-09-04T11:22:01Z</time>
      </trkpt>
      <trkpt lat="43.5975" lon="6.2428">
        <ele>447.3</ele>
        <time>2016-09-04T11:22:11Z</time>
      </trkpt>
      <trkpt lat="43.59742" lon="6.24288">
        <ele>447.7</ele>
        <time>2016-09-04T11:22:19Z</time>
      </trkpt>
      <trkpt lat="43.59734" lon="6.24296">
        <ele>448.2</ele>
        <time>2016-09-04T11:22:29Z</time>
      </trkpt>
      <trkpt lat="43.59725" lon="6.24302">
        <ele>448.8</ele>
        <time>2016-09-04T11:22:38Z</time>
      </trkpt>
      <trkpt lat="43.59718" lon="6.24311">
        <ele>449.3</ele>
        <time>2016-09-04T11:22:47Z</time>
      </trkpt>
      <trkpt lat="43.59712" lon="6.24322">
        <ele>449.8</ele>
        <time>2016-09-04T11:22:56Z</time>
      </trkpt>
      <trkpt lat="43.59705" lon="6.24332">
        <ele>450.3</ele>
        <time>2016-09-04T11:23:05Z</time>
      </trkpt>
      <trkpt lat="43.59697" lon="6.24338">
        <ele>450.8</ele>
        <time>2016-09-04T11:23:14Z</time>
      </trkpt>
      <trkpt lat="43.59691" lon="6.24348">
        <ele>451.1</ele>
        <time>2016-09-04T11:23:22Z</time>
      </trkpt>
      <trkpt lat="43.59684" lon="6.24356">
        <ele>451.4</ele>
        <time>2016-09-04T11:23:30Z</time>
      </trkpt>
      <trkpt lat="43.59678" lon="6.24367">
        <ele>452</ele>
        <time>2016-09-04T11:23:39Z</time>
      </trkpt>
      <trkpt lat="43.59671" lon="6.24376">
        <ele>452.5</ele>
        <time>2016-09-04T11:23:47Z</time>
      </trkpt>
      <trkpt lat="43.59662" lon="6.24381">
        <ele>453</ele>
        <time>2016-09-04T11:23:56Z</time>
      </trkpt>
      <trkpt lat="43.59655" lon="6.2439">
        <ele>453.7</ele>
        <time>2016-09-04T11:24:05Z</time>
      </trkpt>
      <trkpt lat="43.59649" lon="6.244">
        <ele>454.2</ele>
        <time>2016-09-04T11:24:14Z</time>
      </trkpt>
      <trkpt lat="43.59643" lon="6.2441">
        <ele>454.5</ele>
        <time>2016-09-04T11:24:22Z</time>
      </trkpt>
      <trkpt lat="43.59637" lon="6.24421">
        <ele>454.6</ele>
        <time>2016-09-04T11:24:30Z</time>
      </trkpt>
      <trkpt lat="43.59631" lon="6.24431">
        <ele>454.7</ele>
        <time>2016-09-04T11:24:38Z</time>
      </trkpt>
      <trkpt lat="43.59625" lon="6.2444">
        <ele>454.6</ele>
        <time>2016-09-04T11:24:46Z</time>
      </trkpt>
      <trkpt lat="43.59621" lon="6.24452">
        <ele>454.5</ele>
        <time>2016-09-04T11:24:54Z</time>
      </trkpt>
      <trkpt lat="43.5962" lon="6.24464">
        <ele>454.3</ele>
        <time>2016-09-04T11:25:04Z</time>
      </trkpt>
      <trkpt lat="43.59624" lon="6.24476">
        <ele>453.9</ele>
        <time>2016-09-04T11:26:45Z</time>
      </trkpt>
      <trkpt lat="43.59629" lon="6.24486">
        <ele>453.9</ele>
        <time>2016-09-04T11:26:56Z</time>
      </trkpt>
      <trkpt lat="43.59634" lon="6.24497">
        <ele>453.5</ele>
        <time>2016-09-04T11:27:08Z</time>
      </trkpt>
      <trkpt lat="43.59639" lon="6.24508">
        <ele>453.4</ele>
        <time>2016-09-04T11:27:16Z</time>
      </trkpt>
      <trkpt lat="43.59647" lon="6.24515">
        <ele>453.3</ele>
        <time>2016-09-04T11:27:25Z</time>
      </trkpt>
      <trkpt lat="43.59655" lon="6.24521">
        <ele>453.4</ele>
        <time>2016-09-04T11:27:33Z</time>
      </trkpt>
      <trkpt lat="43.59664" lon="6.24527">
        <ele>453.3</ele>
        <time>2016-09-04T11:27:42Z</time>
      </trkpt>
      <trkpt lat="43.59668" lon="6.24538">
        <ele>453</ele>
        <time>2016-09-04T11:27:51Z</time>
      </trkpt>
      <trkpt lat="43.59672" lon="6.2455">
        <ele>452.7</ele>
        <time>2016-09-04T11:27:59Z</time>
      </trkpt>
      <trkpt lat="43.59675" lon="6.24563">
        <ele>452</ele>
        <time>2016-09-04T11:28:08Z</time>
      </trkpt>
      <trkpt lat="43.59678" lon="6.24576">
        <ele>451.3</ele>
        <time>2016-09-04T11:28:18Z</time>
      </trkpt>
      <trkpt lat="43.5968" lon="6.24589">
        <ele>450.8</ele>
        <time>2016-09-04T11:28:27Z</time>
      </trkpt>
      <trkpt lat="43.59683" lon="6.24603">
        <ele>450.5</ele>
        <time>2016-09-04T11:28:35Z</time>
      </trkpt>
      <trkpt lat="43.59687" lon="6.24614">
        <ele>450.3</ele>
        <time>2016-09-04T11:28:44Z</time>
      </trkpt>
      <trkpt lat="43.59688" lon="6.24627">
        <ele>450.2</ele>
        <time>2016-09-04T11:28:53Z</time>
      </trkpt>
      <trkpt lat="43.59686" lon="6.2464">
        <ele>450</ele>
        <time>2016-09-04T11:29:03Z</time>
      </trkpt>
      <trkpt lat="43.59685" lon="6.24654">
        <ele>449.6</ele>
        <time>2016-09-04T11:29:13Z</time>
      </trkpt>
      <trkpt lat="43.59687" lon="6.24667">
        <ele>449.3</ele>
        <time>2016-09-04T11:29:20Z</time>
      </trkpt>
      <trkpt lat="43.59687" lon="6.2468">
        <ele>449.1</ele>
        <time>2016-09-04T11:29:29Z</time>
      </trkpt>
      <trkpt lat="43.59691" lon="6.24693">
        <ele>448.9</ele>
        <time>2016-09-04T11:29:38Z</time>
      </trkpt>
      <trkpt lat="43.59694" lon="6.24705">
        <ele>448.7</ele>
        <time>2016-09-04T11:29:47Z</time>
      </trkpt>
      <trkpt lat="43.59698" lon="6.24717">
        <ele>448.4</ele>
        <time>2016-09-04T11:29:56Z</time>
      </trkpt>
      <trkpt lat="43.59702" lon="6.24729">
        <ele>448</ele>
        <time>2016-09-04T11:30:05Z</time>
      </trkpt>
      <trkpt lat="43.59706" lon="6.24741">
        <ele>447.4</ele>
        <time>2016-09-04T11:30:15Z</time>
      </trkpt>
      <trkpt lat="43.59709" lon="6.24754">
        <ele>446.4</ele>
        <time>2016-09-04T11:30:25Z</time>
      </trkpt>
      <trkpt lat="43.59713" lon="6.24769">
        <ele>445.3</ele>
        <time>2016-09-04T11:30:33Z</time>
      </trkpt>
      <trkpt lat="43.59711" lon="6.24781">
        <ele>444.2</ele>
        <time>2016-09-04T11:30:42Z</time>
      </trkpt>
      <trkpt lat="43.59705" lon="6.24793">
        <ele>443.3</ele>
        <time>2016-09-04T11:30:51Z</time>
      </trkpt>
      <trkpt lat="43.59706" lon="6.24806">
        <ele>442.4</ele>
        <time>2016-09-04T11:31:01Z</time>
      </trkpt>
      <trkpt lat="43.59704" lon="6.2482">
        <ele>441.5</ele>
        <time>2016-09-04T11:31:11Z</time>
      </trkpt>
      <trkpt lat="43.59706" lon="6.24833">
        <ele>440.7</ele>
        <time>2016-09-04T11:31:23Z</time>
      </trkpt>
      <trkpt lat="43.59707" lon="6.24846">
        <ele>440.2</ele>
        <time>2016-09-04T11:31:31Z</time>
      </trkpt>
      <trkpt lat="43.59707" lon="6.24858">
        <ele>439.8</ele>
        <time>2016-09-04T11:31:39Z</time>
      </trkpt>
      <trkpt lat="43.5971" lon="6.2487">
        <ele>439.7</ele>
        <time>2016-09-04T11:31:46Z</time>
      </trkpt>
      <trkpt lat="43.59715" lon="6.24881">
        <ele>439.6</ele>
        <time>2016-09-04T11:31:55Z</time>
      </trkpt>
      <trkpt lat="43.59722" lon="6.24891">
        <ele>439.6</ele>
        <time>2016-09-04T11:32:06Z</time>
      </trkpt>
      <trkpt lat="43.59728" lon="6.24901">
        <ele>440.7</ele>
        <time>2016-09-04T11:33:43Z</time>
      </trkpt>
      <trkpt lat="43.59726" lon="6.24914">
        <ele>440.8</ele>
        <time>2016-09-04T11:33:57Z</time>
      </trkpt>
      <trkpt lat="43.59721" lon="6.24926">
        <ele>441.4</ele>
        <time>2016-09-04T11:34:08Z</time>
      </trkpt>
      <trkpt lat="43.59721" lon="6.24938">
        <ele>441.7</ele>
        <time>2016-09-04T11:34:18Z</time>
      </trkpt>
      <trkpt lat="43.59717" lon="6.24949">
        <ele>442</ele>
        <time>2016-09-04T11:34:27Z</time>
      </trkpt>
      <trkpt lat="43.5971" lon="6.24958">
        <ele>442.2</ele>
        <time>2016-09-04T11:34:38Z</time>
      </trkpt>
      <trkpt lat="43.59708" lon="6.24971">
        <ele>442.3</ele>
        <time>2016-09-04T11:34:47Z</time>
      </trkpt>
      <trkpt lat="43.59709" lon="6.24985">
        <ele>442.3</ele>
        <time>2016-09-04T11:34:58Z</time>
      </trkpt>
      <trkpt lat="43.59708" lon="6.24998">
        <ele>442.8</ele>
        <time>2016-09-04T11:35:11Z</time>
      </trkpt>
      <trkpt lat="43.59708" lon="6.25012">
        <ele>443.5</ele>
        <time>2016-09-04T11:35:21Z</time>
      </trkpt>
      <trkpt lat="43.59707" lon="6.25024">
        <ele>444.6</ele>
        <time>2016-09-04T11:35:35Z</time>
      </trkpt>
      <trkpt lat="43.59707" lon="6.25037">
        <ele>446</ele>
        <time>2016-09-04T11:35:48Z</time>
      </trkpt>
      <trkpt lat="43.59704" lon="6.25049">
        <ele>447</ele>
        <time>2016-09-04T11:36:00Z</time>
      </trkpt>
      <trkpt lat="43.59702" lon="6.25062">
        <ele>447.6</ele>
        <time>2016-09-04T11:36:08Z</time>
      </trkpt>
      <trkpt lat="43.59701" lon="6.25074">
        <ele>448.1</ele>
        <time>2016-09-04T11:36:19Z</time>
      </trkpt>
      <trkpt lat="43.59697" lon="6.25087">
        <ele>448.4</ele>
        <time>2016-09-04T11:36:29Z</time>
      </trkpt>
      <trkpt lat="43.59693" lon="6.25099">
        <ele>448.6</ele>
        <time>2016-09-04T11:36:38Z</time>
      </trkpt>
      <trkpt lat="43.59692" lon="6.25111">
        <ele>448.8</ele>
        <time>2016-09-04T11:36:46Z</time>
      </trkpt>
      <trkpt lat="43.59689" lon="6.25124">
        <ele>449.4</ele>
        <time>2016-09-04T11:36:56Z</time>
      </trkpt>
      <trkpt lat="43.59683" lon="6.25134">
        <ele>449.3</ele>
        <time>2016-09-04T11:37:06Z</time>
      </trkpt>
      <trkpt lat="43.59676" lon="6.25143">
        <ele>449.2</ele>
        <time>2016-09-04T11:37:16Z</time>
      </trkpt>
      <trkpt lat="43.59672" lon="6.25154">
        <ele>449.1</ele>
        <time>2016-09-04T11:37:25Z</time>
      </trkpt>
      <trkpt lat="43.59667" lon="6.25166">
        <ele>449.1</ele>
        <time>2016-09-04T11:37:35Z</time>
      </trkpt>
      <trkpt lat="43.59667" lon="6.25179">
        <ele>449</ele>
        <time>2016-09-04T11:37:43Z</time>
      </trkpt>
      <trkpt lat="43.5966" lon="6.25188">
        <ele>449</ele>
        <time>2016-09-04T11:37:51Z</time>
      </trkpt>
      <trkpt lat="43.59656" lon="6.252">
        <ele>449</ele>
        <time>2016-09-04T11:38:00Z</time>
      </trkpt>
      <trkpt lat="43.59653" lon="6.25212">
        <ele>449.2</ele>
        <time>2016-09-04T11:38:09Z</time>
      </trkpt>
      <trkpt lat="43.5965" lon="6.25225">
        <ele>449.4</ele>
        <time>2016-09-04T11:38:19Z</time>
      </trkpt>
      <trkpt lat="43.59644" lon="6.25237">
        <ele>449.3</ele>
        <time>2016-09-04T11:38:28Z</time>
      </trkpt>
      <trkpt lat="43.59638" lon="6.25248">
        <ele>448.9</ele>
        <time>2016-09-04T11:38:36Z</time>
      </trkpt>
      <trkpt lat="43.5963" lon="6.25258">
        <ele>448.3</ele>
        <time>2016-09-04T11:38:45Z</time>
      </trkpt>
      <trkpt lat="43.59626" lon="6.25269">
        <ele>447.8</ele>
        <time>2016-09-04T11:38:55Z</time>
      </trkpt>
      <trkpt lat="43.59622" lon="6.25282">
        <ele>447.3</ele>
        <time>2016-09-04T11:39:03Z</time>
      </trkpt>
      <trkpt lat="43.59614" lon="6.2529">
        <ele>446.9</ele>
        <time>2016-09-04T11:39:11Z</time>
      </trkpt>
      <trkpt lat="43.5961" lon="6.25302">
        <ele>446.5</ele>
        <time>2016-09-04T11:39:20Z</time>
      </trkpt>
      <trkpt lat="43.59603" lon="6.25312">
        <ele>445.9</ele>
        <time>2016-09-04T11:39:30Z</time>
      </trkpt>
      <trkpt lat="43.59599" lon="6.25323">
        <ele>445.3</ele>
        <time>2016-09-04T11:39:39Z</time>
      </trkpt>
      <trkpt lat="43.59592" lon="6.25332">
        <ele>444.7</ele>
        <time>2016-09-04T11:39:47Z</time>
      </trkpt>
      <trkpt lat="43.59587" lon="6.25344">
        <ele>444</ele>
        <time>2016-09-04T11:39:56Z</time>
      </trkpt>
      <trkpt lat="43.59582" lon="6.25355">
        <ele>443.4</ele>
        <time>2016-09-04T11:40:04Z</time>
      </trkpt>
      <trkpt lat="43.59577" lon="6.25365">
        <ele>442.6</ele>
        <time>2016-09-04T11:40:11Z</time>
      </trkpt>
      <trkpt lat="43.59571" lon="6.25376">
        <ele>441.8</ele>
        <time>2016-09-04T11:40:20Z</time>
      </trkpt>
      <trkpt lat="43.59565" lon="6.25386">
        <ele>441.1</ele>
        <time>2016-09-04T11:40:29Z</time>
      </trkpt>
      <trkpt lat="43.5956" lon="6.25397">
        <ele>440.7</ele>
        <time>2016-09-04T11:40:39Z</time>
      </trkpt>
      <trkpt lat="43.59555" lon="6.25407">
        <ele>440.6</ele>
        <time>2016-09-04T11:40:50Z</time>
      </trkpt>
      <trkpt lat="43.59548" lon="6.25416">
        <ele>440.3</ele>
        <time>2016-09-04T11:40:59Z</time>
      </trkpt>
      <trkpt lat="43.59541" lon="6.25425">
        <ele>440</ele>
        <time>2016-09-04T11:41:07Z</time>
      </trkpt>
      <trkpt lat="43.59536" lon="6.25436">
        <ele>439.8</ele>
        <time>2016-09-04T11:41:15Z</time>
      </trkpt>
      <trkpt lat="43.59533" lon="6.25448">
        <ele>439.5</ele>
        <time>2016-09-04T11:41:25Z</time>
      </trkpt>
      <trkpt lat="43.59525" lon="6.25457">
        <ele>439.4</ele>
        <time>2016-09-04T11:41:41Z</time>
      </trkpt>
      <trkpt lat="43.59517" lon="6.25464">
        <ele>439.2</ele>
        <time>2016-09-04T11:41:51Z</time>
      </trkpt>
      <trkpt lat="43.59509" lon="6.2547">
        <ele>439.3</ele>
        <time>2016-09-04T11:42:00Z</time>
      </trkpt>
      <trkpt lat="43.59503" lon="6.25482">
        <ele>439.3</ele>
        <time>2016-09-04T11:42:09Z</time>
      </trkpt>
      <trkpt lat="43.59501" lon="6.25495">
        <ele>439.3</ele>
        <time>2016-09-04T11:42:16Z</time>
      </trkpt>
      <trkpt lat="43.59496" lon="6.25506">
        <ele>439.3</ele>
        <time>2016-09-04T11:42:25Z</time>
      </trkpt>
      <trkpt lat="43.5949" lon="6.25516">
        <ele>439.2</ele>
        <time>2016-09-04T11:42:36Z</time>
      </trkpt>
      <trkpt lat="43.59481" lon="6.25523">
        <ele>438.6</ele>
        <time>2016-09-04T11:42:51Z</time>
      </trkpt>
      <trkpt lat="43.59475" lon="6.25534">
        <ele>438</ele>
        <time>2016-09-04T11:43:02Z</time>
      </trkpt>
      <trkpt lat="43.59471" lon="6.25545">
        <ele>436</ele>
        <time>2016-09-04T11:43:19Z</time>
      </trkpt>
      <trkpt lat="43.59466" lon="6.25555">
        <ele>434.2</ele>
        <time>2016-09-04T11:43:36Z</time>
      </trkpt>
      <trkpt lat="43.59459" lon="6.25563">
        <ele>432.8</ele>
        <time>2016-09-04T11:44:17Z</time>
      </trkpt>
      <trkpt lat="43.59466" lon="6.25571">
        <ele>434</ele>
        <time>2016-09-04T11:44:48Z</time>
      </trkpt>
      <trkpt lat="43.59457" lon="6.2557">
        <ele>434.1</ele>
        <time>2016-09-04T11:45:47Z</time>
      </trkpt>
      <trkpt lat="43.5945" lon="6.2558">
        <ele>434.4</ele>
        <time>2016-09-04T11:45:59Z</time>
      </trkpt>
      <trkpt lat="43.59444" lon="6.25591">
        <ele>434.8</ele>
        <time>2016-09-04T11:46:09Z</time>
      </trkpt>
      <trkpt lat="43.59437" lon="6.25599">
        <ele>435.2</ele>
        <time>2016-09-04T11:46:19Z</time>
      </trkpt>
      <trkpt lat="43.59434" lon="6.25612">
        <ele>435.9</ele>
        <time>2016-09-04T11:46:28Z</time>
      </trkpt>
      <trkpt lat="43.59429" lon="6.25624">
        <ele>436.8</ele>
        <time>2016-09-04T11:46:39Z</time>
      </trkpt>
      <trkpt lat="43.59422" lon="6.25632">
        <ele>437.9</ele>
        <time>2016-09-04T11:46:50Z</time>
      </trkpt>
      <trkpt lat="43.59414" lon="6.25639">
        <ele>438.6</ele>
        <time>2016-09-04T11:47:00Z</time>
      </trkpt>
      <trkpt lat="43.5941" lon="6.25651">
        <ele>439.1</ele>
        <time>2016-09-04T11:47:10Z</time>
      </trkpt>
      <trkpt lat="43.59404" lon="6.2566">
        <ele>439.5</ele>
        <time>2016-09-04T11:47:20Z</time>
      </trkpt>
      <trkpt lat="43.59397" lon="6.25668">
        <ele>440.4</ele>
        <time>2016-09-04T11:47:32Z</time>
      </trkpt>
      <trkpt lat="43.59404" lon="6.25676">
        <ele>441.9</ele>
        <time>2016-09-04T11:49:47Z</time>
      </trkpt>
      <trkpt lat="43.59395" lon="6.25675">
        <ele>441.3</ele>
        <time>2016-09-04T11:51:41Z</time>
      </trkpt>
      <trkpt lat="43.59388" lon="6.25683">
        <ele>441.4</ele>
        <time>2016-09-04T11:52:07Z</time>
      </trkpt>
      <trkpt lat="43.59379" lon="6.25683">
        <ele>441.4</ele>
        <time>2016-09-04T11:52:23Z</time>
      </trkpt>
      <trkpt lat="43.59369" lon="6.25688">
        <ele>441.5</ele>
        <time>2016-09-04T11:52:33Z</time>
      </trkpt>
      <trkpt lat="43.59361" lon="6.25694">
        <ele>441.6</ele>
        <time>2016-09-04T11:52:42Z</time>
      </trkpt>
      <trkpt lat="43.59353" lon="6.257">
        <ele>441.8</ele>
        <time>2016-09-04T11:52:51Z</time>
      </trkpt>
      <trkpt lat="43.59346" lon="6.25708">
        <ele>442</ele>
        <time>2016-09-04T11:53:02Z</time>
      </trkpt>
      <trkpt lat="43.59337" lon="6.25713">
        <ele>442.3</ele>
        <time>2016-09-04T11:53:10Z</time>
      </trkpt>
      <trkpt lat="43.59329" lon="6.25721">
        <ele>442.6</ele>
        <time>2016-09-04T11:53:19Z</time>
      </trkpt>
      <trkpt lat="43.59322" lon="6.25729">
        <ele>442.8</ele>
        <time>2016-09-04T11:53:27Z</time>
      </trkpt>
      <trkpt lat="43.59316" lon="6.25738">
        <ele>442.9</ele>
        <time>2016-09-04T11:53:35Z</time>
      </trkpt>
      <trkpt lat="43.59308" lon="6.25745">
        <ele>442.8</ele>
        <time>2016-09-04T11:53:45Z</time>
      </trkpt>
      <trkpt lat="43.593" lon="6.25752">
        <ele>442.7</ele>
        <time>2016-09-04T11:53:53Z</time>
      </trkpt>
      <trkpt lat="43.59291" lon="6.25756">
        <ele>442.6</ele>
        <time>2016-09-04T11:54:07Z</time>
      </trkpt>
      <trkpt lat="43.59283" lon="6.25763">
        <ele>442.6</ele>
        <time>2016-09-04T11:54:16Z</time>
      </trkpt>
      <trkpt lat="43.59276" lon="6.25771">
        <ele>443.5</ele>
        <time>2016-09-04T11:54:38Z</time>
      </trkpt>
      <trkpt lat="43.59272" lon="6.25783">
        <ele>443.7</ele>
        <time>2016-09-04T11:54:48Z</time>
      </trkpt>
      <trkpt lat="43.59266" lon="6.25793">
        <ele>444.1</ele>
        <time>2016-09-04T11:54:58Z</time>
      </trkpt>
      <trkpt lat="43.59258" lon="6.25801">
        <ele>445</ele>
        <time>2016-09-04T11:55:11Z</time>
      </trkpt>
      <trkpt lat="43.59251" lon="6.25809">
        <ele>445.9</ele>
        <time>2016-09-04T11:55:22Z</time>
      </trkpt>
      <trkpt lat="43.59244" lon="6.25818">
        <ele>446.8</ele>
        <time>2016-09-04T11:55:32Z</time>
      </trkpt>
      <trkpt lat="43.59238" lon="6.25828">
        <ele>447.9</ele>
        <time>2016-09-04T11:55:42Z</time>
      </trkpt>
      <trkpt lat="43.5923" lon="6.25837">
        <ele>448.5</ele>
        <time>2016-09-04T11:55:50Z</time>
      </trkpt>
      <trkpt lat="43.59223" lon="6.25845">
        <ele>448.9</ele>
        <time>2016-09-04T11:56:00Z</time>
      </trkpt>
      <trkpt lat="43.59217" lon="6.25856">
        <ele>449.2</ele>
        <time>2016-09-04T11:56:10Z</time>
      </trkpt>
      <trkpt lat="43.59211" lon="6.25865">
        <ele>449.2</ele>
        <time>2016-09-04T11:56:18Z</time>
      </trkpt>
      <trkpt lat="43.59204" lon="6.25875">
        <ele>449.1</ele>
        <time>2016-09-04T11:56:27Z</time>
      </trkpt>
      <trkpt lat="43.59197" lon="6.25883">
        <ele>449</ele>
        <time>2016-09-04T11:56:37Z</time>
      </trkpt>
      <trkpt lat="43.59192" lon="6.25894">
        <ele>449</ele>
        <time>2016-09-04T11:56:45Z</time>
      </trkpt>
      <trkpt lat="43.59187" lon="6.25906">
        <ele>449</ele>
        <time>2016-09-04T11:56:53Z</time>
      </trkpt>
      <trkpt lat="43.5918" lon="6.25914">
        <ele>449.2</ele>
        <time>2016-09-04T11:57:01Z</time>
      </trkpt>
      <trkpt lat="43.59172" lon="6.25921">
        <ele>449.5</ele>
        <time>2016-09-04T11:57:11Z</time>
      </trkpt>
      <trkpt lat="43.59164" lon="6.25929">
        <ele>449.5</ele>
        <time>2016-09-04T11:57:20Z</time>
      </trkpt>
      <trkpt lat="43.59157" lon="6.25939">
        <ele>449.7</ele>
        <time>2016-09-04T11:57:29Z</time>
      </trkpt>
      <trkpt lat="43.59152" lon="6.2595">
        <ele>449.8</ele>
        <time>2016-09-04T11:57:37Z</time>
      </trkpt>
      <trkpt lat="43.59145" lon="6.2596">
        <ele>449.8</ele>
        <time>2016-09-04T11:57:46Z</time>
      </trkpt>
      <trkpt lat="43.59137" lon="6.25967">
        <ele>449.8</ele>
        <time>2016-09-04T11:57:55Z</time>
      </trkpt>
      <trkpt lat="43.5913" lon="6.25975">
        <ele>449.8</ele>
        <time>2016-09-04T11:58:03Z</time>
      </trkpt>
      <trkpt lat="43.59123" lon="6.25984">
        <ele>449.8</ele>
        <time>2016-09-04T11:58:13Z</time>
      </trkpt>
      <trkpt lat="43.59117" lon="6.25994">
        <ele>450.1</ele>
        <time>2016-09-04T11:58:22Z</time>
      </trkpt>
      <trkpt lat="43.59109" lon="6.26002">
        <ele>450.5</ele>
        <time>2016-09-04T11:58:31Z</time>
      </trkpt>
      <trkpt lat="43.59101" lon="6.26007">
        <ele>451</ele>
        <time>2016-09-04T11:58:41Z</time>
      </trkpt>
      <trkpt lat="43.59093" lon="6.26014">
        <ele>451.6</ele>
        <time>2016-09-04T11:58:50Z</time>
      </trkpt>
      <trkpt lat="43.59087" lon="6.26025">
        <ele>452.6</ele>
        <time>2016-09-04T11:59:00Z</time>
      </trkpt>
      <trkpt lat="43.5908" lon="6.26033">
        <ele>453.5</ele>
        <time>2016-09-04T11:59:10Z</time>
      </trkpt>
      <trkpt lat="43.59073" lon="6.26041">
        <ele>454.4</ele>
        <time>2016-09-04T11:59:20Z</time>
      </trkpt>
      <trkpt lat="43.59064" lon="6.26047">
        <ele>455.5</ele>
        <time>2016-09-04T11:59:30Z</time>
      </trkpt>
      <trkpt lat="43.59057" lon="6.26055">
        <ele>456.8</ele>
        <time>2016-09-04T11:59:40Z</time>
      </trkpt>
      <trkpt lat="43.59052" lon="6.26066">
        <ele>457.6</ele>
        <time>2016-09-04T11:59:49Z</time>
      </trkpt>
      <trkpt lat="43.59046" lon="6.26076">
        <ele>458.1</ele>
        <time>2016-09-04T11:59:59Z</time>
      </trkpt>
      <trkpt lat="43.59039" lon="6.26086">
        <ele>458.4</ele>
        <time>2016-09-04T12:00:07Z</time>
      </trkpt>
      <trkpt lat="43.59035" lon="6.26098">
        <ele>458.5</ele>
        <time>2016-09-04T12:00:15Z</time>
      </trkpt>
      <trkpt lat="43.5903" lon="6.2611">
        <ele>458.6</ele>
        <time>2016-09-04T12:00:24Z</time>
      </trkpt>
      <trkpt lat="43.59024" lon="6.2612">
        <ele>458.6</ele>
        <time>2016-09-04T12:00:33Z</time>
      </trkpt>
      <trkpt lat="43.59015" lon="6.26126">
        <ele>458.5</ele>
        <time>2016-09-04T12:00:43Z</time>
      </trkpt>
      <trkpt lat="43.59006" lon="6.2613">
        <ele>458.8</ele>
        <time>2016-09-04T12:04:06Z</time>
      </trkpt>
      <trkpt lat="43.58997" lon="6.26127">
        <ele>458.8</ele>
        <time>2016-09-04T12:04:17Z</time>
      </trkpt>
      <trkpt lat="43.58988" lon="6.2612">
        <ele>459</ele>
        <time>2016-09-04T12:04:26Z</time>
      </trkpt>
      <trkpt lat="43.5898" lon="6.26113">
        <ele>459.2</ele>
        <time>2016-09-04T12:04:35Z</time>
      </trkpt>
      <trkpt lat="43.58972" lon="6.26105">
        <ele>459.3</ele>
        <time>2016-09-04T12:04:44Z</time>
      </trkpt>
      <trkpt lat="43.58965" lon="6.26096">
        <ele>459.5</ele>
        <time>2016-09-04T12:04:52Z</time>
      </trkpt>
      <trkpt lat="43.58959" lon="6.26086">
        <ele>460</ele>
        <time>2016-09-04T12:05:01Z</time>
      </trkpt>
      <trkpt lat="43.58959" lon="6.26073">
        <ele>460</ele>
        <time>2016-09-04T12:05:10Z</time>
      </trkpt>
      <trkpt lat="43.58955" lon="6.2606">
        <ele>459.5</ele>
        <time>2016-09-04T12:05:19Z</time>
      </trkpt>
      <trkpt lat="43.58952" lon="6.26048">
        <ele>459.1</ele>
        <time>2016-09-04T12:05:27Z</time>
      </trkpt>
      <trkpt lat="43.58945" lon="6.2604">
        <ele>458.5</ele>
        <time>2016-09-04T12:05:36Z</time>
      </trkpt>
      <trkpt lat="43.58937" lon="6.26033">
        <ele>458.1</ele>
        <time>2016-09-04T12:05:41Z</time>
      </trkpt>
      <trkpt lat="43.5893" lon="6.26025">
        <ele>457.4</ele>
        <time>2016-09-04T12:05:49Z</time>
      </trkpt>
      <trkpt lat="43.58921" lon="6.26017">
        <ele>457.1</ele>
        <time>2016-09-04T12:05:55Z</time>
      </trkpt>
      <trkpt lat="43.58913" lon="6.26012">
        <ele>456.5</ele>
        <time>2016-09-04T12:06:03Z</time>
      </trkpt>
      <trkpt lat="43.58902" lon="6.26007">
        <ele>456</ele>
        <time>2016-09-04T12:06:11Z</time>
      </trkpt>
      <trkpt lat="43.58892" lon="6.26005">
        <ele>455.4</ele>
        <time>2016-09-04T12:06:19Z</time>
      </trkpt>
      <trkpt lat="43.58884" lon="6.25998">
        <ele>454.5</ele>
        <time>2016-09-04T12:06:34Z</time>
      </trkpt>
      <trkpt lat="43.5888" lon="6.25987">
        <ele>454.1</ele>
        <time>2016-09-04T12:06:42Z</time>
      </trkpt>
      <trkpt lat="43.58871" lon="6.25979">
        <ele>453.3</ele>
        <time>2016-09-04T12:06:51Z</time>
      </trkpt>
      <trkpt lat="43.5886" lon="6.25978">
        <ele>452.5</ele>
        <time>2016-09-04T12:06:59Z</time>
      </trkpt>
      <trkpt lat="43.5885" lon="6.2598">
        <ele>452.2</ele>
        <time>2016-09-04T12:07:06Z</time>
      </trkpt>
      <trkpt lat="43.5884" lon="6.2598">
        <ele>452</ele>
        <time>2016-09-04T12:07:14Z</time>
      </trkpt>
      <trkpt lat="43.5883" lon="6.25975">
        <ele>451.4</ele>
        <time>2016-09-04T12:07:23Z</time>
      </trkpt>
      <trkpt lat="43.58822" lon="6.25969">
        <ele>451.1</ele>
        <time>2016-09-04T12:07:33Z</time>
      </trkpt>
      <trkpt lat="43.58813" lon="6.25965">
        <ele>450.5</ele>
        <time>2016-09-04T12:07:42Z</time>
      </trkpt>
      <trkpt lat="43.58805" lon="6.25972">
        <ele>449.5</ele>
        <time>2016-09-04T12:08:21Z</time>
      </trkpt>
      <trkpt lat="43.58796" lon="6.25974">
        <ele>449.3</ele>
        <time>2016-09-04T12:08:38Z</time>
      </trkpt>
      <trkpt lat="43.58787" lon="6.25968">
        <ele>449.1</ele>
        <time>2016-09-04T12:08:49Z</time>
      </trkpt>
      <trkpt lat="43.5878" lon="6.25958">
        <ele>448.7</ele>
        <time>2016-09-04T12:08:58Z</time>
      </trkpt>
      <trkpt lat="43.58773" lon="6.25951">
        <ele>448.6</ele>
        <time>2016-09-04T12:09:05Z</time>
      </trkpt>
      <trkpt lat="43.58766" lon="6.25943">
        <ele>448.7</ele>
        <time>2016-09-04T12:09:16Z</time>
      </trkpt>
      <trkpt lat="43.58757" lon="6.25939">
        <ele>448.9</ele>
        <time>2016-09-04T12:09:25Z</time>
      </trkpt>
      <trkpt lat="43.58751" lon="6.25928">
        <ele>449.1</ele>
        <time>2016-09-04T12:09:36Z</time>
      </trkpt>
      <trkpt lat="43.58747" lon="6.25916">
        <ele>449.6</ele>
        <time>2016-09-04T12:09:45Z</time>
      </trkpt>
      <trkpt lat="43.5874" lon="6.25906">
        <ele>450</ele>
        <time>2016-09-04T12:09:53Z</time>
      </trkpt>
      <trkpt lat="43.58732" lon="6.25902">
        <ele>450.2</ele>
        <time>2016-09-04T12:10:01Z</time>
      </trkpt>
      <trkpt lat="43.58722" lon="6.25899">
        <ele>450.3</ele>
        <time>2016-09-04T12:10:08Z</time>
      </trkpt>
      <trkpt lat="43.58712" lon="6.25894">
        <ele>450.4</ele>
        <time>2016-09-04T12:10:16Z</time>
      </trkpt>
      <trkpt lat="43.58705" lon="6.25885">
        <ele>450.5</ele>
        <time>2016-09-04T12:10:26Z</time>
      </trkpt>
      <trkpt lat="43.58708" lon="6.25871">
        <ele>450.3</ele>
        <time>2016-09-04T12:10:37Z</time>
      </trkpt>
      <trkpt lat="43.58708" lon="6.25857">
        <ele>449.7</ele>
        <time>2016-09-04T12:10:47Z</time>
      </trkpt>
      <trkpt lat="43.58703" lon="6.25846">
        <ele>449.1</ele>
        <time>2016-09-04T12:10:55Z</time>
      </trkpt>
      <trkpt lat="43.58695" lon="6.25839">
        <ele>448.6</ele>
        <time>2016-09-04T12:11:03Z</time>
      </trkpt>
      <trkpt lat="43.58693" lon="6.25825">
        <ele>448.4</ele>
        <time>2016-09-04T12:11:15Z</time>
      </trkpt>
      <trkpt lat="43.5869" lon="6.25812">
        <ele>448.3</ele>
        <time>2016-09-04T12:11:23Z</time>
      </trkpt>
      <trkpt lat="43.58689" lon="6.25799">
        <ele>448.2</ele>
        <time>2016-09-04T12:11:32Z</time>
      </trkpt>
      <trkpt lat="43.58686" lon="6.25786">
        <ele>448.1</ele>
        <time>2016-09-04T12:11:40Z</time>
      </trkpt>
      <trkpt lat="43.58679" lon="6.25778">
        <ele>448.1</ele>
        <time>2016-09-04T12:11:47Z</time>
      </trkpt>
      <trkpt lat="43.58673" lon="6.25768">
        <ele>448.1</ele>
        <time>2016-09-04T12:11:55Z</time>
      </trkpt>
      <trkpt lat="43.58668" lon="6.25757">
        <ele>448.2</ele>
        <time>2016-09-04T12:12:02Z</time>
      </trkpt>
      <trkpt lat="43.58661" lon="6.25748">
        <ele>448.3</ele>
        <time>2016-09-04T12:12:11Z</time>
      </trkpt>
      <trkpt lat="43.58653" lon="6.25741">
        <ele>448.7</ele>
        <time>2016-09-04T12:12:18Z</time>
      </trkpt>
      <trkpt lat="43.58644" lon="6.25734">
        <ele>449</ele>
        <time>2016-09-04T12:12:25Z</time>
      </trkpt>
      <trkpt lat="43.58635" lon="6.25728">
        <ele>449.2</ele>
        <time>2016-09-04T12:12:32Z</time>
      </trkpt>
      <trkpt lat="43.58628" lon="6.2572">
        <ele>449.2</ele>
        <time>2016-09-04T12:12:41Z</time>
      </trkpt>
      <trkpt lat="43.58624" lon="6.25708">
        <ele>449.1</ele>
        <time>2016-09-04T12:12:51Z</time>
      </trkpt>
      <trkpt lat="43.58618" lon="6.25698">
        <ele>449.1</ele>
        <time>2016-09-04T12:12:58Z</time>
      </trkpt>
      <trkpt lat="43.58614" lon="6.25687">
        <ele>448.9</ele>
        <time>2016-09-04T12:13:06Z</time>
      </trkpt>
      <trkpt lat="43.58608" lon="6.25675">
        <ele>448.7</ele>
        <time>2016-09-04T12:13:15Z</time>
      </trkpt>
      <trkpt lat="43.5861" lon="6.25663">
        <ele>448.6</ele>
        <time>2016-09-04T12:13:25Z</time>
      </trkpt>
      <trkpt lat="43.58612" lon="6.2565">
        <ele>448.5</ele>
        <time>2016-09-04T12:13:33Z</time>
      </trkpt>
      <trkpt lat="43.58616" lon="6.25639">
        <ele>448.4</ele>
        <time>2016-09-04T12:13:41Z</time>
      </trkpt>
      <trkpt lat="43.5862" lon="6.25626">
        <ele>448</ele>
        <time>2016-09-04T12:13:50Z</time>
      </trkpt>
      <trkpt lat="43.58621" lon="6.25613">
        <ele>447.4</ele>
        <time>2016-09-04T12:13:59Z</time>
      </trkpt>
      <trkpt lat="43.58622" lon="6.256">
        <ele>446.8</ele>
        <time>2016-09-04T12:14:19Z</time>
      </trkpt>
      <trkpt lat="43.58629" lon="6.25591">
        <ele>446.8</ele>
        <time>2016-09-04T12:14:28Z</time>
      </trkpt>
      <trkpt lat="43.58634" lon="6.2558">
        <ele>446.7</ele>
        <time>2016-09-04T12:14:37Z</time>
      </trkpt>
      <trkpt lat="43.58634" lon="6.25566">
        <ele>446.6</ele>
        <time>2016-09-04T12:14:45Z</time>
      </trkpt>
      <trkpt lat="43.58631" lon="6.25554">
        <ele>446.7</ele>
        <time>2016-09-04T12:14:53Z</time>
      </trkpt>
      <trkpt lat="43.58631" lon="6.2554">
        <ele>446.9</ele>
        <time>2016-09-04T12:15:03Z</time>
      </trkpt>
      <trkpt lat="43.58635" lon="6.25528">
        <ele>447</ele>
        <time>2016-09-04T12:15:13Z</time>
      </trkpt>
      <trkpt lat="43.58632" lon="6.25514">
        <ele>447.5</ele>
        <time>2016-09-04T12:15:20Z</time>
      </trkpt>
      <trkpt lat="43.58632" lon="6.25502">
        <ele>447.9</ele>
        <time>2016-09-04T12:15:28Z</time>
      </trkpt>
      <trkpt lat="43.58629" lon="6.2549">
        <ele>448.1</ele>
        <time>2016-09-04T12:15:36Z</time>
      </trkpt>
      <trkpt lat="43.58623" lon="6.25479">
        <ele>448.2</ele>
        <time>2016-09-04T12:15:44Z</time>
      </trkpt>
      <trkpt lat="43.58619" lon="6.25467">
        <ele>448.5</ele>
        <time>2016-09-04T12:15:53Z</time>
      </trkpt>
      <trkpt lat="43.58615" lon="6.25455">
        <ele>448.7</ele>
        <time>2016-09-04T12:16:03Z</time>
      </trkpt>
      <trkpt lat="43.58612" lon="6.25442">
        <ele>448.7</ele>
        <time>2016-09-04T12:16:12Z</time>
      </trkpt>
      <trkpt lat="43.58613" lon="6.2543">
        <ele>448.8</ele>
        <time>2016-09-04T12:16:20Z</time>
      </trkpt>
      <trkpt lat="43.58617" lon="6.25419">
        <ele>448.8</ele>
        <time>2016-09-04T12:16:26Z</time>
      </trkpt>
      <trkpt lat="43.58623" lon="6.25409">
        <ele>448.8</ele>
        <time>2016-09-04T12:16:33Z</time>
      </trkpt>
      <trkpt lat="43.58625" lon="6.25396">
        <ele>448.8</ele>
        <time>2016-09-04T12:16:42Z</time>
      </trkpt>
      <trkpt lat="43.5862" lon="6.25385">
        <ele>448.3</ele>
        <time>2016-09-04T12:16:51Z</time>
      </trkpt>
      <trkpt lat="43.58612" lon="6.25375">
        <ele>447.8</ele>
        <time>2016-09-04T12:16:58Z</time>
      </trkpt>
      <trkpt lat="43.58605" lon="6.25365">
        <ele>447.3</ele>
        <time>2016-09-04T12:17:06Z</time>
      </trkpt>
      <trkpt lat="43.586" lon="6.25355">
        <ele>446.7</ele>
        <time>2016-09-04T12:17:15Z</time>
      </trkpt>
      <trkpt lat="43.58595" lon="6.25344">
        <ele>446.2</ele>
        <time>2016-09-04T12:17:22Z</time>
      </trkpt>
      <trkpt lat="43.58588" lon="6.25335">
        <ele>445.9</ele>
        <time>2016-09-04T12:17:29Z</time>
      </trkpt>
      <trkpt lat="43.5858" lon="6.2533">
        <ele>445.5</ele>
        <time>2016-09-04T12:17:36Z</time>
      </trkpt>
      <trkpt lat="43.58571" lon="6.25326">
        <ele>445.2</ele>
        <time>2016-09-04T12:17:42Z</time>
      </trkpt>
      <trkpt lat="43.58562" lon="6.25324">
        <ele>445</ele>
        <time>2016-09-04T12:17:50Z</time>
      </trkpt>
      <trkpt lat="43.58552" lon="6.25323">
        <ele>444.8</ele>
        <time>2016-09-04T12:17:59Z</time>
      </trkpt>
      <trkpt lat="43.58543" lon="6.25317">
        <ele>444.3</ele>
        <time>2016-09-04T12:18:09Z</time>
      </trkpt>
      <trkpt lat="43.58535" lon="6.25311">
        <ele>443.8</ele>
        <time>2016-09-04T12:18:29Z</time>
      </trkpt>
      <trkpt lat="43.58538" lon="6.25293">
        <ele>444.7</ele>
        <time>2016-09-04T12:27:11Z</time>
      </trkpt>
      <trkpt lat="43.58538" lon="6.25279">
        <ele>445</ele>
        <time>2016-09-04T12:27:19Z</time>
      </trkpt>
      <trkpt lat="43.58539" lon="6.25266">
        <ele>445.9</ele>
        <time>2016-09-04T12:27:30Z</time>
      </trkpt>
      <trkpt lat="43.58538" lon="6.25253">
        <ele>446.6</ele>
        <time>2016-09-04T12:27:39Z</time>
      </trkpt>
      <trkpt lat="43.58535" lon="6.2524">
        <ele>447.1</ele>
        <time>2016-09-04T12:27:47Z</time>
      </trkpt>
      <trkpt lat="43.58532" lon="6.25228">
        <ele>447.7</ele>
        <time>2016-09-04T12:27:54Z</time>
      </trkpt>
      <trkpt lat="43.5853" lon="6.25215">
        <ele>448.1</ele>
        <time>2016-09-04T12:28:02Z</time>
      </trkpt>
      <trkpt lat="43.58528" lon="6.25203">
        <ele>448.6</ele>
        <time>2016-09-04T12:28:10Z</time>
      </trkpt>
      <trkpt lat="43.58525" lon="6.2519">
        <ele>449.2</ele>
        <time>2016-09-04T12:28:18Z</time>
      </trkpt>
      <trkpt lat="43.58521" lon="6.25178">
        <ele>449.5</ele>
        <time>2016-09-04T12:28:27Z</time>
      </trkpt>
      <trkpt lat="43.58517" lon="6.25166">
        <ele>450</ele>
        <time>2016-09-04T12:28:39Z</time>
      </trkpt>
      <trkpt lat="43.58514" lon="6.25154">
        <ele>450.3</ele>
        <time>2016-09-04T12:28:46Z</time>
      </trkpt>
      <trkpt lat="43.5851" lon="6.25142">
        <ele>451.1</ele>
        <time>2016-09-04T12:28:56Z</time>
      </trkpt>
      <trkpt lat="43.58506" lon="6.2513">
        <ele>451.6</ele>
        <time>2016-09-04T12:29:05Z</time>
      </trkpt>
      <trkpt lat="43.58502" lon="6.25118">
        <ele>451.9</ele>
        <time>2016-09-04T12:29:14Z</time>
      </trkpt>
      <trkpt lat="43.58494" lon="6.25108">
        <ele>451.9</ele>
        <time>2016-09-04T12:29:22Z</time>
      </trkpt>
      <trkpt lat="43.58486" lon="6.25102">
        <ele>452.1</ele>
        <time>2016-09-04T12:29:29Z</time>
      </trkpt>
      <trkpt lat="43.58477" lon="6.25098">
        <ele>452</ele>
        <time>2016-09-04T12:29:38Z</time>
      </trkpt>
      <trkpt lat="43.58467" lon="6.25093">
        <ele>451.9</ele>
        <time>2016-09-04T12:29:48Z</time>
      </trkpt>
      <trkpt lat="43.58459" lon="6.25086">
        <ele>451.8</ele>
        <time>2016-09-04T12:29:55Z</time>
      </trkpt>
      <trkpt lat="43.5845" lon="6.2508">
        <ele>451.8</ele>
        <time>2016-09-04T12:30:02Z</time>
      </trkpt>
      <trkpt lat="43.58443" lon="6.2507">
        <ele>451.9</ele>
        <time>2016-09-04T12:30:12Z</time>
      </trkpt>
      <trkpt lat="43.58436" lon="6.25063">
        <ele>452.2</ele>
        <time>2016-09-04T12:30:22Z</time>
      </trkpt>
      <trkpt lat="43.58427" lon="6.25054">
        <ele>452.3</ele>
        <time>2016-09-04T12:30:30Z</time>
      </trkpt>
      <trkpt lat="43.58419" lon="6.25046">
        <ele>452.2</ele>
        <time>2016-09-04T12:30:38Z</time>
      </trkpt>
      <trkpt lat="43.5841" lon="6.25042">
        <ele>452.1</ele>
        <time>2016-09-04T12:30:45Z</time>
      </trkpt>
      <trkpt lat="43.584" lon="6.2504">
        <ele>452</ele>
        <time>2016-09-04T12:30:53Z</time>
      </trkpt>
      <trkpt lat="43.58392" lon="6.25031">
        <ele>452</ele>
        <time>2016-09-04T12:31:02Z</time>
      </trkpt>
      <trkpt lat="43.58384" lon="6.25025">
        <ele>451.9</ele>
        <time>2016-09-04T12:31:10Z</time>
      </trkpt>
      <trkpt lat="43.58376" lon="6.25016">
        <ele>451.7</ele>
        <time>2016-09-04T12:31:19Z</time>
      </trkpt>
      <trkpt lat="43.58371" lon="6.25005">
        <ele>451.8</ele>
        <time>2016-09-04T12:31:27Z</time>
      </trkpt>
      <trkpt lat="43.58365" lon="6.24994">
        <ele>451.8</ele>
        <time>2016-09-04T12:31:35Z</time>
      </trkpt>
      <trkpt lat="43.58359" lon="6.24983">
        <ele>451.8</ele>
        <time>2016-09-04T12:31:45Z</time>
      </trkpt>
      <trkpt lat="43.58357" lon="6.24971">
        <ele>451.9</ele>
        <time>2016-09-04T12:31:55Z</time>
      </trkpt>
      <trkpt lat="43.58357" lon="6.24957">
        <ele>452.1</ele>
        <time>2016-09-04T12:32:04Z</time>
      </trkpt>
      <trkpt lat="43.58355" lon="6.24944">
        <ele>452.2</ele>
        <time>2016-09-04T12:32:12Z</time>
      </trkpt>
      <trkpt lat="43.58354" lon="6.24931">
        <ele>452.3</ele>
        <time>2016-09-04T12:32:20Z</time>
      </trkpt>
      <trkpt lat="43.58353" lon="6.24918">
        <ele>452.3</ele>
        <time>2016-09-04T12:32:28Z</time>
      </trkpt>
      <trkpt lat="43.58353" lon="6.24905">
        <ele>452.6</ele>
        <time>2016-09-04T12:32:36Z</time>
      </trkpt>
      <trkpt lat="43.58352" lon="6.24892">
        <ele>452.8</ele>
        <time>2016-09-04T12:32:45Z</time>
      </trkpt>
      <trkpt lat="43.58355" lon="6.24879">
        <ele>453.1</ele>
        <time>2016-09-04T12:32:57Z</time>
      </trkpt>
      <trkpt lat="43.5836" lon="6.24869">
        <ele>453.5</ele>
        <time>2016-09-04T12:33:07Z</time>
      </trkpt>
      <trkpt lat="43.58362" lon="6.24856">
        <ele>453.8</ele>
        <time>2016-09-04T12:33:13Z</time>
      </trkpt>
      <trkpt lat="43.58363" lon="6.24844">
        <ele>454.2</ele>
        <time>2016-09-04T12:33:21Z</time>
      </trkpt>
      <trkpt lat="43.58367" lon="6.2483">
        <ele>454.4</ele>
        <time>2016-09-04T12:33:31Z</time>
      </trkpt>
      <trkpt lat="43.58375" lon="6.24823">
        <ele>454.8</ele>
        <time>2016-09-04T12:33:38Z</time>
      </trkpt>
      <trkpt lat="43.58381" lon="6.24812">
        <ele>455.3</ele>
        <time>2016-09-04T12:33:49Z</time>
      </trkpt>
      <trkpt lat="43.58386" lon="6.24801">
        <ele>455.6</ele>
        <time>2016-09-04T12:33:58Z</time>
      </trkpt>
      <trkpt lat="43.5839" lon="6.24789">
        <ele>455.9</ele>
        <time>2016-09-04T12:34:06Z</time>
      </trkpt>
      <trkpt lat="43.58393" lon="6.24777">
        <ele>456</ele>
        <time>2016-09-04T12:34:12Z</time>
      </trkpt>
      <trkpt lat="43.58396" lon="6.24765">
        <ele>456</ele>
        <time>2016-09-04T12:34:19Z</time>
      </trkpt>
      <trkpt lat="43.58399" lon="6.24752">
        <ele>456.1</ele>
        <time>2016-09-04T12:34:26Z</time>
      </trkpt>
      <trkpt lat="43.58403" lon="6.2474">
        <ele>456.1</ele>
        <time>2016-09-04T12:34:33Z</time>
      </trkpt>
      <trkpt lat="43.58404" lon="6.24726">
        <ele>456.1</ele>
        <time>2016-09-04T12:34:42Z</time>
      </trkpt>
      <trkpt lat="43.58404" lon="6.24713">
        <ele>456.1</ele>
        <time>2016-09-04T12:34:50Z</time>
      </trkpt>
      <trkpt lat="43.58397" lon="6.24704">
        <ele>456.6</ele>
        <time>2016-09-04T12:35:50Z</time>
      </trkpt>
      <trkpt lat="43.58388" lon="6.247">
        <ele>456.3</ele>
        <time>2016-09-04T12:36:14Z</time>
      </trkpt>
      <trkpt lat="43.58383" lon="6.2469">
        <ele>456.1</ele>
        <time>2016-09-04T12:36:25Z</time>
      </trkpt>
      <trkpt lat="43.58379" lon="6.24678">
        <ele>456</ele>
        <time>2016-09-04T12:36:38Z</time>
      </trkpt>
      <trkpt lat="43.58372" lon="6.24668">
        <ele>456</ele>
        <time>2016-09-04T12:36:47Z</time>
      </trkpt>
      <trkpt lat="43.58366" lon="6.24657">
        <ele>456</ele>
        <time>2016-09-04T12:36:55Z</time>
      </trkpt>
      <trkpt lat="43.58358" lon="6.24651">
        <ele>455.7</ele>
        <time>2016-09-04T12:37:03Z</time>
      </trkpt>
      <trkpt lat="43.58349" lon="6.24649">
        <ele>455.2</ele>
        <time>2016-09-04T12:37:11Z</time>
      </trkpt>
      <trkpt lat="43.58338" lon="6.24649">
        <ele>454.7</ele>
        <time>2016-09-04T12:37:20Z</time>
      </trkpt>
      <trkpt lat="43.58329" lon="6.2465">
        <ele>454</ele>
        <time>2016-09-04T12:37:29Z</time>
      </trkpt>
      <trkpt lat="43.5832" lon="6.24653">
        <ele>453.2</ele>
        <time>2016-09-04T12:37:38Z</time>
      </trkpt>
      <trkpt lat="43.58311" lon="6.24655">
        <ele>452.9</ele>
        <time>2016-09-04T12:37:43Z</time>
      </trkpt>
      <trkpt lat="43.58301" lon="6.24655">
        <ele>452.5</ele>
        <time>2016-09-04T12:37:51Z</time>
      </trkpt>
      <trkpt lat="43.58292" lon="6.24654">
        <ele>451.9</ele>
        <time>2016-09-04T12:37:58Z</time>
      </trkpt>
      <trkpt lat="43.58282" lon="6.24652">
        <ele>451</ele>
        <time>2016-09-04T12:38:06Z</time>
      </trkpt>
      <trkpt lat="43.58273" lon="6.24658">
        <ele>450.2</ele>
        <time>2016-09-04T12:38:15Z</time>
      </trkpt>
      <trkpt lat="43.58264" lon="6.24661">
        <ele>449.7</ele>
        <time>2016-09-04T12:38:24Z</time>
      </trkpt>
      <trkpt lat="43.58254" lon="6.24661">
        <ele>449.3</ele>
        <time>2016-09-04T12:38:33Z</time>
      </trkpt>
      <trkpt lat="43.58245" lon="6.2466">
        <ele>449.1</ele>
        <time>2016-09-04T12:38:39Z</time>
      </trkpt>
      <trkpt lat="43.58235" lon="6.24656">
        <ele>449</ele>
        <time>2016-09-04T12:38:46Z</time>
      </trkpt>
      <trkpt lat="43.58225" lon="6.24655">
        <ele>448.7</ele>
        <time>2016-09-04T12:38:54Z</time>
      </trkpt>
      <trkpt lat="43.58215" lon="6.24658">
        <ele>448.5</ele>
        <time>2016-09-04T12:39:02Z</time>
      </trkpt>
      <trkpt lat="43.58206" lon="6.24659">
        <ele>448.2</ele>
        <time>2016-09-04T12:39:11Z</time>
      </trkpt>
      <trkpt lat="43.58196" lon="6.24663">
        <ele>447.6</ele>
        <time>2016-09-04T12:39:21Z</time>
      </trkpt>
      <trkpt lat="43.58187" lon="6.24665">
        <ele>447.2</ele>
        <time>2016-09-04T12:39:30Z</time>
      </trkpt>
      <trkpt lat="43.5818" lon="6.24673">
        <ele>446.1</ele>
        <time>2016-09-04T12:39:42Z</time>
      </trkpt>
      <trkpt lat="43.5817" lon="6.24675">
        <ele>444.4</ele>
        <time>2016-09-04T12:39:55Z</time>
      </trkpt>
      <trkpt lat="43.58161" lon="6.24681">
        <ele>441.8</ele>
        <time>2016-09-04T12:40:11Z</time>
      </trkpt>
      <trkpt lat="43.58154" lon="6.24689">
        <ele>439.4</ele>
        <time>2016-09-04T12:40:22Z</time>
      </trkpt>
      <trkpt lat="43.58148" lon="6.247">
        <ele>437.6</ele>
        <time>2016-09-04T12:40:31Z</time>
      </trkpt>
      <trkpt lat="43.58143" lon="6.24711">
        <ele>435.7</ele>
        <time>2016-09-04T12:40:40Z</time>
      </trkpt>
      <trkpt lat="43.58137" lon="6.24722">
        <ele>433</ele>
        <time>2016-09-04T12:40:53Z</time>
      </trkpt>
      <trkpt lat="43.58131" lon="6.24731">
        <ele>430.4</ele>
        <time>2016-09-04T12:41:06Z</time>
      </trkpt>
      <trkpt lat="43.58122" lon="6.24738">
        <ele>428.8</ele>
        <time>2016-09-04T12:41:15Z</time>
      </trkpt>
      <trkpt lat="43.58112" lon="6.24741">
        <ele>426.4</ele>
        <time>2016-09-04T12:41:29Z</time>
      </trkpt>
      <trkpt lat="43.58104" lon="6.24746">
        <ele>424.4</ele>
        <time>2016-09-04T12:41:42Z</time>
      </trkpt>
      <trkpt lat="43.58094" lon="6.2475">
        <ele>423.1</ele>
        <time>2016-09-04T12:41:52Z</time>
      </trkpt>
      <trkpt lat="43.58084" lon="6.24752">
        <ele>422.2</ele>
        <time>2016-09-04T12:42:02Z</time>
      </trkpt>
      <trkpt lat="43.58075" lon="6.24752">
        <ele>421.4</ele>
        <time>2016-09-04T12:42:10Z</time>
      </trkpt>
      <trkpt lat="43.58068" lon="6.24744">
        <ele>419.8</ele>
        <time>2016-09-04T12:42:22Z</time>
      </trkpt>
      <trkpt lat="43.58059" lon="6.24741">
        <ele>418.6</ele>
        <time>2016-09-04T12:42:32Z</time>
      </trkpt>
      <trkpt lat="43.5805" lon="6.24734">
        <ele>416.7</ele>
        <time>2016-09-04T12:42:44Z</time>
      </trkpt>
      <trkpt lat="43.58041" lon="6.24731">
        <ele>414.9</ele>
        <time>2016-09-04T12:42:56Z</time>
      </trkpt>
      <trkpt lat="43.58034" lon="6.24722">
        <ele>413.6</ele>
        <time>2016-09-04T12:43:05Z</time>
      </trkpt>
      <trkpt lat="43.58026" lon="6.24715">
        <ele>411.5</ele>
        <time>2016-09-04T12:43:19Z</time>
      </trkpt>
      <trkpt lat="43.58019" lon="6.24707">
        <ele>408.3</ele>
        <time>2016-09-04T12:43:39Z</time>
      </trkpt>
      <trkpt lat="43.58012" lon="6.24698">
        <ele>405.8</ele>
        <time>2016-09-04T12:43:54Z</time>
      </trkpt>
      <trkpt lat="43.58003" lon="6.24692">
        <ele>404</ele>
        <time>2016-09-04T12:44:06Z</time>
      </trkpt>
      <trkpt lat="43.57998" lon="6.24703">
        <ele>401.9</ele>
        <time>2016-09-04T12:44:22Z</time>
      </trkpt>
      <trkpt lat="43.57998" lon="6.24716">
        <ele>400.6</ele>
        <time>2016-09-04T12:44:32Z</time>
      </trkpt>
      <trkpt lat="43.57995" lon="6.24728">
        <ele>399.4</ele>
        <time>2016-09-04T12:44:41Z</time>
      </trkpt>
      <trkpt lat="43.57988" lon="6.24738">
        <ele>397.4</ele>
        <time>2016-09-04T12:44:56Z</time>
      </trkpt>
      <trkpt lat="43.57984" lon="6.24749">
        <ele>395.1</ele>
        <time>2016-09-04T12:45:11Z</time>
      </trkpt>
      <trkpt lat="43.57975" lon="6.24746">
        <ele>391.3</ele>
        <time>2016-09-04T12:45:39Z</time>
      </trkpt>
      <trkpt lat="43.5797" lon="6.24736">
        <ele>389.5</ele>
        <time>2016-09-04T12:45:52Z</time>
      </trkpt>
      <trkpt lat="43.57964" lon="6.24726">
        <ele>388.3</ele>
        <time>2016-09-04T12:46:03Z</time>
      </trkpt>
      <trkpt lat="43.57955" lon="6.24719">
        <ele>386.2</ele>
        <time>2016-09-04T12:46:18Z</time>
      </trkpt>
      <trkpt lat="43.57948" lon="6.24709">
        <ele>384</ele>
        <time>2016-09-04T12:46:32Z</time>
      </trkpt>
      <trkpt lat="43.57942" lon="6.247">
        <ele>382.6</ele>
        <time>2016-09-04T12:46:45Z</time>
      </trkpt>
      <trkpt lat="43.57941" lon="6.24688">
        <ele>381.1</ele>
        <time>2016-09-04T12:46:59Z</time>
      </trkpt>
      <trkpt lat="43.5794" lon="6.24674">
        <ele>379.8</ele>
        <time>2016-09-04T12:47:10Z</time>
      </trkpt>
      <trkpt lat="43.57931" lon="6.24669">
        <ele>379</ele>
        <time>2016-09-04T12:47:19Z</time>
      </trkpt>
      <trkpt lat="43.57922" lon="6.24663">
        <ele>378.3</ele>
        <time>2016-09-04T12:47:27Z</time>
      </trkpt>
      <trkpt lat="43.57912" lon="6.24661">
        <ele>377.6</ele>
        <time>2016-09-04T12:47:36Z</time>
      </trkpt>
      <trkpt lat="43.57906" lon="6.24651">
        <ele>376.4</ele>
        <time>2016-09-04T12:47:47Z</time>
      </trkpt>
      <trkpt lat="43.57903" lon="6.24639">
        <ele>375.9</ele>
        <time>2016-09-04T12:47:56Z</time>
      </trkpt>
      <trkpt lat="43.57897" lon="6.24629">
        <ele>375.1</ele>
        <time>2016-09-04T12:48:07Z</time>
      </trkpt>
      <trkpt lat="43.57894" lon="6.24616">
        <ele>373.8</ele>
        <time>2016-09-04T12:48:19Z</time>
      </trkpt>
      <trkpt lat="43.5789" lon="6.24604">
        <ele>372.9</ele>
        <time>2016-09-04T12:48:30Z</time>
      </trkpt>
      <trkpt lat="43.57884" lon="6.24593">
        <ele>372.2</ele>
        <time>2016-09-04T12:48:39Z</time>
      </trkpt>
      <trkpt lat="43.57877" lon="6.24585">
        <ele>371.4</ele>
        <time>2016-09-04T12:48:48Z</time>
      </trkpt>
      <trkpt lat="43.57868" lon="6.24581">
        <ele>370</ele>
        <time>2016-09-04T12:48:57Z</time>
      </trkpt>
      <trkpt lat="43.5786" lon="6.24588">
        <ele>368.3</ele>
        <time>2016-09-04T12:49:10Z</time>
      </trkpt>
      <trkpt lat="43.57859" lon="6.24601">
        <ele>367.3</ele>
        <time>2016-09-04T12:49:21Z</time>
      </trkpt>
      <trkpt lat="43.57858" lon="6.24614">
        <ele>366.2</ele>
        <time>2016-09-04T12:49:30Z</time>
      </trkpt>
      <trkpt lat="43.57858" lon="6.24628">
        <ele>364.8</ele>
        <time>2016-09-04T12:49:43Z</time>
      </trkpt>
      <trkpt lat="43.57859" lon="6.24642">
        <ele>363.5</ele>
        <time>2016-09-04T12:49:54Z</time>
      </trkpt>
      <trkpt lat="43.57849" lon="6.24641">
        <ele>360.5</ele>
        <time>2016-09-04T12:50:25Z</time>
      </trkpt>
      <trkpt lat="43.57842" lon="6.24635">
        <ele>359.1</ele>
        <time>2016-09-04T12:50:36Z</time>
      </trkpt>
      <trkpt lat="43.57836" lon="6.24625">
        <ele>357.6</ele>
        <time>2016-09-04T12:50:47Z</time>
      </trkpt>
      <trkpt lat="43.57829" lon="6.24615">
        <ele>356.7</ele>
        <time>2016-09-04T12:50:57Z</time>
      </trkpt>
      <trkpt lat="43.57825" lon="6.24602">
        <ele>356.2</ele>
        <time>2016-09-04T12:51:07Z</time>
      </trkpt>
      <trkpt lat="43.57824" lon="6.24589">
        <ele>356</ele>
        <time>2016-09-04T12:51:16Z</time>
      </trkpt>
      <trkpt lat="43.57825" lon="6.24577">
        <ele>355.8</ele>
        <time>2016-09-04T12:51:26Z</time>
      </trkpt>
      <trkpt lat="43.57823" lon="6.24565">
        <ele>355.7</ele>
        <time>2016-09-04T12:51:34Z</time>
      </trkpt>
      <trkpt lat="43.57823" lon="6.24552">
        <ele>355.4</ele>
        <time>2016-09-04T12:51:42Z</time>
      </trkpt>
      <trkpt lat="43.57822" lon="6.24539">
        <ele>354.7</ele>
        <time>2016-09-04T12:51:52Z</time>
      </trkpt>
      <trkpt lat="43.57822" lon="6.24526">
        <ele>353.6</ele>
        <time>2016-09-04T12:52:03Z</time>
      </trkpt>
      <trkpt lat="43.57826" lon="6.24515">
        <ele>352.7</ele>
        <time>2016-09-04T12:52:12Z</time>
      </trkpt>
      <trkpt lat="43.57834" lon="6.24508">
        <ele>351.1</ele>
        <time>2016-09-04T12:52:25Z</time>
      </trkpt>
      <trkpt lat="43.57843" lon="6.24503">
        <ele>349.1</ele>
        <time>2016-09-04T12:52:39Z</time>
      </trkpt>
      <trkpt lat="43.57844" lon="6.2449">
        <ele>346.8</ele>
        <time>2016-09-04T12:52:55Z</time>
      </trkpt>
      <trkpt lat="43.57837" lon="6.24482">
        <ele>345.5</ele>
        <time>2016-09-04T12:53:06Z</time>
      </trkpt>
      <trkpt lat="43.57829" lon="6.24475">
        <ele>343.7</ele>
        <time>2016-09-04T12:53:18Z</time>
      </trkpt>
      <trkpt lat="43.57821" lon="6.24468">
        <ele>342.3</ele>
        <time>2016-09-04T12:53:29Z</time>
      </trkpt>
      <trkpt lat="43.57812" lon="6.24469">
        <ele>339.6</ele>
        <time>2016-09-04T12:53:51Z</time>
      </trkpt>
      <trkpt lat="43.57803" lon="6.2447">
        <ele>338</ele>
        <time>2016-09-04T12:54:01Z</time>
      </trkpt>
      <trkpt lat="43.57793" lon="6.24469">
        <ele>336.1</ele>
        <time>2016-09-04T12:54:15Z</time>
      </trkpt>
      <trkpt lat="43.57784" lon="6.24473">
        <ele>333.6</ele>
        <time>2016-09-04T12:54:38Z</time>
      </trkpt>
      <trkpt lat="43.57779" lon="6.24483">
        <ele>331.9</ele>
        <time>2016-09-04T12:54:52Z</time>
      </trkpt>
      <trkpt lat="43.57773" lon="6.24493">
        <ele>330.1</ele>
        <time>2016-09-04T12:55:06Z</time>
      </trkpt>
      <trkpt lat="43.57765" lon="6.24499">
        <ele>328.6</ele>
        <time>2016-09-04T12:55:18Z</time>
      </trkpt>
      <trkpt lat="43.57759" lon="6.24512">
        <ele>327.4</ele>
        <time>2016-09-04T12:55:29Z</time>
      </trkpt>
      <trkpt lat="43.57761" lon="6.24524">
        <ele>326.8</ele>
        <time>2016-09-04T12:55:36Z</time>
      </trkpt>
      <trkpt lat="43.57752" lon="6.24529">
        <ele>326</ele>
        <time>2016-09-04T12:55:54Z</time>
      </trkpt>
      <trkpt lat="43.57745" lon="6.24521">
        <ele>325.3</ele>
        <time>2016-09-04T12:56:20Z</time>
      </trkpt>
      <trkpt lat="43.5775" lon="6.24532">
        <ele>324.7</ele>
        <time>2016-09-04T12:57:05Z</time>
      </trkpt>
      <trkpt lat="43.57741" lon="6.24529">
        <ele>322.9</ele>
        <time>2016-09-04T12:58:53Z</time>
      </trkpt>
      <trkpt lat="43.57734" lon="6.24538">
        <ele>321.8</ele>
        <time>2016-09-04T12:59:13Z</time>
      </trkpt>
      <trkpt lat="43.5773" lon="6.24551">
        <ele>321.4</ele>
        <time>2016-09-04T12:59:22Z</time>
      </trkpt>
      <trkpt lat="43.5773" lon="6.24564">
        <ele>321.1</ele>
        <time>2016-09-04T12:59:30Z</time>
      </trkpt>
      <trkpt lat="43.57732" lon="6.24576">
        <ele>320.9</ele>
        <time>2016-09-04T12:59:39Z</time>
      </trkpt>
      <trkpt lat="43.57729" lon="6.24563">
        <ele>320.1</ele>
        <time>2016-09-04T12:59:57Z</time>
      </trkpt>
      <trkpt lat="43.57727" lon="6.24551">
        <ele>319.4</ele>
        <time>2016-09-04T13:00:09Z</time>
      </trkpt>
      <trkpt lat="43.57718" lon="6.24554">
        <ele>317.5</ele>
        <time>2016-09-04T13:00:27Z</time>
      </trkpt>
      <trkpt lat="43.57711" lon="6.24544">
        <ele>313</ele>
        <time>2016-09-04T13:00:58Z</time>
      </trkpt>
      <trkpt lat="43.57702" lon="6.24545">
        <ele>311.1</ele>
        <time>2016-09-04T13:01:10Z</time>
      </trkpt>
      <trkpt lat="43.57693" lon="6.2454">
        <ele>308</ele>
        <time>2016-09-04T13:01:29Z</time>
      </trkpt>
      <trkpt lat="43.57688" lon="6.24529">
        <ele>305.9</ele>
        <time>2016-09-04T13:01:47Z</time>
      </trkpt>
      <trkpt lat="43.57678" lon="6.24526">
        <ele>305</ele>
        <time>2016-09-04T13:01:55Z</time>
      </trkpt>
      <trkpt lat="43.57668" lon="6.24522">
        <ele>303.9</ele>
        <time>2016-09-04T13:02:06Z</time>
      </trkpt>
      <trkpt lat="43.57659" lon="6.24519">
        <ele>302.6</ele>
        <time>2016-09-04T13:02:17Z</time>
      </trkpt>
      <trkpt lat="43.5765" lon="6.24519">
        <ele>301.4</ele>
        <time>2016-09-04T13:02:28Z</time>
      </trkpt>
      <trkpt lat="43.57641" lon="6.24518">
        <ele>300.6</ele>
        <time>2016-09-04T13:02:35Z</time>
      </trkpt>
      <trkpt lat="43.57632" lon="6.24519">
        <ele>300</ele>
        <time>2016-09-04T13:02:41Z</time>
      </trkpt>
      <trkpt lat="43.57623" lon="6.24523">
        <ele>299</ele>
        <time>2016-09-04T13:02:53Z</time>
      </trkpt>
      <trkpt lat="43.57613" lon="6.24523">
        <ele>298.3</ele>
        <time>2016-09-04T13:03:02Z</time>
      </trkpt>
      <trkpt lat="43.57604" lon="6.24524">
        <ele>297.7</ele>
        <time>2016-09-04T13:03:11Z</time>
      </trkpt>
      <trkpt lat="43.57595" lon="6.24521">
        <ele>297.3</ele>
        <time>2016-09-04T13:03:17Z</time>
      </trkpt>
      <trkpt lat="43.57585" lon="6.2452">
        <ele>296.3</ele>
        <time>2016-09-04T13:03:27Z</time>
      </trkpt>
      <trkpt lat="43.57576" lon="6.24523">
        <ele>295.6</ele>
        <time>2016-09-04T13:03:36Z</time>
      </trkpt>
      <trkpt lat="43.57568" lon="6.2453">
        <ele>295.2</ele>
        <time>2016-09-04T13:03:44Z</time>
      </trkpt>
      <trkpt lat="43.57561" lon="6.2454">
        <ele>294.9</ele>
        <time>2016-09-04T13:03:52Z</time>
      </trkpt>
      <trkpt lat="43.57555" lon="6.24549">
        <ele>294.6</ele>
        <time>2016-09-04T13:04:00Z</time>
      </trkpt>
      <trkpt lat="43.57548" lon="6.24558">
        <ele>294.4</ele>
        <time>2016-09-04T13:04:10Z</time>
      </trkpt>
      <trkpt lat="43.57539" lon="6.24562">
        <ele>294.1</ele>
        <time>2016-09-04T13:04:23Z</time>
      </trkpt>
      <trkpt lat="43.57529" lon="6.24561">
        <ele>293.9</ele>
        <time>2016-09-04T13:04:36Z</time>
      </trkpt>
      <trkpt lat="43.5752" lon="6.24556">
        <ele>293.8</ele>
        <time>2016-09-04T13:04:43Z</time>
      </trkpt>
      <trkpt lat="43.57513" lon="6.24547">
        <ele>293.4</ele>
        <time>2016-09-04T13:04:54Z</time>
      </trkpt>
      <trkpt lat="43.57506" lon="6.24539">
        <ele>293.2</ele>
        <time>2016-09-04T13:05:01Z</time>
      </trkpt>
      <trkpt lat="43.57498" lon="6.2453">
        <ele>293</ele>
        <time>2016-09-04T13:05:09Z</time>
      </trkpt>
      <trkpt lat="43.5749" lon="6.24523">
        <ele>292.7</ele>
        <time>2016-09-04T13:05:15Z</time>
      </trkpt>
      <trkpt lat="43.57482" lon="6.24514">
        <ele>292.4</ele>
        <time>2016-09-04T13:05:24Z</time>
      </trkpt>
      <trkpt lat="43.57478" lon="6.24502">
        <ele>292.2</ele>
        <time>2016-09-04T13:05:33Z</time>
      </trkpt>
      <trkpt lat="43.57471" lon="6.24494">
        <ele>292</ele>
        <time>2016-09-04T13:05:40Z</time>
      </trkpt>
      <trkpt lat="43.57464" lon="6.24485">
        <ele>291.9</ele>
        <time>2016-09-04T13:05:50Z</time>
      </trkpt>
      <trkpt lat="43.57456" lon="6.24477">
        <ele>291.8</ele>
        <time>2016-09-04T13:05:59Z</time>
      </trkpt>
      <trkpt lat="43.57449" lon="6.24468">
        <ele>291.9</ele>
        <time>2016-09-04T13:06:06Z</time>
      </trkpt>
      <trkpt lat="43.57442" lon="6.24459">
        <ele>292</ele>
        <time>2016-09-04T13:06:17Z</time>
      </trkpt>
      <trkpt lat="43.57434" lon="6.24451">
        <ele>292.1</ele>
        <time>2016-09-04T13:06:25Z</time>
      </trkpt>
      <trkpt lat="43.57427" lon="6.24442">
        <ele>292.2</ele>
        <time>2016-09-04T13:06:33Z</time>
      </trkpt>
      <trkpt lat="43.5742" lon="6.24434">
        <ele>292.3</ele>
        <time>2016-09-04T13:06:42Z</time>
      </trkpt>
      <trkpt lat="43.57413" lon="6.24426">
        <ele>292.4</ele>
        <time>2016-09-04T13:06:50Z</time>
      </trkpt>
      <trkpt lat="43.57407" lon="6.24417">
        <ele>292.9</ele>
        <time>2016-09-04T13:07:00Z</time>
      </trkpt>
      <trkpt lat="43.57401" lon="6.24407">
        <ele>293.1</ele>
        <time>2016-09-04T13:07:10Z</time>
      </trkpt>
      <trkpt lat="43.57396" lon="6.24396">
        <ele>293.5</ele>
        <time>2016-09-04T13:07:22Z</time>
      </trkpt>
      <trkpt lat="43.57388" lon="6.2439">
        <ele>293.8</ele>
        <time>2016-09-04T13:07:31Z</time>
      </trkpt>
      <trkpt lat="43.57381" lon="6.2438">
        <ele>294.5</ele>
        <time>2016-09-04T13:07:40Z</time>
      </trkpt>
      <trkpt lat="43.57375" lon="6.2437">
        <ele>295.1</ele>
        <time>2016-09-04T13:07:49Z</time>
      </trkpt>
      <trkpt lat="43.57378" lon="6.24357">
        <ele>295.8</ele>
        <time>2016-09-04T13:07:58Z</time>
      </trkpt>
      <trkpt lat="43.5738" lon="6.24344">
        <ele>296.3</ele>
        <time>2016-09-04T13:08:08Z</time>
      </trkpt>
      <trkpt lat="43.57386" lon="6.24333">
        <ele>296.9</ele>
        <time>2016-09-04T13:08:17Z</time>
      </trkpt>
      <trkpt lat="43.57388" lon="6.2432">
        <ele>297.9</ele>
        <time>2016-09-04T13:08:29Z</time>
      </trkpt>
      <trkpt lat="43.57386" lon="6.24306">
        <ele>298.9</ele>
        <time>2016-09-04T13:08:41Z</time>
      </trkpt>
      <trkpt lat="43.57388" lon="6.24292">
        <ele>300.1</ele>
        <time>2016-09-04T13:08:52Z</time>
      </trkpt>
      <trkpt lat="43.57385" lon="6.24279">
        <ele>301.1</ele>
        <time>2016-09-04T13:09:01Z</time>
      </trkpt>
      <trkpt lat="43.57384" lon="6.24266">
        <ele>302.4</ele>
        <time>2016-09-04T13:09:13Z</time>
      </trkpt>
      <trkpt lat="43.57386" lon="6.24253">
        <ele>303.7</ele>
        <time>2016-09-04T13:09:25Z</time>
      </trkpt>
      <trkpt lat="43.57387" lon="6.2424">
        <ele>305.1</ele>
        <time>2016-09-04T13:09:37Z</time>
      </trkpt>
      <trkpt lat="43.57392" lon="6.2423">
        <ele>307.5</ele>
        <time>2016-09-04T13:09:59Z</time>
      </trkpt>
      <trkpt lat="43.57392" lon="6.24217">
        <ele>308.7</ele>
        <time>2016-09-04T13:10:15Z</time>
      </trkpt>
      <trkpt lat="43.57395" lon="6.24204">
        <ele>309.8</ele>
        <time>2016-09-04T13:10:31Z</time>
      </trkpt>
      <trkpt lat="43.574" lon="6.24193">
        <ele>311.1</ele>
        <time>2016-09-04T13:10:43Z</time>
      </trkpt>
      <trkpt lat="43.57402" lon="6.24181">
        <ele>312.5</ele>
        <time>2016-09-04T13:10:57Z</time>
      </trkpt>
      <trkpt lat="43.57406" lon="6.24169">
        <ele>313.3</ele>
        <time>2016-09-04T13:11:12Z</time>
      </trkpt>
      <trkpt lat="43.57402" lon="6.24157">
        <ele>313.4</ele>
        <time>2016-09-04T13:11:54Z</time>
      </trkpt>
      <trkpt lat="43.57408" lon="6.24146">
        <ele>311.8</ele>
        <time>2016-09-04T13:15:15Z</time>
      </trkpt>
      <trkpt lat="43.57414" lon="6.24136">
        <ele>311.8</ele>
        <time>2016-09-04T13:15:23Z</time>
      </trkpt>
      <trkpt lat="43.5742" lon="6.24126">
        <ele>311.7</ele>
        <time>2016-09-04T13:15:32Z</time>
      </trkpt>
      <trkpt lat="43.57427" lon="6.24118">
        <ele>311.5</ele>
        <time>2016-09-04T13:15:41Z</time>
      </trkpt>
      <trkpt lat="43.57434" lon="6.2411">
        <ele>311.4</ele>
        <time>2016-09-04T13:15:50Z</time>
      </trkpt>
      <trkpt lat="43.57441" lon="6.241">
        <ele>311.3</ele>
        <time>2016-09-04T13:16:00Z</time>
      </trkpt>
      <trkpt lat="43.57448" lon="6.2409">
        <ele>311.3</ele>
        <time>2016-09-04T13:16:08Z</time>
      </trkpt>
      <trkpt lat="43.57454" lon="6.24078">
        <ele>311.7</ele>
        <time>2016-09-04T13:16:19Z</time>
      </trkpt>
      <trkpt lat="43.5746" lon="6.24068">
        <ele>311.8</ele>
        <time>2016-09-04T13:16:26Z</time>
      </trkpt>
      <trkpt lat="43.57465" lon="6.24058">
        <ele>312.1</ele>
        <time>2016-09-04T13:16:36Z</time>
      </trkpt>
      <trkpt lat="43.57472" lon="6.24049">
        <ele>312.5</ele>
        <time>2016-09-04T13:16:44Z</time>
      </trkpt>
      <trkpt lat="43.57478" lon="6.24039">
        <ele>312.9</ele>
        <time>2016-09-04T13:16:54Z</time>
      </trkpt>
      <trkpt lat="43.57485" lon="6.2403">
        <ele>313.2</ele>
        <time>2016-09-04T13:17:04Z</time>
      </trkpt>
      <trkpt lat="43.57492" lon="6.24022">
        <ele>313.2</ele>
        <time>2016-09-04T13:17:12Z</time>
      </trkpt>
      <trkpt lat="43.575" lon="6.24014">
        <ele>313.3</ele>
        <time>2016-09-04T13:17:20Z</time>
      </trkpt>
      <trkpt lat="43.57508" lon="6.24007">
        <ele>313.2</ele>
        <time>2016-09-04T13:17:28Z</time>
      </trkpt>
      <trkpt lat="43.57515" lon="6.23998">
        <ele>313.2</ele>
        <time>2016-09-04T13:17:37Z</time>
      </trkpt>
      <trkpt lat="43.57522" lon="6.23989">
        <ele>313.4</ele>
        <time>2016-09-04T13:17:46Z</time>
      </trkpt>
      <trkpt lat="43.57519" lon="6.23977">
        <ele>313.6</ele>
        <time>2016-09-04T13:17:55Z</time>
      </trkpt>
      <trkpt lat="43.57512" lon="6.23967">
        <ele>313.7</ele>
        <time>2016-09-04T13:18:02Z</time>
      </trkpt>
      <trkpt lat="43.57509" lon="6.23954">
        <ele>313.8</ele>
        <time>2016-09-04T13:18:12Z</time>
      </trkpt>
      <trkpt lat="43.57503" lon="6.23943">
        <ele>313.6</ele>
        <time>2016-09-04T13:18:19Z</time>
      </trkpt>
      <trkpt lat="43.575" lon="6.23929">
        <ele>313.3</ele>
        <time>2016-09-04T13:18:27Z</time>
      </trkpt>
      <trkpt lat="43.57497" lon="6.23916">
        <ele>313.2</ele>
        <time>2016-09-04T13:18:35Z</time>
      </trkpt>
      <trkpt lat="43.57501" lon="6.23905">
        <ele>313</ele>
        <time>2016-09-04T13:18:44Z</time>
      </trkpt>
      <trkpt lat="43.57499" lon="6.23892">
        <ele>312.9</ele>
        <time>2016-09-04T13:18:52Z</time>
      </trkpt>
      <trkpt lat="43.57494" lon="6.23882">
        <ele>313</ele>
        <time>2016-09-04T13:19:04Z</time>
      </trkpt>
      <trkpt lat="43.57484" lon="6.23882">
        <ele>313.3</ele>
        <time>2016-09-04T13:19:14Z</time>
      </trkpt>
      <trkpt lat="43.57475" lon="6.2388">
        <ele>312.8</ele>
        <time>2016-09-04T13:19:59Z</time>
      </trkpt>
      <trkpt lat="43.57466" lon="6.23878">
        <ele>312.5</ele>
        <time>2016-09-04T13:20:18Z</time>
      </trkpt>
      <trkpt lat="43.57457" lon="6.23881">
        <ele>312.3</ele>
        <time>2016-09-04T13:20:58Z</time>
      </trkpt>
      <trkpt lat="43.57448" lon="6.23882">
        <ele>312.2</ele>
        <time>2016-09-04T13:21:10Z</time>
      </trkpt>
      <trkpt lat="43.57438" lon="6.23883">
        <ele>312.1</ele>
        <time>2016-09-04T13:21:19Z</time>
      </trkpt>
      <trkpt lat="43.57429" lon="6.23879">
        <ele>311.9</ele>
        <time>2016-09-04T13:21:33Z</time>
      </trkpt>
      <trkpt lat="43.57421" lon="6.23874">
        <ele>311.7</ele>
        <time>2016-09-04T13:21:49Z</time>
      </trkpt>
      <trkpt lat="43.57411" lon="6.2387">
        <ele>311.7</ele>
        <time>2016-09-04T13:22:01Z</time>
      </trkpt>
      <trkpt lat="43.57402" lon="6.23863">
        <ele>311.5</ele>
        <time>2016-09-04T13:22:10Z</time>
      </trkpt>
      <trkpt lat="43.57393" lon="6.23859">
        <ele>311.3</ele>
        <time>2016-09-04T13:22:18Z</time>
      </trkpt>
      <trkpt lat="43.57384" lon="6.2386">
        <ele>311.1</ele>
        <time>2016-09-04T13:22:26Z</time>
      </trkpt>
      <trkpt lat="43.57378" lon="6.23869">
        <ele>311</ele>
        <time>2016-09-04T13:22:40Z</time>
      </trkpt>
      <trkpt lat="43.57368" lon="6.2387">
        <ele>310.6</ele>
        <time>2016-09-04T13:23:23Z</time>
      </trkpt>
      <trkpt lat="43.5736" lon="6.23875">
        <ele>310.6</ele>
        <time>2016-09-04T13:23:34Z</time>
      </trkpt>
      <trkpt lat="43.57351" lon="6.23878">
        <ele>310.6</ele>
        <time>2016-09-04T13:23:45Z</time>
      </trkpt>
      <trkpt lat="43.57342" lon="6.2388">
        <ele>310.5</ele>
        <time>2016-09-04T13:23:54Z</time>
      </trkpt>
      <trkpt lat="43.57332" lon="6.23878">
        <ele>310.4</ele>
        <time>2016-09-04T13:24:05Z</time>
      </trkpt>
      <trkpt lat="43.57324" lon="6.23874">
        <ele>310.3</ele>
        <time>2016-09-04T13:24:15Z</time>
      </trkpt>
      <trkpt lat="43.57315" lon="6.23869">
        <ele>310.3</ele>
        <time>2016-09-04T13:24:24Z</time>
      </trkpt>
      <trkpt lat="43.57305" lon="6.23866">
        <ele>310.1</ele>
        <time>2016-09-04T13:24:33Z</time>
      </trkpt>
      <trkpt lat="43.57296" lon="6.23865">
        <ele>309.8</ele>
        <time>2016-09-04T13:24:42Z</time>
      </trkpt>
      <trkpt lat="43.57287" lon="6.23862">
        <ele>309.5</ele>
        <time>2016-09-04T13:24:51Z</time>
      </trkpt>
      <trkpt lat="43.57277" lon="6.23864">
        <ele>309.1</ele>
        <time>2016-09-04T13:24:59Z</time>
      </trkpt>
      <trkpt lat="43.57268" lon="6.23865">
        <ele>308.8</ele>
        <time>2016-09-04T13:25:06Z</time>
      </trkpt>
      <trkpt lat="43.57259" lon="6.23866">
        <ele>308.3</ele>
        <time>2016-09-04T13:25:16Z</time>
      </trkpt>
      <trkpt lat="43.57252" lon="6.23874">
        <ele>307.9</ele>
        <time>2016-09-04T13:25:30Z</time>
      </trkpt>
      <trkpt lat="43.57244" lon="6.23867">
        <ele>306.5</ele>
        <time>2016-09-04T13:26:15Z</time>
      </trkpt>
      <trkpt lat="43.57239" lon="6.23855">
        <ele>306.4</ele>
        <time>2016-09-04T13:26:24Z</time>
      </trkpt>
      <trkpt lat="43.57233" lon="6.23845">
        <ele>306.3</ele>
        <time>2016-09-04T13:26:31Z</time>
      </trkpt>
      <trkpt lat="43.57228" lon="6.23835">
        <ele>306.3</ele>
        <time>2016-09-04T13:26:41Z</time>
      </trkpt>
      <trkpt lat="43.57221" lon="6.23826">
        <ele>306.6</ele>
        <time>2016-09-04T13:26:51Z</time>
      </trkpt>
      <trkpt lat="43.57216" lon="6.23816">
        <ele>307.1</ele>
        <time>2016-09-04T13:26:59Z</time>
      </trkpt>
      <trkpt lat="43.5721" lon="6.23805">
        <ele>307.8</ele>
        <time>2016-09-04T13:27:07Z</time>
      </trkpt>
      <trkpt lat="43.57204" lon="6.23795">
        <ele>308.1</ele>
        <time>2016-09-04T13:27:16Z</time>
      </trkpt>
      <trkpt lat="43.57199" lon="6.23783">
        <ele>307.8</ele>
        <time>2016-09-04T13:27:26Z</time>
      </trkpt>
      <trkpt lat="43.57195" lon="6.23771">
        <ele>307.6</ele>
        <time>2016-09-04T13:27:32Z</time>
      </trkpt>
      <trkpt lat="43.57191" lon="6.23759">
        <ele>307.3</ele>
        <time>2016-09-04T13:27:39Z</time>
      </trkpt>
      <trkpt lat="43.57184" lon="6.23751">
        <ele>307</ele>
        <time>2016-09-04T13:27:46Z</time>
      </trkpt>
      <trkpt lat="43.57176" lon="6.23745">
        <ele>306.7</ele>
        <time>2016-09-04T13:27:54Z</time>
      </trkpt>
      <trkpt lat="43.57167" lon="6.2374">
        <ele>305.7</ele>
        <time>2016-09-04T13:28:05Z</time>
      </trkpt>
      <trkpt lat="43.5716" lon="6.23731">
        <ele>305</ele>
        <time>2016-09-04T13:28:14Z</time>
      </trkpt>
      <trkpt lat="43.57152" lon="6.23723">
        <ele>304.6</ele>
        <time>2016-09-04T13:28:24Z</time>
      </trkpt>
      <trkpt lat="43.57146" lon="6.23713">
        <ele>304.3</ele>
        <time>2016-09-04T13:28:33Z</time>
      </trkpt>
      <trkpt lat="43.57138" lon="6.23704">
        <ele>303.7</ele>
        <time>2016-09-04T13:28:44Z</time>
      </trkpt>
      <trkpt lat="43.5713" lon="6.23698">
        <ele>303.4</ele>
        <time>2016-09-04T13:28:57Z</time>
      </trkpt>
      <trkpt lat="43.57122" lon="6.23692">
        <ele>303.1</ele>
        <time>2016-09-04T13:29:06Z</time>
      </trkpt>
      <trkpt lat="43.57113" lon="6.23687">
        <ele>303</ele>
        <time>2016-09-04T13:29:15Z</time>
      </trkpt>
      <trkpt lat="43.57106" lon="6.23678">
        <ele>303</ele>
        <time>2016-09-04T13:29:25Z</time>
      </trkpt>
      <trkpt lat="43.57097" lon="6.2367">
        <ele>303</ele>
        <time>2016-09-04T13:29:34Z</time>
      </trkpt>
      <trkpt lat="43.57092" lon="6.23661">
        <ele>302.8</ele>
        <time>2016-09-04T13:29:43Z</time>
      </trkpt>
      <trkpt lat="43.57087" lon="6.23648">
        <ele>302.5</ele>
        <time>2016-09-04T13:29:58Z</time>
      </trkpt>
      <trkpt lat="43.57079" lon="6.2364">
        <ele>302.1</ele>
        <time>2016-09-04T13:30:09Z</time>
      </trkpt>
      <trkpt lat="43.57074" lon="6.23629">
        <ele>302</ele>
        <time>2016-09-04T13:30:18Z</time>
      </trkpt>
      <trkpt lat="43.57067" lon="6.2362">
        <ele>301.7</ele>
        <time>2016-09-04T13:30:26Z</time>
      </trkpt>
      <trkpt lat="43.57067" lon="6.23605">
        <ele>301.3</ele>
        <time>2016-09-04T13:30:35Z</time>
      </trkpt>
      <trkpt lat="43.57064" lon="6.23593">
        <ele>300.9</ele>
        <time>2016-09-04T13:30:43Z</time>
      </trkpt>
      <trkpt lat="43.5706" lon="6.23582">
        <ele>300.4</ele>
        <time>2016-09-04T13:30:51Z</time>
      </trkpt>
      <trkpt lat="43.57055" lon="6.23571">
        <ele>299.7</ele>
        <time>2016-09-04T13:31:00Z</time>
      </trkpt>
      <trkpt lat="43.57049" lon="6.23561">
        <ele>298.7</ele>
        <time>2016-09-04T13:31:09Z</time>
      </trkpt>
      <trkpt lat="43.57043" lon="6.23551">
        <ele>297.7</ele>
        <time>2016-09-04T13:31:18Z</time>
      </trkpt>
      <trkpt lat="43.57038" lon="6.23541">
        <ele>297.1</ele>
        <time>2016-09-04T13:31:25Z</time>
      </trkpt>
      <trkpt lat="43.57031" lon="6.23532">
        <ele>296.1</ele>
        <time>2016-09-04T13:31:33Z</time>
      </trkpt>
      <trkpt lat="43.57024" lon="6.23521">
        <ele>294.5</ele>
        <time>2016-09-04T13:31:43Z</time>
      </trkpt>
      <trkpt lat="43.57016" lon="6.23513">
        <ele>293.2</ele>
        <time>2016-09-04T13:31:51Z</time>
      </trkpt>
      <trkpt lat="43.5701" lon="6.23505">
        <ele>292.1</ele>
        <time>2016-09-04T13:31:59Z</time>
      </trkpt>
      <trkpt lat="43.57002" lon="6.23499">
        <ele>290.9</ele>
        <time>2016-09-04T13:32:09Z</time>
      </trkpt>
      <trkpt lat="43.56997" lon="6.23488">
        <ele>289.6</ele>
        <time>2016-09-04T13:32:20Z</time>
      </trkpt>
      <trkpt lat="43.56988" lon="6.23481">
        <ele>289</ele>
        <time>2016-09-04T13:32:27Z</time>
      </trkpt>
      <trkpt lat="43.56979" lon="6.23477">
        <ele>288.5</ele>
        <time>2016-09-04T13:32:35Z</time>
      </trkpt>
      <trkpt lat="43.56971" lon="6.23473">
        <ele>288.1</ele>
        <time>2016-09-04T13:32:42Z</time>
      </trkpt>
      <trkpt lat="43.56964" lon="6.23464">
        <ele>287.6</ele>
        <time>2016-09-04T13:32:50Z</time>
      </trkpt>
      <trkpt lat="43.56956" lon="6.23456">
        <ele>287.2</ele>
        <time>2016-09-04T13:32:58Z</time>
      </trkpt>
      <trkpt lat="43.56948" lon="6.23451">
        <ele>286.3</ele>
        <time>2016-09-04T13:33:08Z</time>
      </trkpt>
      <trkpt lat="43.5694" lon="6.23445">
        <ele>285.5</ele>
        <time>2016-09-04T13:33:16Z</time>
      </trkpt>
      <trkpt lat="43.56932" lon="6.23437">
        <ele>285.1</ele>
        <time>2016-09-04T13:33:23Z</time>
      </trkpt>
      <trkpt lat="43.56923" lon="6.23431">
        <ele>284.8</ele>
        <time>2016-09-04T13:33:32Z</time>
      </trkpt>
      <trkpt lat="43.56914" lon="6.23428">
        <ele>284.2</ele>
        <time>2016-09-04T13:33:41Z</time>
      </trkpt>
      <trkpt lat="43.56905" lon="6.23424">
        <ele>282.6</ele>
        <time>2016-09-04T13:33:59Z</time>
      </trkpt>
      <trkpt lat="43.56899" lon="6.23415">
        <ele>281.2</ele>
        <time>2016-09-04T13:34:16Z</time>
      </trkpt>
      <trkpt lat="43.56891" lon="6.23408">
        <ele>280.2</ele>
        <time>2016-09-04T13:34:30Z</time>
      </trkpt>
      <trkpt lat="43.56882" lon="6.23402">
        <ele>279.1</ele>
        <time>2016-09-04T13:34:39Z</time>
      </trkpt>
      <trkpt lat="43.56874" lon="6.23395">
        <ele>277.9</ele>
        <time>2016-09-04T13:34:48Z</time>
      </trkpt>
      <trkpt lat="43.56869" lon="6.23385">
        <ele>277.1</ele>
        <time>2016-09-04T13:34:57Z</time>
      </trkpt>
      <trkpt lat="43.56861" lon="6.23378">
        <ele>276.4</ele>
        <time>2016-09-04T13:35:07Z</time>
      </trkpt>
      <trkpt lat="43.56856" lon="6.23366">
        <ele>275.9</ele>
        <time>2016-09-04T13:35:18Z</time>
      </trkpt>
      <trkpt lat="43.5685" lon="6.23357">
        <ele>275.2</ele>
        <time>2016-09-04T13:35:29Z</time>
      </trkpt>
      <trkpt lat="43.56843" lon="6.23347">
        <ele>274.6</ele>
        <time>2016-09-04T13:35:39Z</time>
      </trkpt>
      <trkpt lat="43.56837" lon="6.23336">
        <ele>273.8</ele>
        <time>2016-09-04T13:35:48Z</time>
      </trkpt>
      <trkpt lat="43.56831" lon="6.23326">
        <ele>273.3</ele>
        <time>2016-09-04T13:35:56Z</time>
      </trkpt>
      <trkpt lat="43.56823" lon="6.23318">
        <ele>272.2</ele>
        <time>2016-09-04T13:36:05Z</time>
      </trkpt>
      <trkpt lat="43.56816" lon="6.2331">
        <ele>271</ele>
        <time>2016-09-04T13:36:17Z</time>
      </trkpt>
      <trkpt lat="43.56807" lon="6.2331">
        <ele>270.9</ele>
        <time>2016-09-04T13:38:27Z</time>
      </trkpt>
      <trkpt lat="43.56799" lon="6.23302">
        <ele>270.5</ele>
        <time>2016-09-04T13:38:38Z</time>
      </trkpt>
      <trkpt lat="43.56792" lon="6.23292">
        <ele>269.6</ele>
        <time>2016-09-04T13:38:51Z</time>
      </trkpt>
      <trkpt lat="43.56787" lon="6.23282">
        <ele>269.1</ele>
        <time>2016-09-04T13:38:58Z</time>
      </trkpt>
      <trkpt lat="43.56779" lon="6.23274">
        <ele>268.4</ele>
        <time>2016-09-04T13:39:08Z</time>
      </trkpt>
      <trkpt lat="43.5677" lon="6.23278">
        <ele>267.4</ele>
        <time>2016-09-04T13:39:40Z</time>
      </trkpt>
      <trkpt lat="43.56761" lon="6.23273">
        <ele>267</ele>
        <time>2016-09-04T13:39:49Z</time>
      </trkpt>
      <trkpt lat="43.56753" lon="6.23268">
        <ele>266.9</ele>
        <time>2016-09-04T13:39:58Z</time>
      </trkpt>
      <trkpt lat="43.56744" lon="6.23263">
        <ele>266.3</ele>
        <time>2016-09-04T13:40:11Z</time>
      </trkpt>
      <trkpt lat="43.56736" lon="6.23258">
        <ele>266.1</ele>
        <time>2016-09-04T13:40:24Z</time>
      </trkpt>
      <trkpt lat="43.56731" lon="6.23268">
        <ele>266.3</ele>
        <time>2016-09-04T13:40:43Z</time>
      </trkpt>
      <trkpt lat="43.56722" lon="6.23265">
        <ele>266.4</ele>
        <time>2016-09-04T13:40:55Z</time>
      </trkpt>
      <trkpt lat="43.56713" lon="6.23261">
        <ele>266.7</ele>
        <time>2016-09-04T13:41:08Z</time>
      </trkpt>
      <trkpt lat="43.56705" lon="6.23255">
        <ele>267.1</ele>
        <time>2016-09-04T13:41:16Z</time>
      </trkpt>
      <trkpt lat="43.56695" lon="6.23253">
        <ele>267.4</ele>
        <time>2016-09-04T13:41:26Z</time>
      </trkpt>
      <trkpt lat="43.56686" lon="6.2325">
        <ele>268.3</ele>
        <time>2016-09-04T13:41:40Z</time>
      </trkpt>
      <trkpt lat="43.56679" lon="6.23242">
        <ele>268.9</ele>
        <time>2016-09-04T13:41:50Z</time>
      </trkpt>
      <trkpt lat="43.5667" lon="6.23237">
        <ele>269.2</ele>
        <time>2016-09-04T13:42:00Z</time>
      </trkpt>
      <trkpt lat="43.56663" lon="6.23228">
        <ele>270</ele>
        <time>2016-09-04T13:42:46Z</time>
      </trkpt>
      <trkpt lat="43.56655" lon="6.23221">
        <ele>270</ele>
        <time>2016-09-04T13:42:56Z</time>
      </trkpt>
      <trkpt lat="43.56647" lon="6.23216">
        <ele>270</ele>
        <time>2016-09-04T13:43:03Z</time>
      </trkpt>
      <trkpt lat="43.56638" lon="6.2321">
        <ele>269.9</ele>
        <time>2016-09-04T13:43:11Z</time>
      </trkpt>
      <trkpt lat="43.5663" lon="6.23206">
        <ele>269.7</ele>
        <time>2016-09-04T13:43:19Z</time>
      </trkpt>
      <trkpt lat="43.56621" lon="6.232">
        <ele>269.6</ele>
        <time>2016-09-04T13:43:27Z</time>
      </trkpt>
      <trkpt lat="43.56614" lon="6.23191">
        <ele>269.5</ele>
        <time>2016-09-04T13:43:38Z</time>
      </trkpt>
      <trkpt lat="43.56608" lon="6.23181">
        <ele>269.5</ele>
        <time>2016-09-04T13:43:50Z</time>
      </trkpt>
      <trkpt lat="43.56598" lon="6.23181">
        <ele>271.2</ele>
        <time>2016-09-04T13:46:41Z</time>
      </trkpt>
      <trkpt lat="43.56595" lon="6.23169">
        <ele>271.4</ele>
        <time>2016-09-04T13:46:53Z</time>
      </trkpt>
      <trkpt lat="43.56587" lon="6.23162">
        <ele>271.8</ele>
        <time>2016-09-04T13:47:10Z</time>
      </trkpt>
      <trkpt lat="43.56579" lon="6.23157">
        <ele>272.3</ele>
        <time>2016-09-04T13:47:24Z</time>
      </trkpt>
      <trkpt lat="43.56575" lon="6.23144">
        <ele>273.2</ele>
        <time>2016-09-04T13:47:38Z</time>
      </trkpt>
      <trkpt lat="43.56569" lon="6.23135">
        <ele>276</ele>
        <time>2016-09-04T13:48:15Z</time>
      </trkpt>
      <trkpt lat="43.56574" lon="6.23146">
        <ele>276.4</ele>
        <time>2016-09-04T13:49:14Z</time>
      </trkpt>
      <trkpt lat="43.56579" lon="6.23156">
        <ele>275.3</ele>
        <time>2016-09-04T13:49:29Z</time>
      </trkpt>
      <trkpt lat="43.56587" lon="6.23163">
        <ele>274.5</ele>
        <time>2016-09-04T13:49:41Z</time>
      </trkpt>
      <trkpt lat="43.56596" lon="6.23169">
        <ele>273.9</ele>
        <time>2016-09-04T13:49:53Z</time>
      </trkpt>
      <trkpt lat="43.56602" lon="6.23179">
        <ele>273.4</ele>
        <time>2016-09-04T13:50:09Z</time>
      </trkpt>
      <trkpt lat="43.56606" lon="6.23189">
        <ele>272.2</ele>
        <time>2016-09-04T13:54:09Z</time>
      </trkpt>
      <trkpt lat="43.56612" lon="6.23199">
        <ele>271.4</ele>
        <time>2016-09-04T13:54:24Z</time>
      </trkpt>
      <trkpt lat="43.56621" lon="6.23204">
        <ele>270.7</ele>
        <time>2016-09-04T13:54:38Z</time>
      </trkpt>
      <trkpt lat="43.56628" lon="6.23211">
        <ele>270.4</ele>
        <time>2016-09-04T13:54:48Z</time>
      </trkpt>
      <trkpt lat="43.56636" lon="6.23216">
        <ele>270.3</ele>
        <time>2016-09-04T13:54:58Z</time>
      </trkpt>
      <trkpt lat="43.56643" lon="6.23224">
        <ele>270.2</ele>
        <time>2016-09-04T13:55:09Z</time>
      </trkpt>
      <trkpt lat="43.56651" lon="6.23231">
        <ele>270.2</ele>
        <time>2016-09-04T13:55:22Z</time>
      </trkpt>
      <trkpt lat="43.56659" lon="6.23237">
        <ele>270.2</ele>
        <time>2016-09-04T13:55:33Z</time>
      </trkpt>
      <trkpt lat="43.56667" lon="6.23244">
        <ele>270.3</ele>
        <time>2016-09-04T13:55:41Z</time>
      </trkpt>
      <trkpt lat="43.56675" lon="6.23252">
        <ele>270.2</ele>
        <time>2016-09-04T13:55:50Z</time>
      </trkpt>
      <trkpt lat="43.56684" lon="6.23258">
        <ele>270.1</ele>
        <time>2016-09-04T13:56:03Z</time>
      </trkpt>
      <trkpt lat="43.56691" lon="6.23265">
        <ele>270.1</ele>
        <time>2016-09-04T13:56:12Z</time>
      </trkpt>
      <trkpt lat="43.56701" lon="6.23269">
        <ele>269.9</ele>
        <time>2016-09-04T13:56:23Z</time>
      </trkpt>
      <trkpt lat="43.5671" lon="6.23271">
        <ele>269.6</ele>
        <time>2016-09-04T13:56:31Z</time>
      </trkpt>
      <trkpt lat="43.56719" lon="6.23275">
        <ele>268.7</ele>
        <time>2016-09-04T13:56:40Z</time>
      </trkpt>
      <trkpt lat="43.56711" lon="6.2327">
        <ele>267</ele>
        <time>2016-09-04T13:56:58Z</time>
      </trkpt>
      <trkpt lat="43.56701" lon="6.23269">
        <ele>266.6</ele>
        <time>2016-09-04T13:57:07Z</time>
      </trkpt>
      <trkpt lat="43.56692" lon="6.2327">
        <ele>266.1</ele>
        <time>2016-09-04T13:57:17Z</time>
      </trkpt>
      <trkpt lat="43.56682" lon="6.23268">
        <ele>265</ele>
        <time>2016-09-04T13:57:29Z</time>
      </trkpt>
      <trkpt lat="43.56673" lon="6.23266">
        <ele>264.3</ele>
        <time>2016-09-04T13:57:37Z</time>
      </trkpt>
      <trkpt lat="43.56664" lon="6.23267">
        <ele>262.9</ele>
        <time>2016-09-04T13:57:50Z</time>
      </trkpt>
      <trkpt lat="43.56654" lon="6.23265">
        <ele>261.3</ele>
        <time>2016-09-04T13:58:07Z</time>
      </trkpt>
      <trkpt lat="43.56646" lon="6.23257">
        <ele>260.4</ele>
        <time>2016-09-04T13:58:20Z</time>
      </trkpt>
      <trkpt lat="43.56638" lon="6.23249">
        <ele>259.4</ele>
        <time>2016-09-04T13:58:34Z</time>
      </trkpt>
      <trkpt lat="43.56632" lon="6.23239">
        <ele>258.4</ele>
        <time>2016-09-04T13:58:45Z</time>
      </trkpt>
      <trkpt lat="43.56623" lon="6.23237">
        <ele>257.4</ele>
        <time>2016-09-04T13:58:52Z</time>
      </trkpt>
      <trkpt lat="43.56614" lon="6.2324">
        <ele>255.9</ele>
        <time>2016-09-04T13:59:09Z</time>
      </trkpt>
      <trkpt lat="43.56605" lon="6.23241">
        <ele>255.2</ele>
        <time>2016-09-04T13:59:22Z</time>
      </trkpt>
      <trkpt lat="43.56595" lon="6.23243">
        <ele>254.9</ele>
        <time>2016-09-04T13:59:31Z</time>
      </trkpt>
      <trkpt lat="43.56586" lon="6.23246">
        <ele>254.6</ele>
        <time>2016-09-04T13:59:41Z</time>
      </trkpt>
      <trkpt lat="43.56578" lon="6.23238">
        <ele>254.3</ele>
        <time>2016-09-04T13:59:51Z</time>
      </trkpt>
      <trkpt lat="43.56569" lon="6.23231">
        <ele>253.9</ele>
        <time>2016-09-04T13:59:58Z</time>
      </trkpt>
      <trkpt lat="43.56564" lon="6.2322">
        <ele>253.4</ele>
        <time>2016-09-04T14:00:08Z</time>
      </trkpt>
      <trkpt lat="43.56555" lon="6.23223">
        <ele>252.6</ele>
        <time>2016-09-04T14:00:25Z</time>
      </trkpt>
      <trkpt lat="43.56551" lon="6.23234">
        <ele>249.9</ele>
        <time>2016-09-04T14:01:49Z</time>
      </trkpt>
      <trkpt lat="43.56542" lon="6.23229">
        <ele>250.9</ele>
        <time>2016-09-04T14:05:28Z</time>
      </trkpt>
      <trkpt lat="43.56534" lon="6.23233">
        <ele>248.8</ele>
        <time>2016-09-04T14:05:52Z</time>
      </trkpt>
      <trkpt lat="43.56524" lon="6.23235">
        <ele>243.9</ele>
        <time>2016-09-04T14:06:21Z</time>
      </trkpt>
      <trkpt lat="43.56515" lon="6.2323">
        <ele>242.8</ele>
        <time>2016-09-04T14:06:27Z</time>
      </trkpt>
      <trkpt lat="43.56506" lon="6.23227">
        <ele>241.9</ele>
        <time>2016-09-04T14:06:32Z</time>
      </trkpt>
      <trkpt lat="43.56507" lon="6.23241">
        <ele>239.8</ele>
        <time>2016-09-04T14:06:44Z</time>
      </trkpt>
      <trkpt lat="43.56516" lon="6.23249">
        <ele>239.3</ele>
        <time>2016-09-04T14:06:48Z</time>
      </trkpt>
      <trkpt lat="43.56524" lon="6.23257">
        <ele>238.5</ele>
        <time>2016-09-04T14:06:54Z</time>
      </trkpt>
      <trkpt lat="43.56519" lon="6.23269">
        <ele>236.9</ele>
        <time>2016-09-04T14:07:05Z</time>
      </trkpt>
      <trkpt lat="43.56512" lon="6.23279">
        <ele>236.3</ele>
        <time>2016-09-04T14:07:10Z</time>
      </trkpt>
      <trkpt lat="43.56504" lon="6.23286">
        <ele>235.3</ele>
        <time>2016-09-04T14:07:18Z</time>
      </trkpt>
      <trkpt lat="43.56497" lon="6.23277">
        <ele>233.8</ele>
        <time>2016-09-04T14:07:52Z</time>
      </trkpt>
      <trkpt lat="43.56495" lon="6.23264">
        <ele>233.8</ele>
        <time>2016-09-04T14:08:04Z</time>
      </trkpt>
      <trkpt lat="43.56492" lon="6.23251">
        <ele>233.8</ele>
        <time>2016-09-04T14:08:12Z</time>
      </trkpt>
      <trkpt lat="43.56486" lon="6.2324">
        <ele>233.9</ele>
        <time>2016-09-04T14:08:22Z</time>
      </trkpt>
      <trkpt lat="43.56481" lon="6.2323">
        <ele>234</ele>
        <time>2016-09-04T14:08:31Z</time>
      </trkpt>
      <trkpt lat="43.56476" lon="6.23218">
        <ele>234</ele>
        <time>2016-09-04T14:08:40Z</time>
      </trkpt>
      <trkpt lat="43.56473" lon="6.23206">
        <ele>233.5</ele>
        <time>2016-09-04T14:08:55Z</time>
      </trkpt>
      <trkpt lat="43.56464" lon="6.23197">
        <ele>232.7</ele>
        <time>2016-09-04T14:09:10Z</time>
      </trkpt>
      <trkpt lat="43.56455" lon="6.23194">
        <ele>232.4</ele>
        <time>2016-09-04T14:09:14Z</time>
      </trkpt>
      <trkpt lat="43.56444" lon="6.23191">
        <ele>232.1</ele>
        <time>2016-09-04T14:09:19Z</time>
      </trkpt>
      <trkpt lat="43.56439" lon="6.23203">
        <ele>231.7</ele>
        <time>2016-09-04T14:09:30Z</time>
      </trkpt>
      <trkpt lat="43.56432" lon="6.23211">
        <ele>231</ele>
        <time>2016-09-04T14:09:42Z</time>
      </trkpt>
      <trkpt lat="43.56423" lon="6.23216">
        <ele>230.8</ele>
        <time>2016-09-04T14:09:53Z</time>
      </trkpt>
      <trkpt lat="43.56413" lon="6.23212">
        <ele>230.4</ele>
        <time>2016-09-04T14:10:04Z</time>
      </trkpt>
      <trkpt lat="43.56404" lon="6.23208">
        <ele>230.2</ele>
        <time>2016-09-04T14:10:10Z</time>
      </trkpt>
      <trkpt lat="43.564" lon="6.23218">
        <ele>229.8</ele>
        <time>2016-09-04T14:10:20Z</time>
      </trkpt>
      <trkpt lat="43.56395" lon="6.23229">
        <ele>229.3</ele>
        <time>2016-09-04T14:10:34Z</time>
      </trkpt>
      <trkpt lat="43.56387" lon="6.23235">
        <ele>229.1</ele>
        <time>2016-09-04T14:10:40Z</time>
      </trkpt>
      <trkpt lat="43.56384" lon="6.23247">
        <ele>228.8</ele>
        <time>2016-09-04T14:10:53Z</time>
      </trkpt>
      <trkpt lat="43.5638" lon="6.23259">
        <ele>228.7</ele>
        <time>2016-09-04T14:11:07Z</time>
      </trkpt>
      <trkpt lat="43.56372" lon="6.23268">
        <ele>228.7</ele>
        <time>2016-09-04T14:11:16Z</time>
      </trkpt>
      <trkpt lat="43.56369" lon="6.2328">
        <ele>228.6</ele>
        <time>2016-09-04T14:11:28Z</time>
      </trkpt>
      <trkpt lat="43.5636" lon="6.23286">
        <ele>228.4</ele>
        <time>2016-09-04T14:11:44Z</time>
      </trkpt>
      <trkpt lat="43.56358" lon="6.23299">
        <ele>228.6</ele>
        <time>2016-09-04T14:11:56Z</time>
      </trkpt>
      <trkpt lat="43.56362" lon="6.2331">
        <ele>229.1</ele>
        <time>2016-09-04T14:12:10Z</time>
      </trkpt>
      <trkpt lat="43.56363" lon="6.23308">
        <ele>228.9</ele>
        <time>2016-09-04T15:03:25Z</time>
      </trkpt>
      <trkpt lat="43.5636" lon="6.23295">
        <ele>228.1</ele>
        <time>2016-09-04T15:03:46Z</time>
      </trkpt>
      <trkpt lat="43.56366" lon="6.23278">
        <ele>227.9</ele>
        <time>2016-09-04T15:06:00Z</time>
      </trkpt>
      <trkpt lat="43.56364" lon="6.23265">
        <ele>227.9</ele>
        <time>2016-09-04T15:06:08Z</time>
      </trkpt>
      <trkpt lat="43.56365" lon="6.23252">
        <ele>227.8</ele>
        <time>2016-09-04T15:06:16Z</time>
      </trkpt>
      <trkpt lat="43.56366" lon="6.23239">
        <ele>227.8</ele>
        <time>2016-09-04T15:06:25Z</time>
      </trkpt>
      <trkpt lat="43.56367" lon="6.23227">
        <ele>227.8</ele>
        <time>2016-09-04T15:06:34Z</time>
      </trkpt>
      <trkpt lat="43.56365" lon="6.23214">
        <ele>227.7</ele>
        <time>2016-09-04T15:06:41Z</time>
      </trkpt>
      <trkpt lat="43.56369" lon="6.23201">
        <ele>227.7</ele>
        <time>2016-09-04T15:06:48Z</time>
      </trkpt>
      <trkpt lat="43.56373" lon="6.23189">
        <ele>227.6</ele>
        <time>2016-09-04T15:06:55Z</time>
      </trkpt>
      <trkpt lat="43.56378" lon="6.23177">
        <ele>227.2</ele>
        <time>2016-09-04T15:07:03Z</time>
      </trkpt>
      <trkpt lat="43.56384" lon="6.23167">
        <ele>227</ele>
        <time>2016-09-04T15:07:10Z</time>
      </trkpt>
      <trkpt lat="43.56386" lon="6.23154">
        <ele>226.8</ele>
        <time>2016-09-04T15:07:25Z</time>
      </trkpt>
      <trkpt lat="43.5639" lon="6.23142">
        <ele>226.7</ele>
        <time>2016-09-04T15:07:34Z</time>
      </trkpt>
      <trkpt lat="43.56397" lon="6.23134">
        <ele>226.7</ele>
        <time>2016-09-04T15:07:42Z</time>
      </trkpt>
      <trkpt lat="43.56405" lon="6.23127">
        <ele>226.7</ele>
        <time>2016-09-04T15:07:51Z</time>
      </trkpt>
      <trkpt lat="43.56412" lon="6.23118">
        <ele>226.7</ele>
        <time>2016-09-04T15:07:59Z</time>
      </trkpt>
      <trkpt lat="43.56419" lon="6.23108">
        <ele>226.6</ele>
        <time>2016-09-04T15:08:07Z</time>
      </trkpt>
      <trkpt lat="43.56427" lon="6.23101">
        <ele>226.6</ele>
        <time>2016-09-04T15:08:15Z</time>
      </trkpt>
      <trkpt lat="43.56433" lon="6.23091">
        <ele>226.6</ele>
        <time>2016-09-04T15:08:21Z</time>
      </trkpt>
      <trkpt lat="43.56439" lon="6.2308">
        <ele>226.6</ele>
        <time>2016-09-04T15:08:29Z</time>
      </trkpt>
      <trkpt lat="43.56447" lon="6.23071">
        <ele>226.6</ele>
        <time>2016-09-04T15:08:38Z</time>
      </trkpt>
      <trkpt lat="43.56457" lon="6.23066">
        <ele>226.6</ele>
        <time>2016-09-04T15:08:47Z</time>
      </trkpt>
      <trkpt lat="43.56466" lon="6.23063">
        <ele>226.6</ele>
        <time>2016-09-04T15:08:52Z</time>
      </trkpt>
      <trkpt lat="43.56471" lon="6.23051">
        <ele>226.7</ele>
        <time>2016-09-04T15:09:00Z</time>
      </trkpt>
      <trkpt lat="43.56473" lon="6.23038">
        <ele>227</ele>
        <time>2016-09-04T15:09:18Z</time>
      </trkpt>
      <trkpt lat="43.56478" lon="6.23028">
        <ele>227</ele>
        <time>2016-09-04T15:09:25Z</time>
      </trkpt>
      <trkpt lat="43.56487" lon="6.23021">
        <ele>227.1</ele>
        <time>2016-09-04T15:09:31Z</time>
      </trkpt>
      <trkpt lat="43.56496" lon="6.23017">
        <ele>227.3</ele>
        <time>2016-09-04T15:09:41Z</time>
      </trkpt>
      <trkpt lat="43.56504" lon="6.23009">
        <ele>227.3</ele>
        <time>2016-09-04T15:09:50Z</time>
      </trkpt>
      <trkpt lat="43.5651" lon="6.22999">
        <ele>227.3</ele>
        <time>2016-09-04T15:09:58Z</time>
      </trkpt>
      <trkpt lat="43.56517" lon="6.2299">
        <ele>227.4</ele>
        <time>2016-09-04T15:10:06Z</time>
      </trkpt>
      <trkpt lat="43.56525" lon="6.22982">
        <ele>227.4</ele>
        <time>2016-09-04T15:10:11Z</time>
      </trkpt>
      <trkpt lat="43.56532" lon="6.22975">
        <ele>227.4</ele>
        <time>2016-09-04T15:10:17Z</time>
      </trkpt>
      <trkpt lat="43.5654" lon="6.22969">
        <ele>227.4</ele>
        <time>2016-09-04T15:10:25Z</time>
      </trkpt>
      <trkpt lat="43.56547" lon="6.22959">
        <ele>227.6</ele>
        <time>2016-09-04T15:10:32Z</time>
      </trkpt>
      <trkpt lat="43.56553" lon="6.22949">
        <ele>227.9</ele>
        <time>2016-09-04T15:10:40Z</time>
      </trkpt>
      <trkpt lat="43.56559" lon="6.22939">
        <ele>228.1</ele>
        <time>2016-09-04T15:10:49Z</time>
      </trkpt>
      <trkpt lat="43.56567" lon="6.22931">
        <ele>228.3</ele>
        <time>2016-09-04T15:10:56Z</time>
      </trkpt>
      <trkpt lat="43.56574" lon="6.22922">
        <ele>228.5</ele>
        <time>2016-09-04T15:11:03Z</time>
      </trkpt>
      <trkpt lat="43.56577" lon="6.22909">
        <ele>228.8</ele>
        <time>2016-09-04T15:11:12Z</time>
      </trkpt>
      <trkpt lat="43.56569" lon="6.22902">
        <ele>228.9</ele>
        <time>2016-09-04T15:11:19Z</time>
      </trkpt>
      <trkpt lat="43.56561" lon="6.22897">
        <ele>229</ele>
        <time>2016-09-04T15:11:26Z</time>
      </trkpt>
      <trkpt lat="43.56557" lon="6.22885">
        <ele>228.8</ele>
        <time>2016-09-04T15:11:33Z</time>
      </trkpt>
      <trkpt lat="43.56557" lon="6.2287">
        <ele>228.3</ele>
        <time>2016-09-04T15:11:41Z</time>
      </trkpt>
      <trkpt lat="43.56555" lon="6.22858">
        <ele>228</ele>
        <time>2016-09-04T15:11:47Z</time>
      </trkpt>
      <trkpt lat="43.56552" lon="6.22846">
        <ele>227.4</ele>
        <time>2016-09-04T15:11:55Z</time>
      </trkpt>
      <trkpt lat="43.56547" lon="6.22836">
        <ele>227</ele>
        <time>2016-09-04T15:12:03Z</time>
      </trkpt>
      <trkpt lat="43.56541" lon="6.22825">
        <ele>226.6</ele>
        <time>2016-09-04T15:12:12Z</time>
      </trkpt>
      <trkpt lat="43.56536" lon="6.22815">
        <ele>226.2</ele>
        <time>2016-09-04T15:12:19Z</time>
      </trkpt>
      <trkpt lat="43.56534" lon="6.22801">
        <ele>225.8</ele>
        <time>2016-09-04T15:12:28Z</time>
      </trkpt>
      <trkpt lat="43.56535" lon="6.22788">
        <ele>225.6</ele>
        <time>2016-09-04T15:12:37Z</time>
      </trkpt>
      <trkpt lat="43.56531" lon="6.22776">
        <ele>225.4</ele>
        <time>2016-09-04T15:12:45Z</time>
      </trkpt>
      <trkpt lat="43.5653" lon="6.22762">
        <ele>225.3</ele>
        <time>2016-09-04T15:12:53Z</time>
      </trkpt>
      <trkpt lat="43.56531" lon="6.22748">
        <ele>225.1</ele>
        <time>2016-09-04T15:13:02Z</time>
      </trkpt>
      <trkpt lat="43.56524" lon="6.22739">
        <ele>224.4</ele>
        <time>2016-09-04T15:15:45Z</time>
      </trkpt>
    </trkseg>
  </trk>
</gpx>